Provisional Data: West Creek near Weber City, PA


Please select a monitoring station.
Please select start date.
Please select start date.

Toggle Unit: C/F Toggle Unit: C/F
Sample Time Temperature (C) Temperature (F) Specific Conductivity (mS/cm) pH   Turbidity (NTU+) DO (mg/L)
10/22/2021 12:00:00 AM 13.59 56.462 0.093 7.16 7.42 9.86
10/22/2021 12:15:00 AM 13.53 56.354 0.093 7.16 6.34 9.87
10/22/2021 12:30:00 AM 13.48 56.264 0.094 7.16 5.78 9.88
10/22/2021 12:45:00 AM 13.44 56.192 0.094 7.15 5.57 9.88
10/22/2021 1:00:00 AM 13.41 56.138 0.094 7.15 5.93 9.89
10/22/2021 1:15:00 AM 13.36 56.048 0.094 7.15 6.37 9.91
10/22/2021 1:30:00 AM 13.32 55.976 0.094 7.15 6.85 9.92
10/22/2021 1:45:00 AM 13.28 55.904 0.094 7.16 6.62 9.94
10/22/2021 2:00:00 AM 13.25 55.85 0.094 7.16 6.57 9.95
10/22/2021 2:15:00 AM 13.21 55.778 0.094 7.16 6.02 9.98
10/22/2021 2:30:00 AM 13.18 55.724 0.094 7.17 5.71 9.99
10/22/2021 2:45:00 AM 13.15 55.67 0.094 7.17 5.69 10.01
10/22/2021 3:00:00 AM 13.12 55.616 0.094 7.17 5.56 10.02
10/22/2021 3:15:00 AM 13.09 55.562 0.094 7.17 5.58 10.03
10/22/2021 3:30:00 AM 13.06 55.508 0.094 7.18 6.19 10.05
10/22/2021 3:45:00 AM 13.03 55.454 0.094 7.18 6.51 10.05
10/22/2021 4:00:00 AM 13.01 55.418 0.094 7.18 6.77 10.06
10/22/2021 4:15:00 AM 12.98 55.364 0.094 7.19 6.77 10.07
10/22/2021 4:30:00 AM 12.96 55.328 0.094 7.19 6.55 10.08
10/22/2021 4:45:00 AM 12.94 55.292 0.094 7.19 6.35 10.09
10/22/2021 5:00:00 AM 12.91 55.238 0.094 7.19 5.71 10.1
10/22/2021 5:15:00 AM 12.89 55.202 0.095 7.19 5.7 10.11
10/22/2021 5:30:00 AM 12.86 55.148 0.095 7.19 5.49 10.12
10/22/2021 5:45:00 AM 12.83 55.094 0.095 7.19 5.25 10.14
10/22/2021 6:00:00 AM 12.81 55.058 0.095 7.19 5.81 10.15
10/22/2021 6:15:00 AM 12.78 55.004 0.095 7.19 7.09 10.16
10/22/2021 6:30:00 AM 12.75 54.95 0.095 7.19 6.91 10.18
10/22/2021 6:45:00 AM 12.73 54.914 0.095 7.21 6.59 10.21
10/22/2021 7:00:00 AM 12.7 54.86 0.095 7.21 6.15 10.22
10/22/2021 7:15:00 AM 12.67 54.806 0.095 7.24 5.58 10.24
10/22/2021 7:30:00 AM 12.64 54.752 0.095 7.21 5.88 10.26
10/22/2021 7:45:00 AM 12.61 54.698 0.095 7.21 5.1 10.27
10/22/2021 8:00:00 AM 12.59 54.662 0.095 7.22 5.03 10.3
10/22/2021 8:15:00 AM 12.57 54.626 0.095 7.23 4.47 10.34
10/22/2021 8:30:00 AM 12.56 54.608 0.095 7.24 4.43 10.39
10/22/2021 8:45:00 AM 12.55 54.59 0.094 7.25 4.17 10.44
10/22/2021 9:00:00 AM 12.55 54.59 0.094 7.26 4.4 10.5
10/22/2021 9:15:00 AM 12.55 54.59 0.094 7.27 4.21 10.56
10/22/2021 9:30:00 AM 12.54 54.572 0.094 7.29 5.85 10.58
10/22/2021 9:45:00 AM 12.55 54.59 0.095 7.3 7.05 10.63
10/22/2021 10:00:00 AM 12.57 54.626 0.095 7.32 6.23 10.72
10/22/2021 10:15:00 AM 12.6 54.68 0.095 7.32 6.23 10.79
10/22/2021 10:30:00 AM 12.65 54.77 0.094 7.35 6.12 10.87
10/22/2021 10:45:00 AM 12.72 54.896 0.094 7.37 5.33 10.94
10/22/2021 11:00:00 AM 12.76 54.968 0.094 7.4 4.99 10.99
10/22/2021 11:15:00 AM 12.81 55.058 0.093 7.41 4.58 11.02
10/22/2021 11:30:00 AM 12.81 55.058 0.093 7.42 4.52 11.04
10/22/2021 11:45:00 AM 12.87 55.166 0.093 7.43 4.16 11.06
10/22/2021 12:00:00 PM 12.9 55.22 0.093 7.44 4.13 11.08
10/22/2021 12:15:00 PM 12.91 55.238 0.093 7.44 3.83 11.06
10/22/2021 12:30:00 PM 12.95 55.31 0.093 7.46 3.8 11.07
10/22/2021 12:45:00 PM 13 55.4 0.092 7.47 3.62 11.1
10/22/2021 1:00:00 PM 13.13 55.634 0.092 7.47 3.58 11.13
10/22/2021 1:15:00 PM 13.15 55.67 0.092 7.49 3.44 11.14
10/22/2021 1:30:00 PM 13.12 55.616 0.092 7.5 3.35 11.14
10/22/2021 1:45:00 PM 13.11 55.598 0.092 7.51 3.33 11.13
10/22/2021 2:00:00 PM 13.17 55.706 0.091 7.51 3.31 11.15
10/22/2021 2:15:00 PM 13.16 55.688 0.091 7.51 3.27 11.13
10/22/2021 2:30:00 PM 13.16 55.688 0.091 7.51 3.15 11.09
10/22/2021 2:45:00 PM 13.16 55.688 0.091 7.49 3.32 11.05
10/22/2021 3:00:00 PM 13.18 55.724 0.09 7.49 3.11 11.05
10/22/2021 3:15:00 PM 13.24 55.832 0.09 7.5 3.08 11.07
10/22/2021 3:30:00 PM 13.27 55.886 0.09 7.5 3.1 11.09
10/22/2021 3:45:00 PM 13.24 55.832 0.089 7.51 3.17 11.05
10/22/2021 4:00:00 PM 13.21 55.778 0.089 7.49 3.16 11.01
10/22/2021 4:15:00 PM 13.23 55.814 0.089 7.5 3.09 11.02
10/22/2021 4:30:00 PM 13.23 55.814 0.088 7.5 3.04 11.03
10/22/2021 4:45:00 PM 13.22 55.796 0.088 7.5 3.13 10.99
10/22/2021 5:00:00 PM 13.2 55.76 0.088 7.48 3.15 10.96
10/22/2021 5:15:00 PM 13.19 55.742 0.088 7.46 3.27 10.9
10/22/2021 5:30:00 PM 13.16 55.688 0.088 7.44 3.24 10.82
10/22/2021 5:45:00 PM 13.12 55.616 0.088 7.42 3.26 10.76
10/22/2021 6:00:00 PM 13.06 55.508 0.088 7.4 3.3 10.7
10/22/2021 6:15:00 PM 13 55.4 0.088 7.38 3.21 10.64
10/22/2021 6:30:00 PM 12.94 55.292 0.088 7.36 3.27 10.58
10/22/2021 6:45:00 PM 12.88 55.184 0.088 7.34 3.34 10.54
10/22/2021 7:00:00 PM 12.81 55.058 0.088 7.32 3.41 10.5
10/22/2021 7:15:00 PM 12.73 54.914 0.088 7.31 3.42 10.48
10/22/2021 7:30:00 PM 12.68 54.824 0.088 7.3 3.48 10.46
10/22/2021 7:45:00 PM 12.63 54.734 0.088 7.29 3.44 10.45
10/22/2021 8:00:00 PM 12.59 54.662 0.088 7.28 3.39 10.44
10/22/2021 8:15:00 PM 12.53 54.554 0.088 7.27 3.42 10.43
10/22/2021 8:30:00 PM 12.48 54.464 0.089 7.27 3.45 10.43
10/22/2021 8:45:00 PM 12.42 54.356 0.089 7.26 3.49 10.43
10/22/2021 9:00:00 PM 12.36 54.248 0.089 7.26 3.45 10.43
10/22/2021 9:15:00 PM 12.32 54.176 0.089 7.25 3.49 10.44
10/22/2021 9:30:00 PM 12.29 54.122 0.089 7.24 3.45 10.45
10/22/2021 9:45:00 PM 12.26 54.068 0.089 7.25 3.41 10.45
10/22/2021 10:00:00 PM 12.22 53.996 0.09 7.24 3.41 10.45
10/22/2021 10:15:00 PM 12.18 53.924 0.09 7.24 3.27 10.46
10/22/2021 10:30:00 PM 12.15 53.87 0.09 7.24 3.31 10.47
10/22/2021 10:45:00 PM 12.12 53.816 0.09 7.23 3.34 10.47
10/22/2021 11:00:00 PM 12.09 53.762 0.09 7.23 3.3 10.48
10/22/2021 11:15:00 PM 12.06 53.708 0.09 7.24 3.37 10.48
10/22/2021 11:30:00 PM 12.03 53.654 0.091 7.23 3.38 10.49
10/22/2021 11:45:00 PM 12 53.6 0.091 7.23 3.37 10.5
10/23/2021 12:00:00 AM 11.96 53.528 0.091 7.23 3.28 10.51
10/23/2021 12:15:00 AM 11.93 53.474 0.091 7.23 3.27 10.51
10/23/2021 12:30:00 AM 11.9 53.42 0.091 7.23 3.24 10.52
10/23/2021 12:45:00 AM 11.87 53.366 0.092 7.23 3.15 10.53
10/23/2021 1:00:00 AM 11.84 53.312 0.092 7.23 3.15 10.54
10/23/2021 1:15:00 AM 11.8 53.24 0.092 7.22 3.15 10.54
10/23/2021 1:30:00 AM 11.77 53.186 0.092 7.22 3.13 10.55
10/23/2021 1:45:00 AM 11.73 53.114 0.093 7.22 3.04 10.56
10/23/2021 2:00:00 AM 11.69 53.042 0.093 7.22 3.02 10.57
10/23/2021 2:15:00 AM 11.65 52.97 0.093 7.22 3.07 10.58
10/23/2021 2:30:00 AM 11.62 52.916 0.093 7.22 3.06 10.58
10/23/2021 2:45:00 AM 11.58 52.844 0.093 7.22 3.02 10.6
10/23/2021 3:00:00 AM 11.55 52.79 0.094 7.22 3.08 10.6
10/23/2021 3:15:00 AM 11.51 52.718 0.094 7.22 3.04 10.61
10/23/2021 3:30:00 AM 11.48 52.664 0.094 7.22 2.96 10.63
10/23/2021 3:45:00 AM 11.44 52.592 0.094 7.22 2.94 10.63
10/23/2021 4:00:00 AM 11.41 52.538 0.094 7.22 2.94 10.64
10/23/2021 4:15:00 AM 11.38 52.484 0.094 7.22 2.98 10.65
10/23/2021 4:30:00 AM 11.34 52.412 0.095 7.22 2.91 10.66
10/23/2021 4:45:00 AM 11.31 52.358 0.095 7.22 2.89 10.67
10/23/2021 5:00:00 AM 11.28 52.304 0.095 7.22 2.96 10.68
10/23/2021 5:15:00 AM 11.23 52.214 0.095 7.22 2.96 10.69
10/23/2021 5:30:00 AM 11.2 52.16 0.095 7.22 2.86 10.7
10/23/2021 5:45:00 AM 11.18 52.124 0.096 7.21 2.95 10.7
10/23/2021 6:00:00 AM 11.15 52.07 0.096 7.22 2.92 10.71
10/23/2021 6:15:00 AM 11.12 52.016 0.096 7.22 2.91 10.72
10/23/2021 6:30:00 AM 11.09 51.962 0.096 7.22 2.89 10.73
10/23/2021 6:45:00 AM 11.07 51.926 0.096 7.22 2.93 10.73
10/23/2021 7:00:00 AM 11.05 51.89 0.097 7.22 2.86 10.74
10/23/2021 7:15:00 AM 11.02 51.836 0.097 7.22 2.85 10.76
10/23/2021 7:30:00 AM 11 51.8 0.097 7.23 2.88 10.76
10/23/2021 7:45:00 AM 10.97 51.746 0.097 7.22 2.81 10.77
10/23/2021 8:00:00 AM 10.95 51.71 0.097 7.23 2.83 10.81
10/23/2021 8:15:00 AM 10.93 51.674 0.097 7.23 2.78 10.84
10/23/2021 8:30:00 AM 10.92 51.656 0.097 7.24 2.79 10.88
10/23/2021 8:45:00 AM 10.92 51.656 0.098 7.25 2.75 10.93
10/23/2021 9:00:00 AM 10.91 51.638 0.098 7.26 2.79 10.98
10/23/2021 9:15:00 AM 10.89 51.602 0.098 7.27 2.78 11.02
10/23/2021 9:30:00 AM 10.89 51.602 0.098 7.28 2.74 11.07
10/23/2021 9:45:00 AM 10.9 51.62 0.098 7.29 2.8 11.15
10/23/2021 10:00:00 AM 10.9 51.62 0.098 7.3 2.65 11.17
10/23/2021 10:15:00 AM 10.9 51.62 0.098 7.31 2.66 11.18
10/23/2021 10:30:00 AM 10.91 51.638 0.098 7.32 2.7 11.27
10/23/2021 10:45:00 AM 10.92 51.656 0.098 7.35 2.7 11.35
10/23/2021 11:00:00 AM 10.93 51.674 0.098 7.36 2.72 11.4
10/23/2021 11:15:00 AM 10.97 51.746 0.098 7.38 2.72 11.47
10/23/2021 11:30:00 AM 11.05 51.89 0.098 7.4 2.64 11.54
10/23/2021 11:45:00 AM 11.14 52.052 0.097 7.43 2.68 11.61
10/23/2021 12:00:00 PM 11.2 52.16 0.097 7.45 2.63 11.64
10/23/2021 12:15:00 PM 11.26 52.268 0.097 7.47 2.66 11.67
10/23/2021 12:30:00 PM 11.34 52.412 0.097 7.49 2.63 11.7
10/23/2021 12:45:00 PM 11.39 52.502 0.097 7.51 2.61 11.71
10/23/2021 1:00:00 PM 11.43 52.574 0.097 7.52 2.67 11.72
10/23/2021 1:15:00 PM 11.48 52.664 0.097 7.54 2.61 11.73
10/23/2021 1:30:00 PM 11.53 52.754 0.097 7.54 2.65 11.72
10/23/2021 1:45:00 PM 11.57 52.826 0.097 7.55 2.71 11.71
10/23/2021 2:00:00 PM 11.57 52.826 0.097 7.55 2.64 11.65
10/23/2021 2:15:00 PM 11.58 52.844 0.097 7.55 2.66 11.62
10/23/2021 2:30:00 PM 11.62 52.916 0.097 7.55 2.67 11.63
10/23/2021 2:45:00 PM 11.69 53.042 0.097 7.57 2.61 11.65
10/23/2021 3:00:00 PM 11.76 53.168 0.097 7.58 2.55 11.66
10/23/2021 3:15:00 PM 11.79 53.222 0.097 7.59 2.56 11.66
10/23/2021 3:30:00 PM 11.8 53.24 0.097 7.59 2.63 11.62
10/23/2021 3:45:00 PM 11.83 53.294 0.097 7.59 2.7 11.61
10/23/2021 4:00:00 PM 11.86 53.348 0.097 7.6 2.56 11.61
10/23/2021 4:15:00 PM 11.87 53.366 0.097 7.6 2.69 11.6
10/23/2021 4:30:00 PM 11.87 53.366 0.097 7.6 2.57 11.55
10/23/2021 4:45:00 PM 11.84 53.312 0.097 7.57 2.55 11.45
10/23/2021 5:00:00 PM 11.8 53.24 0.097 7.54 2.6 11.34
10/23/2021 5:15:00 PM 11.77 53.186 0.097 7.5 2.65 11.25
10/23/2021 5:30:00 PM 11.75 53.15 0.097 7.48 2.65 11.18
10/23/2021 5:45:00 PM 11.72 53.096 0.097 7.46 2.62 11.15
10/23/2021 6:00:00 PM 11.69 53.042 0.097 7.44 2.62 11.12
10/23/2021 6:15:00 PM 11.64 52.952 0.097 7.43 2.57 11.06
10/23/2021 6:30:00 PM 11.59 52.862 0.098 7.41 2.56 10.98
10/23/2021 6:45:00 PM 11.55 52.79 0.098 7.39 2.63 10.92
10/23/2021 7:00:00 PM 11.52 52.736 0.098 7.37 2.63 10.88
10/23/2021 7:15:00 PM 11.47 52.646 0.098 7.36 2.62 10.85
10/23/2021 7:30:00 PM 11.43 52.574 0.098 7.34 2.64 10.83
10/23/2021 7:45:00 PM 11.38 52.484 0.098 7.34 2.67 10.82
10/23/2021 8:00:00 PM 11.34 52.412 0.098 7.33 2.61 10.81
10/23/2021 8:15:00 PM 11.29 52.322 0.098 7.32 2.71 10.8
10/23/2021 8:30:00 PM 11.25 52.25 0.098 7.31 2.58 10.79
10/23/2021 8:45:00 PM 11.21 52.178 0.098 7.31 2.6 10.79
10/23/2021 9:00:00 PM 11.17 52.106 0.099 7.3 2.64 10.79
10/23/2021 9:15:00 PM 11.14 52.052 0.099 7.3 2.63 10.79
10/23/2021 9:30:00 PM 11.11 51.998 0.099 7.29 2.7 10.8
10/23/2021 9:45:00 PM 11.08 51.944 0.099 7.29 2.81 10.8
10/23/2021 10:00:00 PM 11.05 51.89 0.099 7.29 2.52 10.81
10/23/2021 10:15:00 PM 11.03 51.854 0.099 7.28 2.58 10.82
10/23/2021 10:30:00 PM 11 51.8 0.099 7.28 2.61 10.81
10/23/2021 10:45:00 PM 10.95 51.71 0.099 7.28 2.51 10.83
10/23/2021 11:00:00 PM 10.91 51.638 0.1 7.27 2.56 10.83
10/23/2021 11:15:00 PM 10.89 51.602 0.1 7.27 2.55 10.84
10/23/2021 11:30:00 PM 10.87 51.566 0.1 7.27 2.52 10.84
10/23/2021 11:45:00 PM 10.84 51.512 0.1 7.27 2.47 10.85
10/24/2021 12:00:00 AM 10.82 51.476 0.1 7.27 2.56 10.85
10/24/2021 12:15:00 AM 10.79 51.422 0.1 7.27 2.55 10.87
10/24/2021 12:30:00 AM 10.77 51.386 0.1 7.27 2.56 10.87
10/24/2021 12:45:00 AM 10.74 51.332 0.1 7.27 2.53 10.88
10/24/2021 1:00:00 AM 10.73 51.314 0.1 7.27 2.51 10.89
10/24/2021 1:15:00 AM 10.7 51.26 0.1 7.26 2.47 10.89
10/24/2021 1:30:00 AM 10.66 51.188 0.101 7.27 2.47 10.91
10/24/2021 1:45:00 AM 10.63 51.134 0.101 7.27 2.42 10.91
10/24/2021 2:00:00 AM 10.61 51.098 0.101 7.26 2.51 10.92
10/24/2021 2:15:00 AM 10.6 51.08 0.101 7.26 2.43 10.92
10/24/2021 2:30:00 AM 10.57 51.026 0.101 7.26 2.47 10.93
10/24/2021 2:45:00 AM 10.52 50.936 0.101 7.26 2.43 10.94
10/24/2021 3:00:00 AM 10.48 50.864 0.101 7.26 2.38 10.95
10/24/2021 3:15:00 AM 10.47 50.846 0.101 7.26 2.41 10.96
10/24/2021 3:30:00 AM 10.46 50.828 0.101 7.26 2.38 10.97
10/24/2021 3:45:00 AM 10.44 50.792 0.101 7.26 2.4 10.97
10/24/2021 4:00:00 AM 10.42 50.756 0.101 7.26 2.37 10.98
10/24/2021 4:15:00 AM 10.41 50.738 0.101 7.26 2.45 10.98
10/24/2021 4:30:00 AM 10.38 50.684 0.101 7.26 2.37 10.99
10/24/2021 4:45:00 AM 10.33 50.594 0.101 7.26 2.38 11
10/24/2021 5:00:00 AM 10.28 50.504 0.101 7.25 2.42 11.01
10/24/2021 5:15:00 AM 10.25 50.45 0.101 7.26 2.37 11.03
10/24/2021 5:30:00 AM 10.23 50.414 0.101 7.26 2.34 11.03
10/24/2021 5:45:00 AM 10.22 50.396 0.101 7.26 2.42 11.04
10/24/2021 6:00:00 AM 10.21 50.378 0.101 7.26 2.35 11.04
10/24/2021 6:15:00 AM 10.2 50.36 0.101 7.25 2.34 11.05
10/24/2021 6:30:00 AM 10.18 50.324 0.101 7.26 2.32 11.06
10/24/2021 6:45:00 AM 10.17 50.306 0.101 7.26 2.3 11.06
10/24/2021 7:00:00 AM 10.15 50.27 0.101 7.26 2.37 11.07
10/24/2021 7:15:00 AM 10.14 50.252 0.101 7.26 2.32 11.08
10/24/2021 7:30:00 AM 10.13 50.234 0.101 7.26 2.35 11.09
10/24/2021 7:45:00 AM 10.11 50.198 0.101 7.26 2.32 11.1
10/24/2021 8:00:00 AM 10.1 50.18 0.101 7.26 2.42 11.13
10/24/2021 8:15:00 AM 10.09 50.162 0.101 7.27 2.27 11.18
10/24/2021 8:30:00 AM 10.09 50.162 0.101 7.28 2.27 11.23
10/24/2021 8:45:00 AM 10.09 50.162 0.1 7.29 2.26 11.28
10/24/2021 9:00:00 AM 10.1 50.18 0.1 7.3 2.21 11.32
10/24/2021 9:15:00 AM 10.1 50.18 0.1 7.31 2.24 11.38
10/24/2021 9:30:00 AM 10.12 50.216 0.1 7.32 2.19 11.45
10/24/2021 9:45:00 AM 10.13 50.234 0.1 7.34 2.25 11.5
10/24/2021 10:00:00 AM 10.18 50.324 0.1 7.36 2.22 11.59
10/24/2021 10:15:00 AM 10.22 50.396 0.1 7.38 2.17 11.68
10/24/2021 10:30:00 AM 10.25 50.45 0.099 7.39 2.2 11.73
10/24/2021 10:45:00 AM 10.29 50.522 0.099 7.41 2.15 11.77
10/24/2021 11:00:00 AM 10.31 50.558 0.099 7.42 2.16 11.78
10/24/2021 11:15:00 AM 10.31 50.558 0.099 7.43 2.17 11.77
10/24/2021 11:30:00 AM 10.31 50.558 0.099 7.42 2.16 11.73
10/24/2021 11:45:00 AM 10.33 50.594 0.099 7.43 2.24 11.73
10/24/2021 12:00:00 PM 10.35 50.63 0.099 7.43 2.15 11.75
10/24/2021 12:15:00 PM 10.39 50.702 0.098 7.44 2.13 11.78
10/24/2021 12:30:00 PM 10.45 50.81 0.098 7.46 2.18 11.83
10/24/2021 12:45:00 PM 10.52 50.936 0.098 7.48 2.25 11.88
10/24/2021 1:00:00 PM 10.6 51.08 0.098 7.5 2.19 11.92
10/24/2021 1:15:00 PM 10.67 51.206 0.098 7.51 2.26 11.94
10/24/2021 1:30:00 PM 10.73 51.314 0.098 7.53 2.21 11.94
10/24/2021 1:45:00 PM 10.79 51.422 0.097 7.54 2.17 11.96
10/24/2021 2:00:00 PM 10.85 51.53 0.097 7.55 2.17 11.95
10/24/2021 2:15:00 PM 10.87 51.566 0.097 7.55 2.14 11.9
10/24/2021 2:30:00 PM 10.88 51.584 0.097 7.54 2.16 11.86
10/24/2021 2:45:00 PM 10.9 51.62 0.097 7.52 2.18 11.77
10/24/2021 3:00:00 PM 10.92 51.656 0.097 7.51 2.18 11.71
10/24/2021 3:15:00 PM 10.96 51.728 0.097 7.51 2.16 11.7
10/24/2021 3:30:00 PM 10.99 51.782 0.097 7.5 2.16 11.66
10/24/2021 3:45:00 PM 11 51.8 0.097 7.49 2.15 11.6
10/24/2021 4:00:00 PM 11 51.8 0.097 7.47 2.19 11.55
10/24/2021 4:15:00 PM 11.01 51.818 0.097 7.46 2.13 11.52
10/24/2021 4:30:00 PM 11.01 51.818 0.097 7.45 2.15 11.49
10/24/2021 4:45:00 PM 11.01 51.818 0.097 7.44 2.17 11.43
10/24/2021 5:00:00 PM 11.01 51.818 0.097 7.43 2.12 11.38
10/24/2021 5:15:00 PM 11 51.8 0.097 7.41 2.22 11.32
10/24/2021 5:30:00 PM 10.99 51.782 0.096 7.39 2.21 11.25
10/24/2021 5:45:00 PM 10.97 51.746 0.096 7.38 2.26 11.19
10/24/2021 6:00:00 PM 10.96 51.728 0.096 7.36 2.18 11.15
10/24/2021 6:15:00 PM 10.95 51.71 0.096 7.35 2.22 11.1
10/24/2021 6:30:00 PM 10.95 51.71 0.096 7.33 2.32 11.06
10/24/2021 6:45:00 PM 10.95 51.71 0.096 7.32 2.3 11.02
10/24/2021 7:00:00 PM 10.94 51.692 0.096 7.31 2.34 10.99
10/24/2021 7:15:00 PM 10.94 51.692 0.096 7.3 2.38 10.97
10/24/2021 7:30:00 PM 10.94 51.692 0.096 7.29 2.43 10.95
10/24/2021 7:45:00 PM 10.94 51.692 0.095 7.28 2.43 10.92
10/24/2021 8:00:00 PM 10.94 51.692 0.095 7.27 2.5 10.91
10/24/2021 8:15:00 PM 10.94 51.692 0.095 7.27 2.68 10.89
10/24/2021 8:30:00 PM 10.94 51.692 0.095 7.26 2.59 10.89
10/24/2021 8:45:00 PM 10.94 51.692 0.095 7.26 2.69 10.87
10/24/2021 9:00:00 PM 10.94 51.692 0.095 7.25 2.78 10.87
10/24/2021 9:15:00 PM 10.94 51.692 0.095 7.25 2.78 10.86
10/24/2021 9:30:00 PM 10.94 51.692 0.095 7.24 2.84 10.85
10/24/2021 9:45:00 PM 10.94 51.692 0.094 7.24 2.78 10.84
10/24/2021 10:00:00 PM 10.95 51.71 0.094 7.23 2.77 10.83
10/24/2021 10:15:00 PM 10.95 51.71 0.095 7.23 2.79 10.82
10/24/2021 10:30:00 PM 10.96 51.728 0.095 7.23 2.85 10.81
10/24/2021 10:45:00 PM 10.96 51.728 0.095 7.22 2.89 10.82
10/24/2021 11:00:00 PM 10.97 51.746 0.095 7.22 2.91 10.8
10/24/2021 11:15:00 PM 10.97 51.746 0.095 7.22 2.95 10.81
10/24/2021 11:30:00 PM 10.97 51.746 0.095 7.21 3.02 10.8
10/24/2021 11:45:00 PM 10.98 51.764 0.095 7.21 2.99 10.8
10/25/2021 12:00:00 AM 10.98 51.764 0.095 7.21 3.11 10.79
10/25/2021 12:15:00 AM 10.98 51.764 0.095 7.21 3.09 10.79
10/25/2021 12:30:00 AM 10.99 51.782 0.095 7.2 3.09 10.78
10/25/2021 12:45:00 AM 10.99 51.782 0.094 7.2 3.19 10.79
10/25/2021 1:00:00 AM 11 51.8 0.094 7.2 3.38 10.78
10/25/2021 1:15:00 AM 11 51.8 0.094 7.19 3.58 10.78
10/25/2021 1:30:00 AM 11.01 51.818 0.094 7.19 4.02 10.78
10/25/2021 1:45:00 AM 11.01 51.818 0.094 7.19 4.12 10.76
10/25/2021 2:00:00 AM 11.02 51.836 0.094 7.17 4.43 10.75
10/25/2021 2:15:00 AM 11.02 51.836 0.094 7.18 6.14 10.75
10/25/2021 2:30:00 AM 11.02 51.836 0.093 7.17 4.99 10.74
10/25/2021 2:45:00 AM 11.01 51.818 0.093 7.17 4.66 10.74
10/25/2021 3:00:00 AM 10.99 51.782 0.093 7.17 4.62 10.74
10/25/2021 3:15:00 AM 10.98 51.764 0.093 7.17 4.6 10.75
10/25/2021 3:30:00 AM 10.97 51.746 0.094 7.17 4.47 10.74
10/25/2021 3:45:00 AM 10.96 51.728 0.094 7.16 4.57 10.75
10/25/2021 4:00:00 AM 10.96 51.728 0.094 7.16 4.25 10.76
10/25/2021 4:15:00 AM 10.95 51.71 0.093 7.18 4.52 10.75
10/25/2021 4:30:00 AM 10.94 51.692 0.093 7.17 4.77 10.77
10/25/2021 4:45:00 AM 10.93 51.674 0.092 7.17 5.18 10.77
10/25/2021 5:00:00 AM 10.93 51.674 0.092 7.17 5.34 10.77
10/25/2021 5:15:00 AM 10.93 51.674 0.093 7.17 6.15 10.77
10/25/2021 5:30:00 AM 10.93 51.674 0.093 7.17 7.11 10.78
10/25/2021 5:45:00 AM 10.92 51.656 0.092 7.18 7.52 10.78
10/25/2021 6:00:00 AM 10.91 51.638 0.092 7.16 7.95 10.79
10/25/2021 6:15:00 AM 10.9 51.62 0.092 7.18 9 10.79
10/25/2021 6:30:00 AM 10.9 51.62 0.092 7.19 13.37 10.8
10/25/2021 6:45:00 AM 10.89 51.602 0.092 7.18 14.25 10.81
10/25/2021 7:00:00 AM 10.9 51.62 0.092 7.17 18.41 10.8
10/25/2021 7:15:00 AM 10.89 51.602 0.092 7.17 17.85 10.82
10/25/2021 7:30:00 AM 10.88 51.584 0.092 7.18 15.35 10.82
10/25/2021 7:45:00 AM 10.88 51.584 0.091 7.19 17.37 10.84
10/25/2021 8:00:00 AM 10.88 51.584 0.091 7.19 15.69 10.85
10/25/2021 8:15:00 AM 10.88 51.584 0.091 7.2 11.73 10.87
10/25/2021 8:30:00 AM 10.88 51.584 0.091 7.19 16.84 10.87
10/25/2021 8:45:00 AM 10.89 51.602 0.09 7.2 19.39 10.89
10/25/2021 9:00:00 AM 10.89 51.602 0.089 7.2 19.82 10.9
10/25/2021 9:15:00 AM 10.9 51.62 0.088 7.2 19.88 10.93
10/25/2021 9:30:00 AM 10.92 51.656 0.087 7.21 19.19 10.95
10/25/2021 9:45:00 AM 10.94 51.692 0.086 7.22 17.25 10.98
10/25/2021 10:00:00 AM 10.96 51.728 0.086 7.22 16.04 11.01
10/25/2021 10:15:00 AM 11 51.8 0.085 7.23 14.85 11.05
10/25/2021 10:30:00 AM 11.06 51.908 0.085 7.24 13.6 11.1
10/25/2021 10:45:00 AM 11.07 51.926 0.085 7.25 13.05 11.11
10/25/2021 11:00:00 AM 11.1 51.98 0.085 7.25 12.67 11.11
10/25/2021 11:15:00 AM 11.15 52.07 0.085 7.24 11.63 11.12
10/25/2021 11:30:00 AM 11.21 52.178 0.085 7.26 10.71 11.13
10/25/2021 11:45:00 AM 11.27 52.286 0.086 7.25 10.38 11.13
10/25/2021 12:00:00 PM 11.33 52.394 0.086 7.27 10.11 11.13
10/25/2021 12:15:00 PM 11.41 52.538 0.087 7.27 10.12 11.14
10/25/2021 12:30:00 PM 11.49 52.682 0.087 7.28 9.43 11.14
10/25/2021 12:45:00 PM 11.56 52.808 0.088 7.29 9.24 11.15
10/25/2021 1:00:00 PM 11.67 53.006 0.089 7.3 9.05 11.17
10/25/2021 1:15:00 PM 11.75 53.15 0.089 7.32 9.06 11.18
10/25/2021 1:30:00 PM 11.87 53.366 0.09 7.34 8.44 11.2
10/25/2021 1:45:00 PM 11.95 53.51 0.091 7.34 9.07 11.2
10/25/2021 2:00:00 PM 12.06 53.708 0.091 7.36 9.02 11.2
10/25/2021 2:15:00 PM 12.18 53.924 0.092 7.37 8.96 11.2
10/25/2021 2:30:00 PM 12.27 54.086 0.093 7.38 9.2 11.19
10/25/2021 2:45:00 PM 12.32 54.176 0.093 7.39 9.09 11.15
10/25/2021 3:00:00 PM 12.4 54.32 0.094 7.39 9.06 11.13
10/25/2021 3:15:00 PM 12.46 54.428 0.094 7.39 8.95 11.08
10/25/2021 3:30:00 PM 12.52 54.536 0.095 7.41 8.79 11.05
10/25/2021 3:45:00 PM 12.57 54.626 0.095 7.41 8.81 10.99
10/25/2021 4:00:00 PM 12.6 54.68 0.096 7.39 8.79 10.92
10/25/2021 4:15:00 PM 12.64 54.752 0.096 7.38 8.94 10.88
10/25/2021 4:30:00 PM 12.7 54.86 0.097 7.39 8.9 10.88
10/25/2021 4:45:00 PM 12.72 54.896 0.097 7.38 8.89 10.82
10/25/2021 5:00:00 PM 12.75 54.95 0.097 7.37 9.2 10.78
10/25/2021 5:15:00 PM 12.77 54.986 0.097 7.36 9.05 10.73
10/25/2021 5:30:00 PM 12.77 54.986 0.097 7.35 9.26 10.68
10/25/2021 5:45:00 PM 12.77 54.986 0.097 7.34 8.93 10.63
10/25/2021 6:00:00 PM 12.75 54.95 0.097 7.32 9.26 10.6
10/25/2021 6:15:00 PM 12.74 54.932 0.097 7.31 9.24 10.56
10/25/2021 6:30:00 PM 12.72 54.896 0.097 7.3 9.35 10.52
10/25/2021 6:45:00 PM 12.71 54.878 0.097 7.3 9.5 10.5
10/25/2021 7:00:00 PM 12.69 54.842 0.097 7.29 9.18 10.48
10/25/2021 7:15:00 PM 12.67 54.806 0.097 7.28 9.39 10.46
10/25/2021 7:30:00 PM 12.66 54.788 0.097 7.27 8.98 10.44
10/25/2021 7:45:00 PM 12.65 54.77 0.096 7.27 9.3 10.43
10/25/2021 8:00:00 PM 12.64 54.752 0.096 7.26 8.81 10.42
10/25/2021 8:15:00 PM 12.64 54.752 0.096 7.26 8.75 10.41
10/25/2021 8:30:00 PM 12.63 54.734 0.096 7.25 8.7 10.41
10/25/2021 8:45:00 PM 12.63 54.734 0.096 7.25 8.54 10.4
10/25/2021 9:00:00 PM 12.62 54.716 0.096 7.24 8.57 10.39
10/25/2021 9:15:00 PM 12.62 54.716 0.096 7.24 8.27 10.39
10/25/2021 9:30:00 PM 12.61 54.698 0.096 7.23 7.94 10.38
10/25/2021 9:45:00 PM 12.61 54.698 0.096 7.23 7.71 10.38
10/25/2021 10:00:00 PM 12.6 54.68 0.096 7.22 7.63 10.38
10/25/2021 10:15:00 PM 12.59 54.662 0.096 7.22 7.7 10.38
10/25/2021 10:30:00 PM 12.57 54.626 0.096 7.22 7.38 10.38
10/25/2021 10:45:00 PM 12.56 54.608 0.096 7.21 7.31 10.38
10/25/2021 11:00:00 PM 12.55 54.59 0.096 7.21 7.23 10.38
10/25/2021 11:15:00 PM 12.54 54.572 0.096 7.21 7.2 10.38
10/25/2021 11:30:00 PM 12.54 54.572 0.096 7.21 7.08 10.38
10/25/2021 11:45:00 PM 12.53 54.554 0.096 7.21 6.72 10.39
10/26/2021 12:00:00 AM 12.52 54.536 0.095 7.21 6.92 10.39
10/26/2021 12:15:00 AM 12.51 54.518 0.095 7.21 6.61 10.39
10/26/2021 12:30:00 AM 12.5 54.5 0.095 7.2 6.55 10.39
10/26/2021 12:45:00 AM 12.5 54.5 0.095 7.2 6.61 10.39
10/26/2021 1:00:00 AM 12.49 54.482 0.095 7.2 6.58 10.39
10/26/2021 1:15:00 AM 12.48 54.464 0.094 7.19 6.43 10.39
10/26/2021 1:30:00 AM 12.47 54.446 0.094 7.19 6.4 10.39
10/26/2021 1:45:00 AM 12.46 54.428 0.094 7.19 6.4 10.38
10/26/2021 2:00:00 AM 12.45 54.41 0.094 7.18 6.34 10.38
10/26/2021 2:15:00 AM 12.45 54.41 0.094 7.18 6.41 10.38
10/26/2021 2:30:00 AM 12.44 54.392 0.094 7.17 6.37 10.38
10/26/2021 2:45:00 AM 12.43 54.374 0.093 7.17 6.59 10.38
10/26/2021 3:00:00 AM 12.43 54.374 0.093 7.17 6.41 10.38
10/26/2021 3:15:00 AM 12.42 54.356 0.093 7.17 6.39 10.38
10/26/2021 3:30:00 AM 12.41 54.338 0.093 7.17 6.33 10.38
10/26/2021 3:45:00 AM 12.41 54.338 0.093 7.17 6.26 10.38
10/26/2021 4:00:00 AM 12.4 54.32 0.093 7.17 6.03 10.38
10/26/2021 4:15:00 AM 12.39 54.302 0.092 7.17 5.97 10.39
10/26/2021 4:30:00 AM 12.38 54.284 0.092 7.17 5.81 10.39
10/26/2021 4:45:00 AM 12.37 54.266 0.092 7.16 5.78 10.39
10/26/2021 5:00:00 AM 12.36 54.248 0.092 7.16 5.69 10.39
10/26/2021 5:15:00 AM 12.36 54.248 0.092 7.17 5.54 10.4
10/26/2021 5:30:00 AM 12.35 54.23 0.092 7.16 5.35 10.39
10/26/2021 5:45:00 AM 12.34 54.212 0.092 7.17 5.33 10.4
10/26/2021 6:00:00 AM 12.33 54.194 0.092 7.17 5.19 10.4
10/26/2021 6:15:00 AM 12.33 54.194 0.092 7.16 5.15 10.4
10/26/2021 6:30:00 AM 12.32 54.176 0.091 7.16 5.12 10.41
10/26/2021 6:45:00 AM 12.31 54.158 0.091 7.16 5.15 10.41
10/26/2021 7:00:00 AM 12.3 54.14 0.091 7.16 5.14 10.41
10/26/2021 7:15:00 AM 12.29 54.122 0.091 7.16 5.18 10.41
10/26/2021 7:30:00 AM 12.28 54.104 0.091 7.15 4.96 10.41
10/26/2021 7:45:00 AM 12.28 54.104 0.091 7.16 5.01 10.42
10/26/2021 8:00:00 AM 12.27 54.086 0.09 7.16 4.83 10.42
10/26/2021 8:15:00 AM 12.26 54.068 0.09 7.16 4.7 10.43
10/26/2021 8:30:00 AM 12.25 54.05 0.09 7.17 4.69 10.45
10/26/2021 8:45:00 AM 12.24 54.032 0.09 7.17 4.51 10.46
10/26/2021 9:00:00 AM 12.22 53.996 0.09 7.18 4.86 10.48
10/26/2021 9:15:00 AM 12.2 53.96 0.089 7.19 4.61 10.52
10/26/2021 9:30:00 AM 12.17 53.906 0.089 7.2 4.6 10.57
10/26/2021 9:45:00 AM 12.15 53.87 0.089 7.21 4.58 10.63
10/26/2021 10:00:00 AM 12.12 53.816 0.088 7.22 4.48 10.68
10/26/2021 10:15:00 AM 12.09 53.762 0.088 7.23 5.45 10.72
10/26/2021 10:30:00 AM 12.08 53.744 0.088 7.24 4.38 10.79
10/26/2021 10:45:00 AM 12.01 53.618 0.119 7.55 3.59 10.65
10/26/2021 11:00:00 AM 12.07 53.726 0.088 7.17 1.93 10.5
10/26/2021 11:15:00 AM 12.03 53.654 0.088 7.14 1.85 10.53
10/26/2021 11:30:00 AM 12.02 53.636 0.085 7.14 1.91 10.58
10/26/2021 11:45:00 AM 12.02 53.636 0.086 7.15 1.98 10.62
10/26/2021 12:00:00 PM 12 53.6 0.085 7.15 1.94 10.65
10/26/2021 12:15:00 PM 11.98 53.564 0.084 7.15 1.9 10.67
10/26/2021 12:30:00 PM 11.96 53.528 0.084 7.16 1.91 10.7
10/26/2021 12:45:00 PM 11.94 53.492 0.084 7.16 1.87 10.72
10/26/2021 1:00:00 PM 11.93 53.474 0.083 7.18 1.93 10.74
10/26/2021 1:15:00 PM 11.92 53.456 0.084 7.18 1.98 10.76
10/26/2021 1:30:00 PM 11.89 53.402 0.082 7.18 2.12 10.77
10/26/2021 1:45:00 PM 11.86 53.348 0.083 7.18 2.3 10.76
10/26/2021 2:00:00 PM 11.82 53.276 0.081 7.18 2.13 10.76
10/26/2021 2:15:00 PM 11.78 53.204 0.08 7.18 2.2 10.77
10/26/2021 2:30:00 PM 11.75 53.15 0.084 7.17 2.23 10.77
10/26/2021 2:45:00 PM 11.71 53.078 0.083 7.16 2.38 10.74
10/26/2021 3:00:00 PM 11.67 53.006 0.082 7.14 2.59 10.71
10/26/2021 3:15:00 PM 11.63 52.934 0.082 7.14 2.39 10.69
10/26/2021 3:30:00 PM 11.58 52.844 0.082 7.13 2.59 10.68
10/26/2021 3:45:00 PM 11.55 52.79 0.083 7.12 2.67 10.67
10/26/2021 4:00:00 PM 11.52 52.736 0.081 7.11 2.71 10.64
10/26/2021 4:15:00 PM 11.48 52.664 0.081 7.1 2.87 10.62
10/26/2021 4:30:00 PM 11.45 52.61 0.081 7.09 2.83 10.61
10/26/2021 4:45:00 PM 11.41 52.538 0.081 7.08 2.83 10.59
10/26/2021 5:00:00 PM 11.36 52.448 0.081 7.08 2.96 10.58
10/26/2021 5:15:00 PM 11.32 52.376 0.08 7.07 3.14 10.57
10/26/2021 5:30:00 PM 11.27 52.286 0.079 7.05 3.17 10.55
10/26/2021 5:45:00 PM 11.23 52.214 0.079 7.05 3.42 10.53
10/26/2021 6:00:00 PM 11.19 52.142 0.079 7.03 3.27 10.51
10/26/2021 6:15:00 PM 11.15 52.07 0.08 7.03 3.11 10.49
10/26/2021 6:30:00 PM 11.1 51.98 0.081 7.03 3.26 10.48
10/26/2021 6:45:00 PM 11.07 51.926 0.08 7.03 3.39 10.48
10/26/2021 7:00:00 PM 11.03 51.854 0.079 7.02 3.42 10.47
10/26/2021 7:15:00 PM 10.99 51.782 0.081 7.02 3.55 10.47
10/26/2021 7:30:00 PM 10.95 51.71 0.081 7.01 3.54 10.47
10/26/2021 7:45:00 PM 10.92 51.656 0.081 7.01 3.79 10.47
10/26/2021 8:00:00 PM 10.9 51.62 0.08 7 4.14 10.47
10/26/2021 8:15:00 PM 10.87 51.566 0.079 6.99 4.18 10.47
10/26/2021 8:30:00 PM 10.84 51.512 0.08 6.98 4.1 10.47
10/26/2021 8:45:00 PM 10.82 51.476 0.079 6.98 4.38 10.48
10/26/2021 9:00:00 PM 10.79 51.422 0.08 6.98 4.68 10.48
10/26/2021 9:15:00 PM 10.77 51.386 0.08 6.98 4.35 10.49
10/26/2021 9:30:00 PM 10.75 51.35 0.08 6.98 4.46 10.5
10/26/2021 9:45:00 PM 10.73 51.314 0.08 6.98 4.6 10.5
10/26/2021 10:00:00 PM 10.71 51.278 0.08 6.98 4.11 10.51
10/26/2021 10:15:00 PM 10.69 51.242 0.08 6.97 4.1 10.52
10/26/2021 10:30:00 PM 10.67 51.206 0.079 6.97 4.05 10.53
10/26/2021 10:45:00 PM 10.65 51.17 0.079 6.96 4.28 10.53
10/26/2021 11:00:00 PM 10.63 51.134 0.079 6.95 4.57 10.54
10/26/2021 11:15:00 PM 10.62 51.116 0.078 6.97 4.38 10.55
10/26/2021 11:30:00 PM 10.6 51.08 0.078 6.96 4.54 10.56
10/26/2021 11:45:00 PM 10.59 51.062 0.079 6.97 4.94 10.56
10/27/2021 12:00:00 AM 10.58 51.044 0.078 6.97 4.85 10.56
10/27/2021 12:15:00 AM 10.56 51.008 0.078 6.96 5.17 10.57
10/27/2021 12:30:00 AM 10.55 50.99 0.078 6.96 5.2 10.58
10/27/2021 12:45:00 AM 10.54 50.972 0.077 6.97 5.62 10.58
10/27/2021 1:00:00 AM 10.53 50.954 0.078 6.97 5.53 10.59
10/27/2021 1:15:00 AM 10.52 50.936 0.077 6.97 5.69 10.59
10/27/2021 1:30:00 AM 10.51 50.918 0.077 6.97 6.18 10.6
10/27/2021 1:45:00 AM 10.5 50.9 0.078 6.97 6.93 10.61
10/27/2021 2:00:00 AM 10.49 50.882 0.077 6.96 7.05 10.61
10/27/2021 2:15:00 AM 10.47 50.846 0.078 6.96 7.36 10.62
10/27/2021 2:30:00 AM 10.46 50.828 0.078 6.96 7.96 10.62
10/27/2021 2:45:00 AM 10.45 50.81 0.078 6.95 7.73 10.63
10/27/2021 3:00:00 AM 10.43 50.774 0.078 6.96 8.12 10.64
10/27/2021 3:15:00 AM 10.42 50.756 0.077 6.95 8.31 10.65
10/27/2021 3:30:00 AM 10.41 50.738 0.077 6.96 7.98 10.65
10/27/2021 3:45:00 AM 10.39 50.702 0.077 6.96 7.89 10.66
10/27/2021 4:00:00 AM 10.38 50.684 0.077 6.95 7.66 10.66
10/27/2021 4:15:00 AM 10.36 50.648 0.076 6.95 7.27 10.67
10/27/2021 4:30:00 AM 10.35 50.63 0.078 6.95 7 10.68
10/27/2021 4:45:00 AM 10.34 50.612 0.077 6.95 6.93 10.68
10/27/2021 5:00:00 AM 10.33 50.594 0.076 6.95 6.48 10.69
10/27/2021 5:15:00 AM 10.32 50.576 0.077 6.95 6.39 10.69
10/27/2021 5:30:00 AM 10.3 50.54 0.077 6.94 6.47 10.69
10/27/2021 5:45:00 AM 10.28 50.504 0.077 6.9 6.26 10.7
10/27/2021 6:00:00 AM 10.27 50.486 0.077 6.94 6.09 10.71
10/27/2021 6:15:00 AM 10.27 50.486 0.077 6.94 5.93 10.71
10/27/2021 6:30:00 AM 10.26 50.468 0.079 6.95 5.52 10.72
10/27/2021 6:45:00 AM 10.26 50.468 0.078 6.95 5.75 10.72
10/27/2021 7:00:00 AM 10.26 50.468 0.079 6.95 5.64 10.72
10/27/2021 7:15:00 AM 10.25 50.45 0.079 6.95 5.41 10.72
10/27/2021 7:30:00 AM 10.25 50.45 0.079 6.95 5.55 10.73
10/27/2021 7:45:00 AM 10.25 50.45 0.081 6.95 5.37 10.73
10/27/2021 8:00:00 AM 10.25 50.45 0.079 6.95 5.23 10.74
10/27/2021 8:15:00 AM 10.25 50.45 0.08 6.95 5.09 10.74
10/27/2021 8:30:00 AM 10.26 50.468 0.081 6.96 4.93 10.76
10/27/2021 8:45:00 AM 10.26 50.468 0.081 6.97 4.74 10.78
10/27/2021 9:00:00 AM 10.28 50.504 0.08 6.97 4.7 10.8
10/27/2021 9:15:00 AM 10.29 50.522 0.081 7 4.63 10.82
10/27/2021 9:30:00 AM 10.31 50.558 0.081 7.01 4.62 10.84
10/27/2021 9:45:00 AM 10.33 50.594 0.081 7.02 4.4 10.86
10/27/2021 10:00:00 AM 10.35 50.63 0.081 7.02 4.62 10.89
10/27/2021 10:15:00 AM 10.37 50.666 0.081 7.04 4.48 10.91
10/27/2021 10:30:00 AM 10.41 50.738 0.081 7.05 4.58 10.95
10/27/2021 10:45:00 AM 10.46 50.828 0.081 7.07 4.63 11
10/27/2021 11:00:00 AM 10.5 50.9 0.08 7.09 4.45 11.03
10/27/2021 11:15:00 AM 10.54 50.972 0.08 7.11 4.47 11.05
10/27/2021 11:30:00 AM 10.59 51.062 0.08 7.11 4.28 11.07
10/27/2021 11:45:00 AM 10.66 51.188 0.08 7.12 4.18 11.09
10/27/2021 12:00:00 PM 10.7 51.26 0.08 7.13 4.24 11.08
10/27/2021 12:15:00 PM 10.71 51.278 0.079 7.13 4.1 11.07
10/27/2021 12:30:00 PM 10.8 51.44 0.08 7.14 4.01 11.07
10/27/2021 12:45:00 PM 10.88 51.584 0.08 7.15 3.99 11.07
10/27/2021 1:00:00 PM 10.93 51.674 0.08 7.15 3.99 11.07
10/27/2021 1:15:00 PM 10.99 51.782 0.08 7.16 3.9 11.06
10/27/2021 1:30:00 PM 11.06 51.908 0.079 7.16 3.79 11.05
10/27/2021 1:45:00 PM 11.14 52.052 0.078 7.17 3.77 11.03
10/27/2021 2:00:00 PM 11.23 52.214 0.078 7.17 3.7 11.01
10/27/2021 2:15:00 PM 11.3 52.34 0.078 7.17 3.59 11
10/27/2021 2:30:00 PM 11.37 52.466 0.078 7.17 3.72 10.98
10/27/2021 2:45:00 PM 11.44 52.592 0.079 7.18 3.48 10.96
10/27/2021 3:00:00 PM 11.51 52.718 0.078 7.18 3.6 10.94
10/27/2021 3:15:00 PM 11.57 52.826 0.079 7.17 3.45 10.92
10/27/2021 3:30:00 PM 11.62 52.916 0.078 7.17 3.44 10.89
10/27/2021 3:45:00 PM 11.67 53.006 0.078 7.18 3.4 10.87
10/27/2021 4:00:00 PM 11.73 53.114 0.078 7.17 3.3 10.84
10/27/2021 4:15:00 PM 11.78 53.204 0.078 7.17 3.39 10.81
10/27/2021 4:30:00 PM 11.82 53.276 0.076 7.16 3.19 10.79
10/27/2021 4:45:00 PM 11.85 53.33 0.077 7.16 3.16 10.75
10/27/2021 5:00:00 PM 11.87 53.366 0.076 7.16 3.05 10.72
10/27/2021 5:15:00 PM 11.87 53.366 0.077 7.14 3.08 10.69
10/27/2021 5:30:00 PM 11.86 53.348 0.076 7.13 3.05 10.65
10/27/2021 5:45:00 PM 11.84 53.312 0.076 7.12 3.05 10.61
10/27/2021 6:00:00 PM 11.81 53.258 0.077 7.11 2.95 10.58
10/27/2021 6:15:00 PM 11.77 53.186 0.076 7.1 3 10.55
10/27/2021 6:30:00 PM 11.71 53.078 0.077 7.08 3.06 10.52
10/27/2021 6:45:00 PM 11.65 52.97 0.077 7.07 3.02 10.5
10/27/2021 7:00:00 PM 11.59 52.862 0.077 7.06 3.06 10.49
10/27/2021 7:15:00 PM 11.53 52.754 0.077 7.04 3.06 10.48
10/27/2021 7:30:00 PM 11.46 52.628 0.077 7.03 2.99 10.48
10/27/2021 7:45:00 PM 11.39 52.502 0.076 7.02 2.99 10.48
10/27/2021 8:00:00 PM 11.33 52.394 0.076 7.01 2.9 10.48
10/27/2021 8:15:00 PM 11.27 52.286 0.076 7.01 3 10.49
10/27/2021 8:30:00 PM 11.22 52.196 0.075 7 2.86 10.49
10/27/2021 8:45:00 PM 11.17 52.106 0.075 7 2.87 10.5
10/27/2021 9:00:00 PM 11.12 52.016 0.076 6.99 2.77 10.51
10/27/2021 9:15:00 PM 11.07 51.926 0.076 6.98 2.77 10.52
10/27/2021 9:30:00 PM 11.02 51.836 0.076 6.98 2.64 10.53
10/27/2021 9:45:00 PM 10.97 51.746 0.075 6.97 2.58 10.53
10/27/2021 10:00:00 PM 10.92 51.656 0.075 6.96 2.53 10.54
10/27/2021 10:15:00 PM 10.87 51.566 0.076 6.96 2.51 10.56
10/27/2021 10:30:00 PM 10.83 51.494 0.075 6.95 2.56 10.57
10/27/2021 10:45:00 PM 10.78 51.404 0.075 6.95 2.52 10.58
10/27/2021 11:00:00 PM 10.73 51.314 0.075 6.94 2.43 10.59
10/27/2021 11:15:00 PM 10.69 51.242 0.074 6.93 2.3 10.6
10/27/2021 11:30:00 PM 10.65 51.17 0.074 6.92 2.33 10.61
10/27/2021 11:45:00 PM 10.62 51.116 0.074 6.92 2.33 10.62
10/28/2021 12:00:00 AM 10.6 51.08 0.074 6.91 2.31 10.63
10/28/2021 12:15:00 AM 10.57 51.026 0.074 6.91 2.29 10.64
10/28/2021 12:30:00 AM 10.55 50.99 0.073 6.9 2.23 10.65
10/28/2021 12:45:00 AM 10.52 50.936 0.074 6.9 2.22 10.66
10/28/2021 1:00:00 AM 10.5 50.9 0.073 6.9 2.27 10.67
10/28/2021 1:15:00 AM 10.47 50.846 0.073 6.9 2.08 10.68
10/28/2021 1:30:00 AM 10.44 50.792 0.074 6.9 2.14 10.69
10/28/2021 1:45:00 AM 10.41 50.738 0.074 6.9 2.14 10.69
10/28/2021 2:00:00 AM 10.37 50.666 0.073 6.9 2.04 10.71
10/28/2021 2:15:00 AM 10.33 50.594 0.073 6.9 2.07 10.72
10/28/2021 2:30:00 AM 10.29 50.522 0.073 6.9 2 10.73
10/28/2021 2:45:00 AM 10.24 50.432 0.073 6.9 1.96 10.74
10/28/2021 3:00:00 AM 10.2 50.36 0.073 6.9 2.04 10.75
10/28/2021 3:15:00 AM 10.15 50.27 0.073 6.9 1.91 10.77
10/28/2021 3:30:00 AM 10.1 50.18 0.073 6.89 1.91 10.78
10/28/2021 3:45:00 AM 10.06 50.108 0.073 6.89 1.91 10.79
10/28/2021 4:00:00 AM 10.02 50.036 0.073 6.89 1.97 10.8
10/28/2021 4:15:00 AM 9.98 49.964 0.073 6.89 1.83 10.81
10/28/2021 4:30:00 AM 9.94 49.892 0.072 6.89 1.97 10.82
10/28/2021 4:45:00 AM 9.9 49.82 0.072 6.89 1.99 10.83
10/28/2021 5:00:00 AM 9.87 49.766 0.072 6.9 1.68 10.85
10/28/2021 5:15:00 AM 9.82 49.676 0.072 6.89 1.77 10.86
10/28/2021 5:30:00 AM 9.79 49.622 0.072 6.9 1.73 10.87
10/28/2021 5:45:00 AM 9.74 49.532 0.072 6.9 1.73 10.88
10/28/2021 6:00:00 AM 9.71 49.478 0.072 6.9 1.76 10.89
10/28/2021 6:15:00 AM 9.67 49.406 0.071 6.9 1.63 10.9
10/28/2021 6:30:00 AM 9.63 49.334 0.072 6.9 1.7 10.91
10/28/2021 6:45:00 AM 9.59 49.262 0.071 6.9 1.79 10.92
10/28/2021 7:00:00 AM 9.55 49.19 0.072 6.9 1.66 10.94
10/28/2021 7:15:00 AM 9.51 49.118 0.071 6.9 1.65 10.95
10/28/2021 7:30:00 AM 9.47 49.046 0.071 6.9 1.75 10.96
10/28/2021 7:45:00 AM 9.44 48.992 0.072 6.9 1.54 10.97
10/28/2021 8:00:00 AM 9.4 48.92 0.071 6.9 1.53 11
10/28/2021 8:15:00 AM 9.37 48.866 0.072 6.9 1.53 11.03
10/28/2021 8:30:00 AM 9.34 48.812 0.071 6.91 1.44 11.06
10/28/2021 8:45:00 AM 9.32 48.776 0.071 6.92 1.4 11.11
10/28/2021 9:00:00 AM 9.3 48.74 0.071 6.92 1.36 11.16
10/28/2021 9:15:00 AM 9.29 48.722 0.071 6.94 1.42 11.21
10/28/2021 9:30:00 AM 9.29 48.722 0.071 6.96 1.4 11.28
10/28/2021 9:45:00 AM 9.29 48.722 0.07 6.98 1.35 11.33
10/28/2021 10:00:00 AM 9.3 48.74 0.071 6.99 1.32 11.38
10/28/2021 10:15:00 AM 9.34 48.812 0.07 7.02 1.24 11.43
10/28/2021 10:30:00 AM 9.34 48.812 0.07 7.03 1.24 11.46
10/28/2021 10:45:00 AM 9.37 48.866 0.07 7.04 1.25 11.47
10/28/2021 11:00:00 AM 9.38 48.884 0.07 7.05 1.17 11.48
10/28/2021 11:15:00 AM 9.41 48.938 0.07 7.06 1.19 11.5
10/28/2021 11:30:00 AM 9.46 49.028 0.07 7.07 1.09 11.51
10/28/2021 11:45:00 AM 9.51 49.118 0.07 7.09 1.18 11.52
10/28/2021 12:00:00 PM 9.58 49.244 0.069 7.09 1.1 11.52
10/28/2021 12:15:00 PM 9.63 49.334 0.069 7.11 1.15 11.53
10/28/2021 12:30:00 PM 9.72 49.496 0.069 7.11 1.11 11.53
10/28/2021 12:45:00 PM 9.81 49.658 0.069 7.13 1.02 11.52
10/28/2021 1:00:00 PM 9.88 49.784 0.069 7.14 1.06 11.51
10/28/2021 1:15:00 PM 9.98 49.964 0.069 7.14 1.04 11.5
10/28/2021 1:30:00 PM 10.06 50.108 0.069 7.15 1.04 11.48
10/28/2021 1:45:00 PM 10.16 50.288 0.069 7.16 1.06 11.46
10/28/2021 2:00:00 PM 10.26 50.468 0.069 7.16 0.97 11.45
10/28/2021 2:15:00 PM 10.34 50.612 0.069 7.18 1.02 11.43
10/28/2021 2:30:00 PM 10.4 50.72 0.068 7.18 1.08 11.4
10/28/2021 2:45:00 PM 10.49 50.882 0.068 7.18 1.04 11.38
10/28/2021 3:00:00 PM 10.56 51.008 0.068 7.19 1.07 11.37
10/28/2021 3:15:00 PM 10.61 51.098 0.068 7.19 1.01 11.34
10/28/2021 3:30:00 PM 10.68 51.224 0.068 7.2 1.12 11.32
10/28/2021 3:45:00 PM 10.75 51.35 0.068 7.2 0.98 11.31
10/28/2021 4:00:00 PM 10.79 51.422 0.068 7.2 1.08 11.27
10/28/2021 4:15:00 PM 10.83 51.494 0.068 7.19 1.14 11.24
10/28/2021 4:30:00 PM 10.85 51.53 0.068 7.19 1.07 11.19
10/28/2021 4:45:00 PM 10.87 51.566 0.068 7.18 1.16 11.17
10/28/2021 5:00:00 PM 10.89 51.602 0.067 7.17 1.06 11.13
10/28/2021 5:15:00 PM 10.9 51.62 0.068 7.16 1.17 11.09
10/28/2021 5:30:00 PM 10.9 51.62 0.068 7.15 1.13 11.04
10/28/2021 5:45:00 PM 10.9 51.62 0.068 7.13 1.1 10.97
10/28/2021 6:00:00 PM 10.89 51.602 0.068 7.11 1.21 10.91
10/28/2021 6:15:00 PM 10.87 51.566 0.068 7.09 1.16 10.85
10/28/2021 6:30:00 PM 10.86 51.548 0.068 7.07 1.1 10.8
10/28/2021 6:45:00 PM 10.84 51.512 0.067 7.05 1.21 10.76
10/28/2021 7:00:00 PM 10.82 51.476 0.068 7.04 1.21 10.73
10/28/2021 7:15:00 PM 10.82 51.476 0.068 7.03 1.28 10.7
10/28/2021 7:30:00 PM 10.81 51.458 0.068 7.02 1.29 10.69
10/28/2021 7:45:00 PM 10.8 51.44 0.068 7.01 1.18 10.67
10/28/2021 8:00:00 PM 10.8 51.44 0.067 7.01 1.35 10.65
10/28/2021 8:15:00 PM 10.8 51.44 0.068 7 1.19 10.64
10/28/2021 8:30:00 PM 10.79 51.422 0.068 7 1.25 10.63
10/28/2021 8:45:00 PM 10.78 51.404 0.068 6.99 1.36 10.62
10/28/2021 9:00:00 PM 10.78 51.404 0.068 6.99 1.24 10.62
10/28/2021 9:15:00 PM 10.78 51.404 0.067 6.98 1.23 10.61
10/28/2021 9:30:00 PM 10.79 51.422 0.068 6.98 1.24 10.6
10/28/2021 9:45:00 PM 10.79 51.422 0.068 6.98 1.17 10.6
10/28/2021 10:00:00 PM 10.8 51.44 0.068 6.97 1.18 10.6
10/28/2021 10:15:00 PM 10.81 51.458 0.068 6.97 1.22 10.59
10/28/2021 10:30:00 PM 10.81 51.458 0.068 6.97 1.2 10.58
10/28/2021 10:45:00 PM 10.81 51.458 0.068 6.97 1.2 10.58
10/28/2021 11:00:00 PM 10.82 51.476 0.068 6.97 1.14 10.58
10/28/2021 11:15:00 PM 10.83 51.494 0.068 6.97 1.17 10.58
10/28/2021 11:30:00 PM 10.83 51.494 0.068 6.97 1.19 10.57
10/28/2021 11:45:00 PM 10.83 51.494 0.068 6.97 1.09 10.57
10/29/2021 12:00:00 AM 10.83 51.494 0.068 6.97 1.2 10.57
10/29/2021 12:15:00 AM 10.84 51.512 0.068 6.97 1.12 10.57
10/29/2021 12:30:00 AM 10.84 51.512 0.067 6.96 1.09 10.57
10/29/2021 12:45:00 AM 10.84 51.512 0.068 6.96 1.09 10.57
10/29/2021 1:00:00 AM 10.84 51.512 0.067 6.96 1.13 10.56
10/29/2021 1:15:00 AM 10.84 51.512 0.067 6.96 1.11 10.56
10/29/2021 1:30:00 AM 10.85 51.53 0.068 6.96 1.03 10.56
10/29/2021 1:45:00 AM 10.85 51.53 0.067 6.96 1.05 10.55
10/29/2021 2:00:00 AM 10.86 51.548 0.067 6.96 1.11 10.56
10/29/2021 2:15:00 AM 10.86 51.548 0.067 6.96 1.06 10.55
10/29/2021 2:30:00 AM 10.86 51.548 0.067 6.96 1.15 10.55
10/29/2021 2:45:00 AM 10.87 51.566 0.067 6.95 1.06 10.55
10/29/2021 3:00:00 AM 10.87 51.566 0.067 6.96 1.08 10.54
10/29/2021 3:15:00 AM 10.88 51.584 0.067 6.95 1.1 10.54
10/29/2021 3:30:00 AM 10.88 51.584 0.067 6.96 1.06 10.53
10/29/2021 3:45:00 AM 10.89 51.602 0.068 6.96 0.97 10.53
10/29/2021 4:00:00 AM 10.9 51.62 0.067 6.96 0.99 10.53
10/29/2021 4:15:00 AM 10.9 51.62 0.067 6.96 1.07 10.53
10/29/2021 4:30:00 AM 10.9 51.62 0.067 6.96 1.09 10.53
10/29/2021 4:45:00 AM 10.91 51.638 0.067 6.96 1.04 10.52
10/29/2021 5:00:00 AM 10.91 51.638 0.067 6.96 1.02 10.52
10/29/2021 5:15:00 AM 10.92 51.656 0.067 6.96 1.05 10.52
10/29/2021 5:30:00 AM 10.92 51.656 0.067 6.96 0.99 10.52
10/29/2021 5:45:00 AM 10.92 51.656 0.067 6.96 1.04 10.51
10/29/2021 6:00:00 AM 10.92 51.656 0.067 6.96 0.99 10.51
10/29/2021 6:15:00 AM 10.92 51.656 0.067 6.95 1.07 10.51
10/29/2021 6:30:00 AM 10.93 51.674 0.067 6.96 1.1 10.51
10/29/2021 6:45:00 AM 10.92 51.656 0.067 6.96 1.13 10.51
10/29/2021 7:00:00 AM 10.92 51.656 0.067 6.96 0.94 10.51
10/29/2021 7:15:00 AM 10.92 51.656 0.067 6.96 1.03 10.51
10/29/2021 7:30:00 AM 10.91 51.638 0.067 6.96 0.92 10.5
10/29/2021 7:45:00 AM 10.9 51.62 0.067 6.95 0.98 10.51
10/29/2021 8:00:00 AM 10.89 51.602 0.066 6.95 0.99 10.52
10/29/2021 8:15:00 AM 10.88 51.584 0.067 6.96 0.97 10.53
10/29/2021 8:30:00 AM 10.87 51.566 0.066 6.95 1.09 10.53
10/29/2021 8:45:00 AM 10.86 51.548 0.066 6.96 1.07 10.57
10/29/2021 9:00:00 AM 10.86 51.548 0.066 6.97 1.06 10.61
10/29/2021 9:15:00 AM 10.85 51.53 0.066 6.97 1.18 10.64
10/29/2021 9:30:00 AM 10.85 51.53 0.066 6.98 1.08 10.67
10/29/2021 9:45:00 AM 10.86 51.548 0.066 6.99 1.02 10.71
10/29/2021 10:00:00 AM 10.86 51.548 0.066 7 1.03 10.73
10/29/2021 10:15:00 AM 10.86 51.548 0.066 7 1.05 10.76
10/29/2021 10:30:00 AM 10.86 51.548 0.066 7.01 1.05 10.79
10/29/2021 10:45:00 AM 10.86 51.548 0.065 7.02 1 10.8
10/29/2021 11:00:00 AM 10.85 51.53 0.065 7.02 1.04 10.79
10/29/2021 11:15:00 AM 10.85 51.53 0.065 7.02 0.99 10.79
10/29/2021 11:30:00 AM 10.85 51.53 0.065 7.02 1.09 10.81
10/29/2021 11:45:00 AM 10.85 51.53 0.066 7.03 1.07 10.81
10/29/2021 12:00:00 PM 10.84 51.512 0.065 7.02 1.02 10.8
10/29/2021 12:15:00 PM 10.85 51.53 0.065 7.02 0.9 10.81
10/29/2021 12:30:00 PM 10.84 51.512 0.065 7.03 0.99 10.81
10/29/2021 12:45:00 PM 10.83 51.494 0.065 7.03 1.07 10.8
10/29/2021 1:00:00 PM 10.82 51.476 0.065 7.03 1.02 10.81
10/29/2021 1:15:00 PM 10.82 51.476 0.065 7.03 0.92 10.83
10/29/2021 1:30:00 PM 10.81 51.458 0.065 7.03 1.13 10.82
10/29/2021 1:45:00 PM 10.79 51.422 0.064 7.03 1.17 10.81
10/29/2021 2:00:00 PM 10.78 51.404 0.064 7.02 1.33 10.81
10/29/2021 2:15:00 PM 10.79 51.422 0.064 7.03 1.86 10.85
10/29/2021 2:30:00 PM 10.81 51.458 0.064 7.04 2.09 10.89
10/29/2021 2:45:00 PM 10.81 51.458 0.064 7.03 1.99 10.88
10/29/2021 3:00:00 PM 10.8 51.44 0.064 7.03 2.04 10.85
10/29/2021 3:15:00 PM 10.79 51.422 0.064 7.02 2.45 10.82
10/29/2021 3:30:00 PM 10.78 51.404 0.064 7.02 3.01 10.79
10/29/2021 3:45:00 PM 10.77 51.386 0.064 7.01 3.71 10.75
10/29/2021 4:00:00 PM 10.76 51.368 0.063 7 4.75 10.72
10/29/2021 4:15:00 PM 10.76 51.368 0.064 6.98 6.08 10.71
10/29/2021 4:30:00 PM 10.77 51.386 0.064 6.96 6.87 10.7
10/29/2021 4:45:00 PM 10.77 51.386 0.064 6.94 7.72 10.68
10/29/2021 5:00:00 PM 10.76 51.368 0.064 6.93 8.39 10.66
10/29/2021 5:15:00 PM 10.76 51.368 0.064 6.92 9.4 10.63
10/29/2021 5:30:00 PM 10.75 51.35 0.064 6.91 9.84 10.62
10/29/2021 5:45:00 PM 10.74 51.332 0.064 6.9 10.71 10.59
10/29/2021 6:00:00 PM 10.73 51.314 0.063 6.9 12.81 10.56
10/29/2021 6:15:00 PM 10.72 51.296 0.063 6.9 13.8 10.55
10/29/2021 6:30:00 PM 10.71 51.278 0.064 6.9 15.21 10.55
10/29/2021 6:45:00 PM 10.7 51.26 0.064 6.9 16.53 10.54
10/29/2021 7:00:00 PM 10.69 51.242 0.064 6.9 16.5 10.53
10/29/2021 7:15:00 PM 10.68 51.224 0.064 6.89 21.08 10.53
10/29/2021 7:30:00 PM 10.66 51.188 0.064 6.89 28.27 10.52
10/29/2021 7:45:00 PM 10.65 51.17 0.065 6.88 43.31 10.5
10/29/2021 8:00:00 PM 10.64 51.152 0.065 6.86 57.2 10.48
10/29/2021 8:15:00 PM 10.64 51.152 0.064 6.85 64.72 10.48
10/29/2021 8:30:00 PM 10.63 51.134 0.062 6.84 65.53 10.47
10/29/2021 8:45:00 PM 10.62 51.116 0.061 6.82 63.4 10.47
10/29/2021 9:00:00 PM 10.61 51.098 0.061 6.81 63.49 10.49
10/29/2021 9:15:00 PM 10.6 51.08 0.061 6.8 61.62 10.5
10/29/2021 9:30:00 PM 10.59 51.062 0.062 6.81 61.44 10.5
10/29/2021 9:45:00 PM 10.58 51.044 0.062 6.8 61.1 10.51
10/29/2021 10:00:00 PM 10.57 51.026 0.06 6.84 69.15 10.51
10/29/2021 10:15:00 PM 10.56 51.008 0.065 6.82 63.89 10.51
10/29/2021 10:30:00 PM 10.55 50.99 0.067 6.88 64.02 10.51
10/29/2021 10:45:00 PM 10.55 50.99 0.056 6.88 70.94 10.52
10/29/2021 11:00:00 PM 10.55 50.99 0.065 6.9 64.3 10.52
10/29/2021 11:15:00 PM 10.54 50.972 0.067 6.9 63.68 10.52
10/29/2021 11:30:00 PM 10.54 50.972 0.064 6.91 59.5 10.52
10/29/2021 11:45:00 PM 10.53 50.954 0.07 6.91 15324.68 10.52
10/30/2021 12:00:00 AM 10.53 50.954 0.071 6.92 331.21 10.52
10/30/2021 12:15:00 AM 10.52 50.936 0.07 6.89 54.43 10.52
10/30/2021 12:30:00 AM 10.51 50.918 0.071 6.9 49.83 10.52
10/30/2021 12:45:00 AM 10.51 50.918 0.071 6.89 47.28 10.52
10/30/2021 1:00:00 AM 10.5 50.9 0.071 6.9 43.38 10.52
10/30/2021 1:15:00 AM 10.5 50.9 0.071 6.89 42.4 10.53
10/30/2021 1:30:00 AM 10.49 50.882 0.071 6.89 39.62 10.53
10/30/2021 1:45:00 AM 10.48 50.864 0.071 6.89 37.22 10.53
10/30/2021 2:00:00 AM 10.48 50.864 0.071 6.89 35.32 10.53
10/30/2021 2:15:00 AM 10.47 50.846 0.07 6.9 33.16 10.53
10/30/2021 2:30:00 AM 10.46 50.828 0.071 6.89 31.49 10.54
10/30/2021 2:45:00 AM 10.45 50.81 0.071 6.89 30.1 10.54
10/30/2021 3:00:00 AM 10.45 50.81 0.071 6.89 28.25 10.54
10/30/2021 3:15:00 AM 10.44 50.792 0.071 6.88 26.36 10.54
10/30/2021 3:30:00 AM 10.43 50.774 0.071 6.9 25.14 10.54
10/30/2021 3:45:00 AM 10.42 50.756 0.071 6.9 23.11 10.54
10/30/2021 4:00:00 AM 10.41 50.738 0.07 6.9 22.2 10.54
10/30/2021 4:15:00 AM 10.4 50.72 0.071 6.89 21.54 10.54
10/30/2021 4:30:00 AM 10.39 50.702 0.07 6.9 20.29 10.54
10/30/2021 4:45:00 AM 10.39 50.702 0.07 6.89 19.24 10.55
10/30/2021 5:00:00 AM 10.38 50.684 0.07 6.88 18.75 10.54
10/30/2021 5:15:00 AM 10.37 50.666 0.07 6.89 17.43 10.54
10/30/2021 5:30:00 AM 10.36 50.648 0.07 6.89 16.77 10.55
10/30/2021 5:45:00 AM 10.35 50.63 0.07 6.89 16.12 10.55
10/30/2021 6:00:00 AM 10.34 50.612 0.069 6.89 15.54 10.55
10/30/2021 6:15:00 AM 10.34 50.612 0.069 6.88 15.04 10.55
10/30/2021 6:30:00 AM 10.33 50.594 0.069 6.9 14.38 10.56
10/30/2021 6:45:00 AM 10.32 50.576 0.069 6.88 14.02 10.55
10/30/2021 7:00:00 AM 10.31 50.558 0.068 6.89 13.91 10.56
10/30/2021 7:15:00 AM 10.31 50.558 0.068 6.89 13.08 10.56
10/30/2021 7:30:00 AM 10.3 50.54 0.068 6.88 12.64 10.56
10/30/2021 7:45:00 AM 10.29 50.522 0.068 6.89 12.31 10.56
10/30/2021 8:00:00 AM 10.29 50.522 0.067 6.89 12.16 10.57
10/30/2021 8:15:00 AM 10.28 50.504 0.067 6.87 11.37 10.58
10/30/2021 8:30:00 AM 10.28 50.504 0.067 6.87 10.82 10.59
10/30/2021 8:45:00 AM 10.29 50.522 0.066 6.87 10.51 10.61
10/30/2021 9:00:00 AM 10.29 50.522 0.066 6.87 10.3 10.62
10/30/2021 9:15:00 AM 10.3 50.54 0.066 6.87 9.94 10.64
10/30/2021 9:30:00 AM 10.31 50.558 0.066 6.88 9.42 10.65
10/30/2021 9:45:00 AM 10.33 50.594 0.066 6.88 9.02 10.67
10/30/2021 10:00:00 AM 10.35 50.63 0.066 6.88 8.82 10.7
10/30/2021 10:15:00 AM 10.38 50.684 0.065 6.89 8.91 10.74
10/30/2021 10:30:00 AM 10.4 50.72 0.065 6.9 8.33 10.76
10/30/2021 10:45:00 AM 10.42 50.756 0.065 6.9 8.18 10.77
10/30/2021 11:00:00 AM 10.44 50.792 0.065 6.9 7.85 10.77
10/30/2021 11:15:00 AM 10.47 50.846 0.065 6.91 7.6 10.79
10/30/2021 11:30:00 AM 10.49 50.882 0.065 6.92 7.38 10.8
10/30/2021 11:45:00 AM 10.51 50.918 0.065 6.91 7.14 10.8
10/30/2021 12:00:00 PM 10.54 50.972 0.065 6.92 6.91 10.81
10/30/2021 12:15:00 PM 10.56 51.008 0.065 6.92 6.88 10.81
10/30/2021 12:30:00 PM 10.6 51.08 0.065 6.95 6.61 10.82
10/30/2021 12:45:00 PM 10.65 51.17 0.065 6.94 6.66 10.84
10/30/2021 1:00:00 PM 10.7 51.26 0.064 6.95 6.54 10.85
10/30/2021 1:15:00 PM 10.74 51.332 0.064 6.97 6.4 10.85
10/30/2021 1:30:00 PM 10.78 51.404 0.064 6.97 6.36 10.86
10/30/2021 1:45:00 PM 10.82 51.476 0.064 6.97 6.23 10.85
10/30/2021 2:00:00 PM 10.86 51.548 0.064 6.97 6.31 10.85
10/30/2021 2:15:00 PM 10.9 51.62 0.064 6.98 6.25 10.85
10/30/2021 2:30:00 PM 10.95 51.71 0.064 6.98 5.97 10.85
10/30/2021 2:45:00 PM 10.97 51.746 0.064 6.98 5.81 10.84
10/30/2021 3:00:00 PM 11 51.8 0.064 6.97 6.02 10.83
10/30/2021 3:15:00 PM 11.02 51.836 0.064 6.97 5.65 10.81
10/30/2021 3:30:00 PM 11.05 51.89 0.064 6.97 5.47 10.8
10/30/2021 3:45:00 PM 11.07 51.926 0.064 7 5.51 10.77
10/30/2021 4:00:00 PM 11.09 51.962 0.064 6.98 5.33 10.75
10/30/2021 4:15:00 PM 11.11 51.998 0.063 6.98 5.58 10.74
10/30/2021 4:30:00 PM 11.15 52.07 0.063 6.99 5.44 10.75
10/30/2021 4:45:00 PM 11.18 52.124 0.063 6.97 5.25 10.73
10/30/2021 5:00:00 PM 11.19 52.142 0.063 6.98 5.34 10.69
10/30/2021 5:15:00 PM 11.2 52.16 0.063 6.99 5.23 10.65
10/30/2021 5:30:00 PM 11.2 52.16 0.063 6.98 5.13 10.61
10/30/2021 5:45:00 PM 11.21 52.178 0.063 6.97 5.46 10.57
10/30/2021 6:00:00 PM 11.21 52.178 0.063 6.97 5.07 10.54
10/30/2021 6:15:00 PM 11.21 52.178 0.063 6.95 5.06 10.51
10/30/2021 6:30:00 PM 11.21 52.178 0.063 6.93 5.35 10.49
10/30/2021 6:45:00 PM 11.21 52.178 0.062 6.92 5.32 10.47
10/30/2021 7:00:00 PM 11.21 52.178 0.062 6.91 5.33 10.45
10/30/2021 7:15:00 PM 11.21 52.178 0.062 6.91 4.98 10.44
10/30/2021 7:30:00 PM 11.21 52.178 0.062 6.91 5.4 10.43
10/30/2021 7:45:00 PM 11.21 52.178 0.062 6.9 5.05 10.42
10/30/2021 8:00:00 PM 11.21 52.178 0.062 6.9 4.88 10.41
10/30/2021 8:15:00 PM 11.21 52.178 0.062 6.9 5.08 10.41
10/30/2021 8:30:00 PM 11.21 52.178 0.062 6.9 4.95 10.41
10/30/2021 8:45:00 PM 11.21 52.178 0.062 6.89 4.69 10.4
10/30/2021 9:00:00 PM 11.21 52.178 0.062 6.89 4.95 10.4
10/30/2021 9:15:00 PM 11.21 52.178 0.061 6.88 4.83 10.39
10/30/2021 9:30:00 PM 11.21 52.178 0.061 6.88 4.45 10.39
10/30/2021 9:45:00 PM 11.21 52.178 0.061 6.88 4.56 10.39
10/30/2021 10:00:00 PM 11.21 52.178 0.061 6.88 4.38 10.39
10/30/2021 10:15:00 PM 11.2 52.16 0.061 6.87 4.6 10.39
10/30/2021 10:30:00 PM 11.19 52.142 0.061 6.87 4.5 10.39
10/30/2021 10:45:00 PM 11.19 52.142 0.061 6.87 4.38 10.39
10/30/2021 11:00:00 PM 11.18 52.124 0.061 6.86 4.31 10.4
10/30/2021 11:15:00 PM 11.18 52.124 0.061 6.86 4.39 10.4
10/30/2021 11:30:00 PM 11.18 52.124 0.061 6.85 4.29 10.4
10/30/2021 11:45:00 PM 11.17 52.106 0.061 6.85 4.09 10.4
10/31/2021 12:00:00 AM 11.17 52.106 0.06 6.85 4.17 10.4
10/31/2021 12:15:00 AM 11.17 52.106 0.06 6.85 3.96 10.4
10/31/2021 12:30:00 AM 11.16 52.088 0.06 6.85 4.05 10.4
10/31/2021 12:45:00 AM 11.16 52.088 0.06 6.85 4.03 10.4
10/31/2021 1:00:00 AM 11.16 52.088 0.06 6.85 3.92 10.4
10/31/2021 1:15:00 AM 11.15 52.07 0.06 6.85 3.78 10.4
10/31/2021 1:30:00 AM 11.14 52.052 0.06 6.85 3.87 10.4
10/31/2021 1:45:00 AM 11.14 52.052 0.06 6.85 3.75 10.4
10/31/2021 2:00:00 AM 11.13 52.034 0.06 6.85 3.73 10.4
10/31/2021 2:15:00 AM 11.12 52.016 0.06 6.84 3.76 10.4
10/31/2021 2:30:00 AM 11.11 51.998 0.06 6.84 3.8 10.4
10/31/2021 2:45:00 AM 11.11 51.998 0.06 6.84 3.65 10.41
10/31/2021 3:00:00 AM 11.1 51.98 0.06 6.84 3.69 10.41
10/31/2021 3:15:00 AM 11.09 51.962 0.06 6.84 3.69 10.4
10/31/2021 3:30:00 AM 11.09 51.962 0.06 6.84 3.6 10.41
10/31/2021 3:45:00 AM 11.09 51.962 0.06 6.83 3.51 10.41
10/31/2021 4:00:00 AM 11.08 51.944 0.06 6.84 3.72 10.41
10/31/2021 4:15:00 AM 11.08 51.944 0.06 6.84 3.45 10.41
10/31/2021 4:30:00 AM 11.08 51.944 0.059 6.83 3.44 10.41
10/31/2021 4:45:00 AM 11.07 51.926 0.059 6.83 3.45 10.41
10/31/2021 5:00:00 AM 11.07 51.926 0.059 6.83 3.34 10.41
10/31/2021 5:15:00 AM 11.07 51.926 0.059 6.83 3.33 10.42
10/31/2021 5:30:00 AM 11.07 51.926 0.059 6.83 3.38 10.41
10/31/2021 5:45:00 AM 11.06 51.908 0.059 6.83 3.44 10.42
10/31/2021 6:00:00 AM 11.05 51.89 0.059 6.83 3.42 10.42
10/31/2021 6:15:00 AM 11.05 51.89 0.059 6.83 3.44 10.42
10/31/2021 6:30:00 AM 11.04 51.872 0.059 6.82 3.38 10.43
10/31/2021 6:45:00 AM 11.04 51.872 0.059 6.82 3.4 10.42
10/31/2021 7:00:00 AM 11.04 51.872 0.059 6.82 3.35 10.43
10/31/2021 7:15:00 AM 11.03 51.854 0.059 6.83 3.52 10.43
10/31/2021 7:30:00 AM 11.03 51.854 0.059 6.82 3.25 10.43
10/31/2021 7:45:00 AM 11.03 51.854 0.059 6.82 3.24 10.44
10/31/2021 8:00:00 AM 11.03 51.854 0.059 6.82 3.32 10.44
10/31/2021 8:15:00 AM 11.03 51.854 0.059 6.82 3.16 10.46
10/31/2021 8:30:00 AM 11.03 51.854 0.059 6.82 3.06 10.47
10/31/2021 8:45:00 AM 11.04 51.872 0.059 6.83 3.09 10.49
10/31/2021 9:00:00 AM 11.05 51.89 0.059 6.84 3.18 10.53
10/31/2021 9:15:00 AM 11.05 51.89 0.058 6.85 3.06 10.56
10/31/2021 9:30:00 AM 11.07 51.926 0.059 6.86 2.9 10.6
10/31/2021 9:45:00 AM 11.07 51.926 0.058 6.87 2.88 10.63
10/31/2021 10:00:00 AM 11.1 51.98 0.058 6.88 2.81 10.68
10/31/2021 10:15:00 AM 11.11 51.998 0.058 6.89 2.65 10.7
10/31/2021 10:30:00 AM 11.12 52.016 0.058 6.9 2.84 10.71
10/31/2021 10:45:00 AM 11.14 52.052 0.058 6.9 2.75 10.73
10/31/2021 11:00:00 AM 11.16 52.088 0.058 6.91 2.72 10.76
10/31/2021 11:15:00 AM 11.17 52.106 0.058 6.92 2.67 10.77
10/31/2021 11:30:00 AM 11.19 52.142 0.058 6.92 2.71 10.78
10/31/2021 11:45:00 AM 11.2 52.16 0.058 6.93 2.59 10.79
10/31/2021 12:00:00 PM 11.21 52.178 0.058 6.94 2.6 10.8
10/31/2021 12:15:00 PM 11.23 52.214 0.057 6.95 2.56 10.82
10/31/2021 12:30:00 PM 11.26 52.268 0.058 6.96 2.63 10.84
10/31/2021 12:45:00 PM 11.28 52.304 0.058 6.97 3.05 10.85
10/31/2021 1:00:00 PM 11.32 52.376 0.057 6.97 2.86 10.86
10/31/2021 1:15:00 PM 11.41 52.538 0.058 6.98 2.82 10.88
10/31/2021 1:30:00 PM 11.43 52.574 0.057 6.99 2.76 10.87
10/31/2021 1:45:00 PM 11.47 52.646 0.057 7 2.74 10.87
10/31/2021 2:00:00 PM 11.51 52.718 0.057 7 2.79 10.86
10/31/2021 2:15:00 PM 11.54 52.772 0.057 7 2.68 10.86
10/31/2021 2:30:00 PM 11.56 52.808 0.057 7 2.76 10.86
10/31/2021 2:45:00 PM 11.57 52.826 0.057 7.01 2.9 10.84
10/31/2021 3:00:00 PM 11.58 52.844 0.057 7.01 2.76 10.83
10/31/2021 3:15:00 PM 11.57 52.826 0.057 7.01 2.72 10.81
10/31/2021 3:30:00 PM 11.57 52.826 0.057 7.01 2.68 10.8
10/31/2021 3:45:00 PM 11.57 52.826 0.057 7 2.7 10.79
10/31/2021 4:00:00 PM 11.57 52.826 0.057 6.99 2.76 10.77
10/31/2021 4:15:00 PM 11.58 52.844 0.057 6.98 2.78 10.75
10/31/2021 4:30:00 PM 11.58 52.844 0.057 6.98 2.69 10.75
10/31/2021 4:45:00 PM 11.59 52.862 0.057 6.98 2.71 10.74
10/31/2021 5:00:00 PM 11.59 52.862 0.057 6.98 2.79 10.72
10/31/2021 5:15:00 PM 11.59 52.862 0.057 6.97 2.76 10.7
10/31/2021 5:30:00 PM 11.59 52.862 0.057 6.96 2.71 10.68
10/31/2021 5:45:00 PM 11.59 52.862 0.057 6.96 2.84 10.65
10/31/2021 6:00:00 PM 11.58 52.844 0.057 6.95 2.81 10.62
10/31/2021 6:15:00 PM 11.57 52.826 0.057 6.95 2.81 10.57
10/31/2021 6:30:00 PM 11.54 52.772 0.057 6.94 2.91 10.54
10/31/2021 6:45:00 PM 11.5 52.7 0.057 6.92 2.93 10.52
10/31/2021 7:00:00 PM 11.45 52.61 0.057 6.91 2.92 10.5
10/31/2021 7:15:00 PM 11.41 52.538 0.057 6.9 2.99 10.49
10/31/2021 7:30:00 PM 11.37 52.466 0.057 6.9 2.92 10.48
10/31/2021 7:45:00 PM 11.33 52.394 0.057 6.89 2.8 10.48
10/31/2021 8:00:00 PM 11.28 52.304 0.057 6.88 2.92 10.48
10/31/2021 8:15:00 PM 11.23 52.214 0.057 6.87 2.94 10.48
10/31/2021 8:30:00 PM 11.19 52.142 0.057 6.86 2.89 10.49
10/31/2021 8:45:00 PM 11.14 52.052 0.057 6.87 2.83 10.49
10/31/2021 9:00:00 PM 11.1 51.98 0.057 6.86 2.72 10.5
10/31/2021 9:15:00 PM 11.07 51.926 0.058 6.86 2.69 10.51
10/31/2021 9:30:00 PM 11.04 51.872 0.058 6.86 3.06 10.51
10/31/2021 9:45:00 PM 11.01 51.818 0.058 6.85 2.78 10.52
10/31/2021 10:00:00 PM 10.99 51.782 0.058 6.85 2.69 10.53
10/31/2021 10:15:00 PM 10.97 51.746 0.058 6.85 2.7 10.53
10/31/2021 10:30:00 PM 10.96 51.728 0.058 6.85 2.83 10.54
10/31/2021 10:45:00 PM 10.94 51.692 0.058 6.85 2.79 10.55
10/31/2021 11:00:00 PM 10.92 51.656 0.058 6.85 2.66 10.55
10/31/2021 11:15:00 PM 10.9 51.62 0.058 6.85 2.75 10.56
10/31/2021 11:30:00 PM 10.88 51.584 0.058 6.84 2.62 10.56
10/31/2021 11:45:00 PM 10.87 51.566 0.058 6.84 2.68 10.57
11/1/2021 12:00:00 AM 10.86 51.548 0.058 6.84 2.64 10.58
11/1/2021 12:15:00 AM 10.86 51.548 0.058 6.84 2.76 10.58
11/1/2021 12:30:00 AM 10.85 51.53 0.058 6.84 2.63 10.58
11/1/2021 12:45:00 AM 10.84 51.512 0.057 6.85 2.6 10.59
11/1/2021 1:00:00 AM 10.82 51.476 0.058 6.85 2.64 10.59
11/1/2021 1:15:00 AM 10.81 51.458 0.058 6.84 2.54 10.6
11/1/2021 1:30:00 AM 10.8 51.44 0.058 6.84 2.59 10.6
11/1/2021 1:45:00 AM 10.8 51.44 0.058 6.84 2.56 10.6
11/1/2021 2:00:00 AM 10.79 51.422 0.058 6.82 2.56 10.61
11/1/2021 2:15:00 AM 10.78 51.404 0.058 6.83 2.45 10.61
11/1/2021 2:30:00 AM 10.77 51.386 0.058 6.83 2.61 10.62
11/1/2021 2:45:00 AM 10.75 51.35 0.058 6.83 2.57 10.63
11/1/2021 3:00:00 AM 10.73 51.314 0.058 6.83 2.42 10.63
11/1/2021 3:15:00 AM 10.71 51.278 0.057 6.83 2.54 10.63
11/1/2021 3:30:00 AM 10.69 51.242 0.058 6.83 2.4 10.64
11/1/2021 3:45:00 AM 10.66 51.188 0.058 6.84 2.56 10.65
11/1/2021 4:00:00 AM 10.61 51.098 0.058 6.84 2.38 10.66
11/1/2021 4:15:00 AM 10.56 51.008 0.058 6.83 2.43 10.67
11/1/2021 4:30:00 AM 10.54 50.972 0.058 6.83 2.34 10.69
11/1/2021 4:45:00 AM 10.51 50.918 0.058 6.82 2.32 10.7
11/1/2021 5:00:00 AM 10.47 50.846 0.058 6.83 2.44 10.71
11/1/2021 5:15:00 AM 10.44 50.792 0.058 6.83 2.54 10.72
11/1/2021 5:30:00 AM 10.43 50.774 0.058 6.82 2.44 10.73
11/1/2021 5:45:00 AM 10.4 50.72 0.058 6.82 2.34 10.73
11/1/2021 6:00:00 AM 10.36 50.648 0.058 6.82 2.49 10.75
11/1/2021 6:15:00 AM 10.33 50.594 0.058 6.82 2.29 10.76
11/1/2021 6:30:00 AM 10.28 50.504 0.058 6.82 2.38 10.77
11/1/2021 6:45:00 AM 10.24 50.432 0.058 6.82 2.32 10.79
11/1/2021 7:00:00 AM 10.18 50.324 0.058 6.82 2.29 10.79
11/1/2021 7:15:00 AM 10.13 50.234 0.058 6.82 2.34 10.81
11/1/2021 7:30:00 AM 10.08 50.144 0.058 6.81 2.37 10.83
11/1/2021 7:45:00 AM 10.02 50.036 0.058 6.81 2.33 10.85
11/1/2021 8:00:00 AM 9.97 49.946 0.058 6.81 2.31 10.87
11/1/2021 8:15:00 AM 9.92 49.856 0.058 6.81 2.36 10.91
11/1/2021 8:30:00 AM 9.87 49.766 0.058 6.81 2.23 10.94
11/1/2021 8:45:00 AM 9.83 49.694 0.058 6.81 2.14 10.98
11/1/2021 9:00:00 AM 9.79 49.622 0.058 6.81 2.14 11.02
11/1/2021 9:15:00 AM 9.75 49.55 0.058 6.81 2.09 11.06
11/1/2021 9:30:00 AM 9.72 49.496 0.058 6.81 2.03 11.1
11/1/2021 9:45:00 AM 9.7 49.46 0.058 6.81 1.92 11.13
11/1/2021 10:00:00 AM 9.68 49.424 0.057 6.82 1.91 11.17
11/1/2021 10:15:00 AM 9.67 49.406 0.058 6.82 1.95 11.2
11/1/2021 10:30:00 AM 9.66 49.388 0.057 6.83 1.79 11.24
11/1/2021 10:45:00 AM 9.67 49.406 0.058 6.84 1.74 11.3
11/1/2021 11:00:00 AM 9.69 49.442 0.057 6.86 1.69 11.34
11/1/2021 11:15:00 AM 9.66 49.388 0.058 6.87 1.69 11.37
11/1/2021 11:30:00 AM 9.67 49.406 0.057 6.88 1.66 11.39
11/1/2021 11:45:00 AM 9.7 49.46 0.057 6.89 1.64 11.42
11/1/2021 12:00:00 PM 9.76 49.568 0.057 6.91 1.63 11.45
11/1/2021 12:15:00 PM 9.8 49.64 0.057 6.93 1.7 11.47
11/1/2021 12:30:00 PM 9.82 49.676 0.057 6.94 1.58 11.47
11/1/2021 12:45:00 PM 9.86 49.748 0.057 6.95 1.59 11.48
11/1/2021 1:00:00 PM 9.88 49.784 0.057 6.95 1.59 11.46
11/1/2021 1:15:00 PM 9.97 49.946 0.057 6.97 1.56 11.47
11/1/2021 1:30:00 PM 9.98 49.964 0.057 6.97 1.56 11.46
11/1/2021 1:45:00 PM 10.05 50.09 0.057 6.98 1.69 11.46
11/1/2021 2:00:00 PM 10.15 50.27 0.057 6.99 1.7 11.47
11/1/2021 2:15:00 PM 10.22 50.396 0.057 7 1.57 11.46
11/1/2021 2:30:00 PM 10.23 50.414 0.057 7 1.58 11.43
11/1/2021 2:45:00 PM 10.34 50.612 0.057 7 1.63 11.41
11/1/2021 3:00:00 PM 10.38 50.684 0.057 7.01 1.6 11.39
11/1/2021 3:15:00 PM 10.41 50.738 0.057 7.01 1.64 11.36
11/1/2021 3:30:00 PM 10.39 50.702 0.057 7 1.62 11.33
11/1/2021 3:45:00 PM 10.43 50.774 0.057 7.01 1.68 11.33
11/1/2021 4:00:00 PM 10.43 50.774 0.057 7.01 1.55 11.32
11/1/2021 4:15:00 PM 10.41 50.738 0.057 7.01 1.68 11.3
11/1/2021 4:30:00 PM 10.42 50.756 0.057 7.01 1.74 11.31
11/1/2021 4:45:00 PM 10.4 50.72 0.057 7.01 1.6 11.3
11/1/2021 5:00:00 PM 10.38 50.684 0.057 7 1.62 11.27
11/1/2021 5:15:00 PM 10.37 50.666 0.057 6.99 1.68 11.23
11/1/2021 5:30:00 PM 10.34 50.612 0.057 6.98 1.67 11.19
11/1/2021 5:45:00 PM 10.3 50.54 0.057 6.96 1.71 11.17
11/1/2021 6:00:00 PM 10.25 50.45 0.057 6.95 1.62 11.13
11/1/2021 6:15:00 PM 10.18 50.324 0.057 6.93 1.7 11.09
11/1/2021 6:30:00 PM 10.12 50.216 0.058 6.92 1.76 11.07
11/1/2021 6:45:00 PM 10.05 50.09 0.058 6.91 1.78 11.05
11/1/2021 7:00:00 PM 9.98 49.964 0.058 6.9 1.75 11.03
11/1/2021 7:15:00 PM 9.92 49.856 0.058 6.88 1.8 11.02
11/1/2021 7:30:00 PM 9.85 49.73 0.058 6.88 1.94 11.02
11/1/2021 7:45:00 PM 9.8 49.64 0.058 6.87 1.81 11.03
11/1/2021 8:00:00 PM 9.74 49.532 0.057 6.86 1.87 11.03
11/1/2021 8:15:00 PM 9.69 49.442 0.058 6.86 1.81 11.04
11/1/2021 8:30:00 PM 9.63 49.334 0.058 6.85 1.86 11.04
11/1/2021 8:45:00 PM 9.57 49.226 0.058 6.84 1.72 11.05
11/1/2021 9:00:00 PM 9.51 49.118 0.058 6.84 1.8 11.06
11/1/2021 9:15:00 PM 9.45 49.01 0.058 6.83 1.8 11.07
11/1/2021 9:30:00 PM 9.39 48.902 0.058 6.83 1.85 11.08
11/1/2021 9:45:00 PM 9.33 48.794 0.058 6.82 1.78 11.1
11/1/2021 10:00:00 PM 9.27 48.686 0.058 6.82 1.66 11.11
11/1/2021 10:15:00 PM 9.22 48.596 0.058 6.81 1.67 11.13
11/1/2021 10:30:00 PM 9.17 48.506 0.058 6.8 1.66 11.14
11/1/2021 10:45:00 PM 9.12 48.416 0.058 6.8 1.7 11.15
11/1/2021 11:00:00 PM 9.09 48.362 0.058 6.79 1.68 11.17
11/1/2021 11:15:00 PM 9.05 48.29 0.058 6.79 1.62 11.18
11/1/2021 11:30:00 PM 9.01 48.218 0.058 6.79 1.56 11.19
11/1/2021 11:45:00 PM 8.98 48.164 0.058 6.78 1.64 11.2
11/2/2021 12:00:00 AM 8.95 48.11 0.058 6.78 1.56 11.21
11/2/2021 12:15:00 AM 8.91 48.038 0.058 6.78 1.51 11.22
11/2/2021 12:30:00 AM 8.88 47.984 0.058 6.78 1.68 11.23
11/2/2021 12:45:00 AM 8.85 47.93 0.058 6.78 1.73 11.24
11/2/2021 1:00:00 AM 8.81 47.858 0.058 6.78 1.69 11.25
11/2/2021 1:15:00 AM 8.78 47.804 0.058 6.79 1.63 11.26
11/2/2021 1:30:00 AM 8.74 47.732 0.058 6.79 1.52 11.27
11/2/2021 1:45:00 AM 8.71 47.678 0.058 6.79 1.52 11.28
11/2/2021 2:00:00 AM 8.67 47.606 0.058 6.79 1.5 11.29
11/2/2021 2:15:00 AM 8.64 47.552 0.058 6.79 1.61 11.31
11/2/2021 2:30:00 AM 8.6 47.48 0.058 6.79 1.5 11.31
11/2/2021 2:45:00 AM 8.57 47.426 0.058 6.79 1.49 11.33
11/2/2021 3:00:00 AM 8.54 47.372 0.058 6.79 1.45 11.33
11/2/2021 3:15:00 AM 8.51 47.318 0.058 6.79 1.49 11.35
11/2/2021 3:30:00 AM 8.48 47.264 0.058 6.79 1.39 11.36
11/2/2021 3:45:00 AM 8.45 47.21 0.058 6.78 1.41 11.37
11/2/2021 4:00:00 AM 8.42 47.156 0.058 6.78 1.38 11.38
11/2/2021 4:15:00 AM 8.38 47.084 0.058 6.78 1.4 11.39
11/2/2021 4:30:00 AM 8.35 47.03 0.058 6.78 1.37 11.4
11/2/2021 4:45:00 AM 8.31 46.958 0.058 6.78 1.37 11.41
11/2/2021 5:00:00 AM 8.27 46.886 0.058 6.78 1.45 11.42
11/2/2021 5:15:00 AM 8.22 46.796 0.058 6.77 1.37 11.43
11/2/2021 5:30:00 AM 8.18 46.724 0.058 6.77 1.35 11.45
11/2/2021 5:45:00 AM 8.14 46.652 0.058 6.77 1.35 11.46
11/2/2021 6:00:00 AM 8.1 46.58 0.058 6.77 1.36 11.47
11/2/2021 6:15:00 AM 8.06 46.508 0.058 6.77 1.22 11.48
11/2/2021 6:30:00 AM 8.02 46.436 0.058 6.77 1.33 11.49
11/2/2021 6:45:00 AM 7.98 46.364 0.058 6.76 1.31 11.5
11/2/2021 7:00:00 AM 7.93 46.274 0.058 6.76 1.19 11.51
11/2/2021 7:15:00 AM 7.89 46.202 0.058 6.76 1.24 11.52
11/2/2021 7:30:00 AM 7.85 46.13 0.058 6.76 1.3 11.54
11/2/2021 7:45:00 AM 7.81 46.058 0.058 6.76 1.27 11.55
11/2/2021 8:00:00 AM 7.76 45.968 0.058 6.76 1.35 11.58
11/2/2021 8:15:00 AM 7.73 45.914 0.058 6.76 1.22 11.62
11/2/2021 8:30:00 AM 7.69 45.842 0.058 6.76 1.29 11.66
11/2/2021 8:45:00 AM 7.67 45.806 0.058 6.77 1.18 11.71
11/2/2021 9:00:00 AM 7.66 45.788 0.058 6.78 1.2 11.77
11/2/2021 9:15:00 AM 7.64 45.752 0.058 6.79 1.09 11.81
11/2/2021 9:30:00 AM 7.62 45.716 0.058 6.81 1.11 11.86
11/2/2021 9:45:00 AM 7.63 45.734 0.058 6.82 1.05 11.91
11/2/2021 10:00:00 AM 7.65 45.77 0.057 6.84 1 11.96
11/2/2021 10:15:00 AM 7.67 45.806 0.057 6.85 1.18 11.99
11/2/2021 10:30:00 AM 7.67 45.806 0.057 6.87 1.04 12.01
11/2/2021 10:45:00 AM 7.69 45.842 0.057 6.88 0.98 12.03
11/2/2021 11:00:00 AM 7.72 45.896 0.057 6.89 0.96 12.04
11/2/2021 11:15:00 AM 7.74 45.932 0.057 6.9 0.9 12.05
11/2/2021 11:30:00 AM 7.79 46.022 0.057 6.91 1.02 12.07
11/2/2021 11:45:00 AM 7.81 46.058 0.057 6.92 0.94 12.08
11/2/2021 12:00:00 PM 7.88 46.184 0.057 6.93 0.93 12.1
11/2/2021 12:15:00 PM 7.9 46.22 0.057 6.94 0.91 12.1
11/2/2021 12:30:00 PM 7.9 46.22 0.057 6.95 0.88 12.09
11/2/2021 12:45:00 PM 7.9 46.22 0.057 6.96 0.88 12.09
11/2/2021 1:00:00 PM 7.94 46.292 0.057 6.96 0.88 12.1
11/2/2021 1:15:00 PM 8 46.4 0.057 6.97 0.85 12.1
11/2/2021 1:30:00 PM 8 46.4 0.057 6.98 0.89 12.09
11/2/2021 1:45:00 PM 7.99 46.382 0.057 6.98 0.86 12.09
11/2/2021 2:00:00 PM 8.02 46.436 0.057 6.98 0.84 12.07
11/2/2021 2:15:00 PM 8.05 46.49 0.057 6.99 0.91 12.06
11/2/2021 2:30:00 PM 8.06 46.508 0.057 6.99 0.85 12.06
11/2/2021 2:45:00 PM 8.09 46.562 0.057 6.99 0.89 12.06
11/2/2021 3:00:00 PM 8.16 46.688 0.057 7 0.83 12.06
11/2/2021 3:15:00 PM 8.22 46.796 0.057 7.01 0.83 12.05
11/2/2021 3:30:00 PM 8.27 46.886 0.057 7.01 0.84 12.05
11/2/2021 3:45:00 PM 8.26 46.868 0.057 7.01 0.93 12.02
11/2/2021 4:00:00 PM 8.3 46.94 0.056 7.01 0.92 12.01
11/2/2021 4:15:00 PM 8.31 46.958 0.057 7.02 0.88 11.99
11/2/2021 4:30:00 PM 8.36 47.048 0.057 7.01 0.9 11.99
11/2/2021 4:45:00 PM 8.36 47.048 0.057 7.01 0.89 11.95
11/2/2021 5:00:00 PM 8.36 47.048 0.057 7 0.87 11.91
11/2/2021 5:15:00 PM 8.34 47.012 0.057 6.99 0.93 11.89
11/2/2021 5:30:00 PM 8.34 47.012 0.057 6.98 0.91 11.85
11/2/2021 5:45:00 PM 8.32 46.976 0.057 6.98 0.88 11.79
11/2/2021 6:00:00 PM 8.3 46.94 0.057 6.96 0.95 11.75
11/2/2021 6:15:00 PM 8.27 46.886 0.057 6.94 0.95 11.7
11/2/2021 6:30:00 PM 8.24 46.832 0.057 6.93 0.95 11.66
11/2/2021 6:45:00 PM 8.2 46.76 0.057 6.92 1.03 11.64
11/2/2021 7:00:00 PM 8.17 46.706 0.057 6.9 0.98 11.61
11/2/2021 7:15:00 PM 8.13 46.634 0.057 6.89 1.06 11.6
11/2/2021 7:30:00 PM 8.1 46.58 0.057 6.88 1.07 11.59
11/2/2021 7:45:00 PM 8.07 46.526 0.057 6.88 1.09 11.58
11/2/2021 8:00:00 PM 8.04 46.472 0.057 6.87 1.01 11.58
11/2/2021 8:15:00 PM 8.02 46.436 0.057 6.86 1.01 11.57
11/2/2021 8:30:00 PM 7.99 46.382 0.057 6.86 1 11.57
11/2/2021 8:45:00 PM 7.96 46.328 0.058 6.86 1.04 11.57
11/2/2021 9:00:00 PM 7.92 46.256 0.058 6.85 1.02 11.57
11/2/2021 9:15:00 PM 7.87 46.166 0.058 6.85 1.19 11.58
11/2/2021 9:30:00 PM 7.82 46.076 0.058 6.84 0.95 11.58
11/2/2021 9:45:00 PM 7.78 46.004 0.058 6.84 1.08 11.59
11/2/2021 10:00:00 PM 7.73 45.914 0.058 6.84 0.96 11.6
11/2/2021 10:15:00 PM 7.69 45.842 0.058 6.83 0.94 11.61
11/2/2021 10:30:00 PM 7.66 45.788 0.058 6.83 0.99 11.63
11/2/2021 10:45:00 PM 7.63 45.734 0.058 6.83 1 11.63
11/2/2021 11:00:00 PM 7.58 45.644 0.058 6.83 0.94 11.64
11/2/2021 11:15:00 PM 7.54 45.572 0.058 6.82 0.88 11.65
11/2/2021 11:30:00 PM 7.49 45.482 0.058 6.82 0.88 11.67
11/2/2021 11:45:00 PM 7.45 45.41 0.058 6.82 0.9 11.68
11/3/2021 12:00:00 AM 7.41 45.338 0.058 6.81 0.83 11.69
11/3/2021 12:15:00 AM 7.38 45.284 0.058 6.8 0.9 11.7
11/3/2021 12:30:00 AM 7.35 45.23 0.058 6.8 0.9 11.71
11/3/2021 12:45:00 AM 7.33 45.194 0.058 6.8 0.88 11.72
11/3/2021 1:00:00 AM 7.31 45.158 0.058 6.8 0.93 11.73
11/3/2021 1:15:00 AM 7.29 45.122 0.058 6.79 0.83 11.73
11/3/2021 1:30:00 AM 7.27 45.086 0.057 6.8 0.84 11.74
11/3/2021 1:45:00 AM 7.24 45.032 0.058 6.79 0.97 11.75
11/3/2021 2:00:00 AM 7.22 44.996 0.058 6.79 0.87 11.76
11/3/2021 2:15:00 AM 7.21 44.978 0.058 6.79 0.8 11.76
11/3/2021 2:30:00 AM 7.19 44.942 0.058 6.79 0.88 11.77
11/3/2021 2:45:00 AM 7.18 44.924 0.058 6.79 0.84 11.78
11/3/2021 3:00:00 AM 7.16 44.888 0.058 6.79 0.86 11.78
11/3/2021 3:15:00 AM 7.15 44.87 0.057 6.79 0.86 11.79
11/3/2021 3:30:00 AM 7.15 44.87 0.058 6.79 0.86 11.79
11/3/2021 3:45:00 AM 7.15 44.87 0.058 6.79 0.85 11.79
11/3/2021 4:00:00 AM 7.14 44.852 0.058 6.8 0.78 11.8
11/3/2021 4:15:00 AM 7.14 44.852 0.058 6.8 0.82 11.8
11/3/2021 4:30:00 AM 7.13 44.834 0.058 6.8 0.74 11.8
11/3/2021 4:45:00 AM 7.12 44.816 0.058 6.8 0.9 11.81
11/3/2021 5:00:00 AM 7.1 44.78 0.058 6.8 0.75 11.81
11/3/2021 5:15:00 AM 7.09 44.762 0.058 6.8 0.75 11.82
11/3/2021 5:30:00 AM 7.06 44.708 0.058 6.8 0.77 11.82
11/3/2021 5:45:00 AM 7.05 44.69 0.058 6.8 0.84 11.82
11/3/2021 6:00:00 AM 7.03 44.654 0.058 6.8 0.76 11.82
11/3/2021 6:15:00 AM 7 44.6 0.058 6.81 0.76 11.83
11/3/2021 6:30:00 AM 6.99 44.582 0.058 6.8 0.77 11.84
11/3/2021 6:45:00 AM 6.95 44.51 0.058 6.8 0.8 11.85
11/3/2021 7:00:00 AM 6.93 44.474 0.058 6.8 0.74 11.86
11/3/2021 7:15:00 AM 6.91 44.438 0.058 6.8 0.86 11.87
11/3/2021 7:30:00 AM 6.89 44.402 0.058 6.8 0.76 11.87
11/3/2021 7:45:00 AM 6.85 44.33 0.058 6.8 0.89 11.89
11/3/2021 8:00:00 AM 6.83 44.294 0.058 6.8 0.91 11.91
11/3/2021 8:15:00 AM 6.8 44.24 0.058 6.8 0.84 11.94
11/3/2021 8:30:00 AM 6.78 44.204 0.058 6.81 0.84 11.99
11/3/2021 8:45:00 AM 6.79 44.222 0.058 6.82 0.73 12.05
11/3/2021 9:00:00 AM 6.79 44.222 0.058 6.83 0.66 12.09
11/3/2021 9:15:00 AM 6.81 44.258 0.058 6.85 0.65 12.15
11/3/2021 9:30:00 AM 6.81 44.258 0.058 6.86 0.67 12.19
11/3/2021 9:45:00 AM 6.84 44.312 0.058 6.87 0.63 12.23
11/3/2021 10:00:00 AM 6.86 44.348 0.057 6.89 0.64 12.27
11/3/2021 10:15:00 AM 6.87 44.366 0.058 6.89 0.65 12.29
11/3/2021 10:30:00 AM 6.9 44.42 0.057 6.91 0.53 12.31
11/3/2021 10:45:00 AM 6.93 44.474 0.057 6.92 0.57 12.34
11/3/2021 11:00:00 AM 6.95 44.51 0.057 6.93 0.52 12.36
11/3/2021 11:15:00 AM 6.99 44.582 0.057 6.94 0.55 12.37
11/3/2021 11:30:00 AM 7.01 44.618 0.057 6.95 0.5 12.38
11/3/2021 11:45:00 AM 7.07 44.726 0.057 6.96 0.49 12.39
11/3/2021 12:00:00 PM 7.11 44.798 0.057 6.96 0.52 12.39
11/3/2021 12:15:00 PM 7.19 44.942 0.057 6.97 0.55 12.39
11/3/2021 12:30:00 PM 7.24 45.032 0.057 6.98 0.49 12.38
11/3/2021 12:45:00 PM 7.32 45.176 0.057 6.98 0.5 12.39
11/3/2021 1:00:00 PM 7.32 45.176 0.057 6.99 0.52 12.37
11/3/2021 1:15:00 PM 7.38 45.284 0.057 6.99 0.5 12.36
11/3/2021 1:30:00 PM 7.39 45.302 0.057 6.99 0.45 12.35
11/3/2021 1:45:00 PM 7.44 45.392 0.057 7 0.49 12.34
11/3/2021 2:00:00 PM 7.46 45.428 0.057 7 0.48 12.31
11/3/2021 2:15:00 PM 7.55 45.59 0.057 7 0.44 12.3
11/3/2021 2:30:00 PM 7.6 45.68 0.057 7.01 0.51 12.29
11/3/2021 2:45:00 PM 7.71 45.878 0.057 7.01 0.52 12.29
11/3/2021 3:00:00 PM 7.71 45.878 0.057 7.02 0.5 12.26
11/3/2021 3:15:00 PM 7.74 45.932 0.057 7.02 0.56 12.25
11/3/2021 3:30:00 PM 7.84 46.112 0.057 7.02 0.5 12.23
11/3/2021 3:45:00 PM 7.91 46.238 0.057 7.03 0.48 12.23
11/3/2021 4:00:00 PM 7.96 46.328 0.057 7.04 0.48 12.21
11/3/2021 4:15:00 PM 7.95 46.31 0.057 7.03 0.58 12.16
11/3/2021 4:30:00 PM 7.98 46.364 0.057 7.01 0.48 12.09
11/3/2021 4:45:00 PM 7.96 46.328 0.057 7 0.55 12.01
11/3/2021 5:00:00 PM 7.96 46.328 0.057 6.98 0.52 11.97
11/3/2021 5:15:00 PM 7.95 46.31 0.057 6.97 0.61 11.93
11/3/2021 5:30:00 PM 7.93 46.274 0.058 6.96 0.6 11.89
11/3/2021 5:45:00 PM 7.9 46.22 0.058 6.95 0.52 11.85
11/3/2021 6:00:00 PM 7.86 46.148 0.058 6.94 0.61 11.83
11/3/2021 6:15:00 PM 7.81 46.058 0.058 6.93 0.61 11.81
11/3/2021 6:30:00 PM 7.77 45.986 0.058 6.92 0.61 11.78
11/3/2021 6:45:00 PM 7.72 45.896 0.058 6.91 0.64 11.77
11/3/2021 7:00:00 PM 7.67 45.806 0.058 6.9 0.71 11.76
11/3/2021 7:15:00 PM 7.62 45.716 0.058 6.89 0.86 11.76
11/3/2021 7:30:00 PM 7.58 45.644 0.058 6.88 0.72 11.76
11/3/2021 7:45:00 PM 7.55 45.59 0.058 6.88 0.71 11.76
11/3/2021 8:00:00 PM 7.52 45.536 0.058 6.87 0.73 11.76
11/3/2021 8:15:00 PM 7.49 45.482 0.058 6.87 0.73 11.76
11/3/2021 8:30:00 PM 7.46 45.428 0.058 6.86 0.73 11.76
11/3/2021 8:45:00 PM 7.44 45.392 0.058 6.86 0.78 11.76
11/3/2021 9:00:00 PM 7.41 45.338 0.058 6.86 0.68 11.76
11/3/2021 9:15:00 PM 7.38 45.284 0.058 6.85 0.68 11.77
11/3/2021 9:30:00 PM 7.34 45.212 0.058 6.85 0.72 11.77
11/3/2021 9:45:00 PM 7.3 45.14 0.058 6.84 0.72 11.78
11/3/2021 10:00:00 PM 7.26 45.068 0.058 6.84 0.67 11.79
11/3/2021 10:15:00 PM 7.21 44.978 0.058 6.84 0.64 11.8
11/3/2021 10:30:00 PM 7.16 44.888 0.058 6.84 0.68 11.81
11/3/2021 10:45:00 PM 7.13 44.834 0.058 6.84 0.7 11.82
11/3/2021 11:00:00 PM 7.09 44.762 0.058 6.83 0.6 11.84
11/3/2021 11:15:00 PM 7.06 44.708 0.058 6.84 0.63 11.85
11/3/2021 11:30:00 PM 7.03 44.654 0.058 6.83 0.65 11.86
11/3/2021 11:45:00 PM 7 44.6 0.058 6.83 0.7 11.87
11/4/2021 12:00:00 AM 6.97 44.546 0.058 6.83 0.76 11.89
11/4/2021 12:15:00 AM 6.94 44.492 0.058 6.83 0.64 11.89
11/4/2021 12:30:00 AM 6.91 44.438 0.058 6.83 0.68 11.9
11/4/2021 12:45:00 AM 6.88 44.384 0.058 6.82 0.62 11.91
11/4/2021 1:00:00 AM 6.85 44.33 0.058 6.82 0.63 11.93
11/4/2021 1:15:00 AM 6.81 44.258 0.058 6.82 0.69 11.94
11/4/2021 1:30:00 AM 6.77 44.186 0.058 6.82 0.58 11.94
11/4/2021 1:45:00 AM 6.73 44.114 0.058 6.82 0.61 11.96
11/4/2021 2:00:00 AM 6.69 44.042 0.058 6.82 0.63 11.97
11/4/2021 2:15:00 AM 6.65 43.97 0.058 6.82 0.6 11.98
11/4/2021 2:30:00 AM 6.61 43.898 0.058 6.82 0.61 11.99
11/4/2021 2:45:00 AM 6.57 43.826 0.058 6.81 0.53 12
11/4/2021 3:00:00 AM 6.54 43.772 0.058 6.8 0.57 12.02
11/4/2021 3:15:00 AM 6.51 43.718 0.058 6.79 0.61 12.03
11/4/2021 3:30:00 AM 6.49 43.682 0.058 6.78 0.57 12.04
11/4/2021 3:45:00 AM 6.46 43.628 0.058 6.79 0.58 12.05
11/4/2021 4:00:00 AM 6.44 43.592 0.058 6.78 0.58 12.05
11/4/2021 4:15:00 AM 6.42 43.556 0.058 6.78 0.57 12.06
11/4/2021 4:30:00 AM 6.39 43.502 0.058 6.79 0.58 12.07
11/4/2021 4:45:00 AM 6.37 43.466 0.058 6.79 0.51 12.08
11/4/2021 5:00:00 AM 6.35 43.43 0.058 6.79 0.52 12.09
11/4/2021 5:15:00 AM 6.32 43.376 0.058 6.79 0.58 12.09
11/4/2021 5:30:00 AM 6.3 43.34 0.058 6.79 0.53 12.1
11/4/2021 5:45:00 AM 6.27 43.286 0.058 6.79 0.53 12.11
11/4/2021 6:00:00 AM 6.24 43.232 0.058 6.8 0.53 12.12
11/4/2021 6:15:00 AM 6.22 43.196 0.058 6.8 0.46 12.14
11/4/2021 6:30:00 AM 6.2 43.16 0.059 6.81 0.5 12.14
11/4/2021 6:45:00 AM 6.17 43.106 0.058 6.81 0.53 12.15
11/4/2021 7:00:00 AM 6.15 43.07 0.058 6.81 0.53 12.16
11/4/2021 7:15:00 AM 6.12 43.016 0.059 6.81 0.52 12.17
11/4/2021 7:30:00 AM 6.09 42.962 0.058 6.81 0.54 12.18
11/4/2021 7:45:00 AM 6.06 42.908 0.059 6.81 0.58 12.19
11/4/2021 8:00:00 AM 6.04 42.872 0.058 6.81 0.64 12.22
11/4/2021 8:15:00 AM 6.02 42.836 0.058 6.82 0.55 12.24
11/4/2021 8:30:00 AM 6 42.8 0.058 6.83 0.49 12.28
11/4/2021 8:45:00 AM 5.98 42.764 0.058 6.84 0.46 12.34
11/4/2021 9:00:00 AM 5.97 42.746 0.058 6.85 0.52 12.39
11/4/2021 9:15:00 AM 5.96 42.728 0.058 6.86 0.43 12.45
11/4/2021 9:30:00 AM 5.95 42.71 0.058 6.88 0.42 12.51
11/4/2021 9:45:00 AM 5.97 42.746 0.057 6.89 0.37 12.56
11/4/2021 10:00:00 AM 5.93 42.674 0.058 6.9 0.47 12.59
11/4/2021 10:15:00 AM 5.95 42.71 0.057 6.91 0.35 12.62
11/4/2021 10:30:00 AM 5.96 42.728 0.057 6.92 0.35 12.62
11/4/2021 10:45:00 AM 5.96 42.728 0.058 6.93 0.41 12.64
11/4/2021 11:00:00 AM 5.98 42.764 0.058 6.94 0.32 12.64
11/4/2021 11:15:00 AM 6.01 42.818 0.058 6.94 0.32 12.65
11/4/2021 11:30:00 AM 6.05 42.89 0.058 6.95 0.27 12.65
11/4/2021 11:45:00 AM 6.09 42.962 0.058 6.96 0.37 12.66
11/4/2021 12:00:00 PM 6.12 43.016 0.058 6.97 0.27 12.67
11/4/2021 12:15:00 PM 6.18 43.124 0.058 6.98 0.27 12.69
11/4/2021 12:30:00 PM 6.21 43.178 0.058 6.99 0.24 12.7
11/4/2021 12:45:00 PM 6.24 43.232 0.058 7 0.34 12.68
11/4/2021 1:00:00 PM 6.29 43.322 0.058 7 0.29 12.68
11/4/2021 1:15:00 PM 6.42 43.556 0.057 7.01 0.28 12.68
11/4/2021 1:30:00 PM 6.49 43.682 0.057 7.03 0.3 12.67
11/4/2021 1:45:00 PM 6.57 43.826 0.057 7.03 0.27 12.65
11/4/2021 2:00:00 PM 6.62 43.916 0.057 7.04 0.3 12.63
11/4/2021 2:15:00 PM 6.68 44.024 0.057 7.04 0.29 12.62
11/4/2021 2:30:00 PM 6.73 44.114 0.057 7.05 0.26 12.61
11/4/2021 2:45:00 PM 6.78 44.204 0.058 7.05 0.27 12.6
11/4/2021 3:00:00 PM 6.85 44.33 0.057 7.06 0.25 12.59
11/4/2021 3:15:00 PM 6.9 44.42 0.057 7.06 0.24 12.57
11/4/2021 3:30:00 PM 6.92 44.456 0.057 7.07 0.33 12.55
11/4/2021 3:45:00 PM 6.97 44.546 0.058 7.07 0.25 12.53
11/4/2021 4:00:00 PM 7.03 44.654 0.057 7.07 0.31 12.51
11/4/2021 4:15:00 PM 7.03 44.654 0.057 7.07 0.41 12.48
11/4/2021 4:30:00 PM 7.06 44.708 0.058 7.07 0.24 12.45
11/4/2021 4:45:00 PM 7.08 44.744 0.058 7.07 0.29 12.42
11/4/2021 5:00:00 PM 7.09 44.762 0.058 7.07 0.35 12.39
11/4/2021 5:15:00 PM 7.07 44.726 0.058 7.05 0.31 12.34
11/4/2021 5:30:00 PM 7.05 44.69 0.058 7.04 0.34 12.3
11/4/2021 5:45:00 PM 7.02 44.636 0.058 7.02 0.36 12.25
11/4/2021 6:00:00 PM 6.97 44.546 0.058 7.01 0.32 12.2
11/4/2021 6:15:00 PM 6.92 44.456 0.058 7 0.35 12.16
11/4/2021 6:30:00 PM 6.87 44.366 0.059 6.98 0.47 12.13
11/4/2021 6:45:00 PM 6.82 44.276 0.059 6.97 0.45 12.1
11/4/2021 7:00:00 PM 6.77 44.186 0.059 6.96 0.42 12.08
11/4/2021 7:15:00 PM 6.73 44.114 0.059 6.95 0.38 12.07
11/4/2021 7:30:00 PM 6.68 44.024 0.059 6.94 0.54 12.06
11/4/2021 7:45:00 PM 6.63 43.934 0.059 6.93 0.42 12.06
11/4/2021 8:00:00 PM 6.59 43.862 0.059 6.92 0.49 12.06
11/4/2021 8:15:00 PM 6.56 43.808 0.059 6.92 0.49 12.05
11/4/2021 8:30:00 PM 6.53 43.754 0.059 6.91 0.41 12.05
11/4/2021 8:45:00 PM 6.5 43.7 0.059 6.91 0.51 12.05
11/4/2021 9:00:00 PM 6.48 43.664 0.059 6.9 0.48 12.06
11/4/2021 9:15:00 PM 6.45 43.61 0.059 6.9 0.42 12.06
11/4/2021 9:30:00 PM 6.42 43.556 0.059 6.9 0.39 12.06
11/4/2021 9:45:00 PM 6.39 43.502 0.059 6.89 0.44 12.07
11/4/2021 10:00:00 PM 6.36 43.448 0.059 6.89 0.38 12.07
11/4/2021 10:15:00 PM 6.33 43.394 0.059 6.89 0.39 12.08
11/4/2021 10:30:00 PM 6.3 43.34 0.059 6.88 0.41 12.09
11/4/2021 10:45:00 PM 6.26 43.268 0.059 6.88 0.37 12.1
11/4/2021 11:00:00 PM 6.21 43.178 0.059 6.88 0.42 12.11
11/4/2021 11:15:00 PM 6.17 43.106 0.059 6.88 0.4 12.11
11/4/2021 11:30:00 PM 6.13 43.034 0.059 6.87 0.34 12.14
11/4/2021 11:45:00 PM 6.09 42.962 0.059 6.87 0.4 12.13
11/5/2021 12:00:00 AM 6.05 42.89 0.059 6.87 0.4 12.15
11/5/2021 12:15:00 AM 6 42.8 0.059 6.87 0.36 12.16
11/5/2021 12:30:00 AM 5.96 42.728 0.059 6.87 0.38 12.18
11/5/2021 12:45:00 AM 5.92 42.656 0.059 6.87 0.34 12.2
11/5/2021 1:00:00 AM 5.88 42.584 0.059 6.87 0.47 12.21
11/5/2021 1:15:00 AM 5.83 42.494 0.059 6.86 0.38 12.23
11/5/2021 1:30:00 AM 5.79 42.422 0.059 6.86 0.36 12.23
11/5/2021 1:45:00 AM 5.75 42.35 0.059 6.86 0.31 12.25
11/5/2021 2:00:00 AM 5.71 42.278 0.059 6.86 0.41 12.26
11/5/2021 2:15:00 AM 5.67 42.206 0.059 6.85 0.42 12.28
11/5/2021 2:30:00 AM 5.63 42.134 0.059 6.84 0.34 12.28
11/5/2021 2:45:00 AM 5.59 42.062 0.059 6.84 0.4 12.3
11/5/2021 3:00:00 AM 5.55 41.99 0.059 6.83 0.75 12.31
11/5/2021 3:15:00 AM 5.51 41.918 0.06 6.83 0.32 12.32
11/5/2021 3:30:00 AM 5.47 41.846 0.06 6.82 0.35 12.33
11/5/2021 3:45:00 AM 5.43 41.774 0.059 6.82 0.43 12.35
11/5/2021 4:00:00 AM 5.38 41.684 0.059 6.82 0.37 12.36
11/5/2021 4:15:00 AM 5.34 41.612 0.059 6.82 0.39 12.38
11/5/2021 4:30:00 AM 5.3 41.54 0.059 6.81 0.29 12.4
11/5/2021 4:45:00 AM 5.26 41.468 0.059 6.81 0.29 12.41
11/5/2021 5:00:00 AM 5.23 41.414 0.059 6.81 0.31 12.43
11/5/2021 5:15:00 AM 5.2 41.36 0.059 6.81 0.34 12.44
11/5/2021 5:30:00 AM 5.18 41.324 0.059 6.81 0.34 12.45
11/5/2021 5:45:00 AM 5.15 41.27 0.059 6.81 0.34 12.47
11/5/2021 6:00:00 AM 5.12 41.216 0.059 6.81 0.27 12.48
11/5/2021 6:15:00 AM 5.09 41.162 0.059 6.82 0.33 12.49
11/5/2021 6:30:00 AM 5.05 41.09 0.059 6.81 0.26 12.5
11/5/2021 6:45:00 AM 5.02 41.036 0.059 6.82 0.26 12.52
11/5/2021 7:00:00 AM 4.99 40.982 0.06 6.82 0.4 12.53
11/5/2021 7:15:00 AM 4.95 40.91 0.06 6.82 0.27 12.54
11/5/2021 7:30:00 AM 4.91 40.838 0.06 6.82 0.3 12.57
11/5/2021 7:45:00 AM 4.88 40.784 0.06 6.82 0.34 12.58
11/5/2021 8:00:00 AM 4.85 40.73 0.06 6.82 0.3 12.61
11/5/2021 8:15:00 AM 4.82 40.676 0.06 6.82 0.33 12.65
11/5/2021 8:30:00 AM 4.79 40.622 0.06 6.83 0.32 12.69
11/5/2021 8:45:00 AM 4.77 40.586 0.06 6.84 0.37 12.76
11/5/2021 9:00:00 AM 4.74 40.532 0.059 6.86 0.32 12.83
11/5/2021 9:15:00 AM 4.7 40.46 0.059 6.86 0.28 12.88
11/5/2021 9:30:00 AM 4.67 40.406 0.059 6.87 0.25 12.93
11/5/2021 9:45:00 AM 4.65 40.37 0.059 6.88 0.24 12.97
11/5/2021 10:00:00 AM 4.64 40.352 0.059 6.89 0.21 13
11/5/2021 10:15:00 AM 4.62 40.316 0.059 6.89 0.2 13.04
11/5/2021 10:30:00 AM 4.62 40.316 0.059 6.9 0.24 13.06
11/5/2021 10:45:00 AM 4.62 40.316 0.059 6.91 0.16 13.09
11/5/2021 11:00:00 AM 4.64 40.352 0.059 6.92 0.17 13.1
11/5/2021 11:15:00 AM 4.67 40.406 0.059 6.92 0.2 13.12
11/5/2021 11:30:00 AM 4.72 40.496 0.059 6.93 0.2 13.13
11/5/2021 11:45:00 AM 4.76 40.568 0.059 6.94 0.15 13.13
11/5/2021 12:00:00 PM 4.82 40.676 0.059 6.95 0.17 13.14
11/5/2021 12:15:00 PM 4.88 40.784 0.059 6.96 0.15 13.14
11/5/2021 12:30:00 PM 4.97 40.946 0.059 6.97 0.11 13.14
11/5/2021 12:45:00 PM 5.07 41.126 0.059 6.98 0.15 13.13
11/5/2021 1:00:00 PM 5.16 41.288 0.059 6.99 0.14 13.12
11/5/2021 1:15:00 PM 5.24 41.432 0.059 7 0.13 13.1
11/5/2021 1:30:00 PM 5.31 41.558 0.059 7.01 0.19 13.06
11/5/2021 1:45:00 PM 5.4 41.72 0.059 7.01 0.13 13.04
11/5/2021 2:00:00 PM 5.51 41.918 0.059 7.02 0.12 13.01
11/5/2021 2:15:00 PM 5.59 42.062 0.059 7.02 0.07 12.97
11/5/2021 2:30:00 PM 5.65 42.17 0.059 7.03 0.15 12.95
11/5/2021 2:45:00 PM 5.71 42.278 0.059 7.04 0.13 12.93
11/5/2021 3:00:00 PM 5.75 42.35 0.059 7.04 0.1 12.9
11/5/2021 3:15:00 PM 5.81 42.458 0.059 7.04 0.11 12.87
11/5/2021 3:30:00 PM 5.88 42.584 0.059 7.04 0.1 12.83
11/5/2021 3:45:00 PM 5.95 42.71 0.059 7.05 0.12 12.78
11/5/2021 4:00:00 PM 6.02 42.836 0.059 7.05 0.15 12.75
11/5/2021 4:15:00 PM 6.08 42.944 0.059 7.05 0.19 12.71
11/5/2021 4:30:00 PM 6.12 43.016 0.059 7.05 0.17 12.67
11/5/2021 4:45:00 PM 6.15 43.07 0.059 7.05 0.15 12.64
11/5/2021 5:00:00 PM 6.19 43.142 0.059 7.04 0.15 12.6
11/5/2021 5:15:00 PM 6.22 43.196 0.059 7.04 0.19 12.56
11/5/2021 5:30:00 PM 6.25 43.25 0.059 7.03 0.17 12.52
11/5/2021 5:45:00 PM 6.27 43.286 0.059 7.02 0.21 12.46
11/5/2021 6:00:00 PM 6.28 43.304 0.059 7.01 0.19 12.41
11/5/2021 6:15:00 PM 6.26 43.268 0.059 7 0.26 12.36
11/5/2021 6:30:00 PM 6.23 43.214 0.059 6.99 0.24 12.33
11/5/2021 6:45:00 PM 6.18 43.124 0.06 6.97 0.28 12.31
11/5/2021 7:00:00 PM 6.12 43.016 0.06 6.97 0.26 12.3
11/5/2021 7:15:00 PM 6.06 42.908 0.06 6.96 0.25 12.29
11/5/2021 7:30:00 PM 5.99 42.782 0.06 6.95 0.36 12.29
11/5/2021 7:45:00 PM 5.91 42.638 0.06 6.94 0.39 12.3
11/5/2021 8:00:00 PM 5.84 42.512 0.06 6.93 0.29 12.32
11/5/2021 8:15:00 PM 5.76 42.368 0.06 6.93 0.34 12.33
11/5/2021 8:30:00 PM 5.69 42.242 0.06 6.93 0.33 12.35
11/5/2021 8:45:00 PM 5.62 42.116 0.06 6.92 0.33 12.36
11/5/2021 9:00:00 PM 5.55 41.99 0.06 6.92 0.35 12.38
11/5/2021 9:15:00 PM 5.48 41.864 0.061 6.91 0.31 12.39
11/5/2021 9:30:00 PM 5.42 41.756 0.061 6.91 0.31 12.41
11/5/2021 9:45:00 PM 5.36 41.648 0.06 6.9 0.34 12.42
11/5/2021 10:00:00 PM 5.3 41.54 0.06 6.9 0.32 12.44
11/5/2021 10:15:00 PM 5.24 41.432 0.06 6.9 0.29 12.46
11/5/2021 10:30:00 PM 5.18 41.324 0.06 6.9 0.32 12.47
11/5/2021 10:45:00 PM 5.13 41.234 0.061 6.89 0.41 12.5
11/5/2021 11:00:00 PM 5.07 41.126 0.06 6.89 0.34 12.51
11/5/2021 11:15:00 PM 5.02 41.036 0.06 6.89 0.32 12.54
11/5/2021 11:30:00 PM 4.96 40.928 0.061 6.89 0.31 12.56
11/5/2021 11:45:00 PM 4.91 40.838 0.061 6.88 0.34 12.57
11/6/2021 12:00:00 AM 4.86 40.748 0.061 6.88 0.32 12.59
11/6/2021 12:15:00 AM 4.82 40.676 0.061 6.88 0.26 12.61
11/6/2021 12:30:00 AM 4.77 40.586 0.061 6.88 0.23 12.61
11/6/2021 12:45:00 AM 4.73 40.514 0.061 6.88 0.27 12.63
11/6/2021 1:00:00 AM 4.68 40.424 0.061 6.87 0.27 12.64
11/6/2021 1:15:00 AM 4.63 40.334 0.061 6.87 0.25 12.66
11/6/2021 1:30:00 AM 4.59 40.262 0.061 6.87 0.28 12.67
11/6/2021 1:45:00 AM 4.54 40.172 0.061 6.85 0.22 12.69
11/6/2021 2:00:00 AM 4.5 40.1 0.061 6.85 0.27 12.71
11/6/2021 2:15:00 AM 4.45 40.01 0.061 6.85 0.31 12.73
11/6/2021 2:30:00 AM 4.4 39.92 0.061 6.84 0.24 12.75
11/6/2021 2:45:00 AM 4.35 39.83 0.061 6.84 0.21 12.77
11/6/2021 3:00:00 AM 4.31 39.758 0.061 6.84 0.19 12.79
11/6/2021 3:15:00 AM 4.26 39.668 0.061 6.84 0.23 12.8
11/6/2021 3:30:00 AM 4.21 39.578 0.061 6.83 0.24 12.82
11/6/2021 3:45:00 AM 4.16 39.488 0.061 6.83 0.25 12.84
11/6/2021 4:00:00 AM 4.11 39.398 0.061 6.83 0.27 12.85
11/6/2021 4:15:00 AM 4.06 39.308 0.061 6.83 0.17 12.87
11/6/2021 4:30:00 AM 4.01 39.218 0.061 6.82 0.2 12.89
11/6/2021 4:45:00 AM 3.97 39.146 0.061 6.82 0.22 12.9
11/6/2021 5:00:00 AM 3.92 39.056 0.061 6.82 0.2 12.92
11/6/2021 5:15:00 AM 3.87 38.966 0.061 6.82 0.19 12.94
11/6/2021 5:30:00 AM 3.83 38.894 0.061 6.82 0.13 12.96
11/6/2021 5:45:00 AM 3.78 38.804 0.061 6.82 0.19 12.97
11/6/2021 6:00:00 AM 3.74 38.732 0.061 6.82 0.18 13
11/6/2021 6:15:00 AM 3.7 38.66 0.061 6.82 0.17 13.02
11/6/2021 6:30:00 AM 3.65 38.57 0.061 6.82 0.18 13.04
11/6/2021 6:45:00 AM 3.61 38.498 0.061 6.81 0.15 13.05
11/6/2021 7:00:00 AM 3.57 38.426 0.061 6.82 0.15 13.07
11/6/2021 7:15:00 AM 3.53 38.354 0.061 6.81 0.3 13.08
11/6/2021 7:30:00 AM 3.49 38.282 0.061 6.82 0.25 13.08
11/6/2021 7:45:00 AM 3.44 38.192 0.062 6.82 0.17 13.11
11/6/2021 8:00:00 AM 3.4 38.12 0.061 6.82 0.5 13.13
11/6/2021 8:15:00 AM 3.37 38.066 0.061 6.82 0.26 13.17
11/6/2021 8:30:00 AM 3.34 38.012 0.061 6.83 0.24 13.22
11/6/2021 8:45:00 AM 3.31 37.958 0.061 6.84 0.14 13.27
11/6/2021 9:00:00 AM 3.28 37.904 0.061 6.85 0.1 13.31
11/6/2021 9:15:00 AM 3.27 37.886 0.061 6.86 0.14 13.35
11/6/2021 9:30:00 AM 3.26 37.868 0.061 6.87 0.11 13.4
11/6/2021 9:45:00 AM 3.25 37.85 0.062 6.88 0.04 13.43
11/6/2021 10:00:00 AM 3.26 37.868 0.061 6.89 0.1 13.46
11/6/2021 10:15:00 AM 3.26 37.868 0.061 6.89 0.07 13.49
11/6/2021 10:30:00 AM 3.28 37.904 0.061 6.9 0.09 13.52
11/6/2021 10:45:00 AM 3.31 37.958 0.061 6.91 0.09 13.53
11/6/2021 11:00:00 AM 3.35 38.03 0.061 6.92 0.09 13.54
11/6/2021 11:15:00 AM 3.4 38.12 0.061 6.93 0.12 13.56
11/6/2021 11:30:00 AM 3.46 38.228 0.061 6.94 0.07 13.56
11/6/2021 11:45:00 AM 3.53 38.354 0.061 6.95 0.08 13.55
11/6/2021 12:00:00 PM 3.59 38.462 0.061 6.95 0.08 13.54
11/6/2021 12:15:00 PM 3.66 38.588 0.061 6.96 0.05 13.54
11/6/2021 12:30:00 PM 3.74 38.732 0.061 6.97 0.02 13.53
11/6/2021 12:45:00 PM 3.82 38.876 0.061 6.97 0.03 13.51
11/6/2021 1:00:00 PM 3.92 39.056 0.061 6.98 0.04 13.49
11/6/2021 1:15:00 PM 4.02 39.236 0.061 6.99 0.03 13.46
11/6/2021 1:30:00 PM 4.11 39.398 0.061 7 0.03 13.44
11/6/2021 1:45:00 PM 4.21 39.578 0.061 7 0.04 13.41
11/6/2021 2:00:00 PM 4.31 39.758 0.061 7.01 0.06 13.38
11/6/2021 2:15:00 PM 4.42 39.956 0.061 7.02 0.07 13.34
11/6/2021 2:30:00 PM 4.52 40.136 0.061 7.02 0.06 13.29
11/6/2021 2:45:00 PM 4.61 40.298 0.061 7.03 0.02 13.25
11/6/2021 3:00:00 PM 4.71 40.478 0.06 7.03 0.07 13.2
11/6/2021 3:15:00 PM 4.79 40.622 0.06 7.03 0.07 13.17
11/6/2021 3:30:00 PM 4.88 40.784 0.061 7.04 0.06 13.13
11/6/2021 3:45:00 PM 4.96 40.928 0.061 7.04 0.1 13.09
11/6/2021 4:00:00 PM 5.04 41.072 0.061 7.04 0.08 13.06
11/6/2021 4:15:00 PM 5.1 41.18 0.06 7.04 0.03 13.02
11/6/2021 4:30:00 PM 5.17 41.306 0.06 7.04 0.08 12.98
11/6/2021 4:45:00 PM 5.23 41.414 0.06 7.04 0.1 12.94
11/6/2021 5:00:00 PM 5.28 41.504 0.061 7.04 0.07 12.89
11/6/2021 5:15:00 PM 5.32 41.576 0.061 7.04 0.07 12.84
11/6/2021 5:30:00 PM 5.36 41.648 0.06 7.03 0.13 12.78
11/6/2021 5:45:00 PM 5.39 41.702 0.061 7.02 0.09 12.72
11/6/2021 6:00:00 PM 5.4 41.72 0.061 7.01 0.12 12.67
11/6/2021 6:15:00 PM 5.4 41.72 0.061 7 0.11 12.62
11/6/2021 6:30:00 PM 5.38 41.684 0.061 6.99 0.14 12.58
11/6/2021 6:45:00 PM 5.34 41.612 0.061 6.98 0.15 12.55
11/6/2021 7:00:00 PM 5.3 41.54 0.061 6.97 0.18 12.54
11/6/2021 7:15:00 PM 5.24 41.432 0.061 6.97 0.25 12.53
11/6/2021 7:30:00 PM 5.19 41.342 0.061 6.96 0.21 12.53
11/6/2021 7:45:00 PM 5.12 41.216 0.062 6.95 0.17 12.54
11/6/2021 8:00:00 PM 5.06 41.108 0.062 6.95 0.15 12.55
11/6/2021 8:15:00 PM 4.99 40.982 0.062 6.94 0.13 12.56
11/6/2021 8:30:00 PM 4.92 40.856 0.062 6.94 0.22 12.58
11/6/2021 8:45:00 PM 4.86 40.748 0.062 6.93 0.21 12.58
11/6/2021 9:00:00 PM 4.8 40.64 0.062 6.93 0.22 12.6
11/6/2021 9:15:00 PM 4.74 40.532 0.062 6.92 0.16 12.61
11/6/2021 9:30:00 PM 4.69 40.442 0.062 6.92 0.15 12.62
11/6/2021 9:45:00 PM 4.63 40.334 0.062 6.92 0.18 12.63
11/6/2021 10:00:00 PM 4.58 40.244 0.062 6.92 0.15 12.65
11/6/2021 10:15:00 PM 4.53 40.154 0.062 6.91 0.14 12.67
11/6/2021 10:30:00 PM 4.48 40.064 0.062 6.91 0.21 12.68
11/6/2021 10:45:00 PM 4.43 39.974 0.062 6.91 0.17 12.7
11/6/2021 11:00:00 PM 4.39 39.902 0.063 6.9 0.21 12.71
11/6/2021 11:15:00 PM 4.34 39.812 0.063 6.9 0.16 12.73
11/6/2021 11:30:00 PM 4.29 39.722 0.063 6.9 0.14 12.75
11/6/2021 11:45:00 PM 4.25 39.65 0.063 6.89 0.18 12.76
11/7/2021 12:00:00 AM 4.2 39.56 0.063 6.89 0.17 12.78
11/7/2021 12:15:00 AM 4.16 39.488 0.063 6.89 0.14 12.79
11/7/2021 12:30:00 AM 4.11 39.398 0.063 6.89 0.19 12.81
11/7/2021 12:45:00 AM 4.07 39.326 0.062 6.89 0.18 12.83
11/7/2021 1:00:00 AM 4.03 39.254 0.063 6.89 0.13 12.83
11/7/2021 1:15:00 AM 3.99 39.182 0.063 6.88 0.11 12.84
11/7/2021 1:30:00 AM 3.95 39.11 0.063 6.88 0.11 12.86
11/7/2021 1:45:00 AM 3.91 39.038 0.062 6.88 0.11 12.87
11/7/2021 2:00:00 AM 3.88 38.984 0.063 6.88 0.14 12.88
11/7/2021 2:15:00 AM 3.84 38.912 0.063 6.88 0.08 12.89
11/7/2021 2:30:00 AM 3.8 38.84 0.063 6.88 0.1 12.91
11/7/2021 2:45:00 AM 3.76 38.768 0.063 6.88 0.08 12.92
11/7/2021 3:00:00 AM 3.72 38.696 0.063 6.88 0.07 12.94
11/7/2021 3:15:00 AM 3.68 38.624 0.063 6.87 0.05 12.94
11/7/2021 3:30:00 AM 3.64 38.552 0.063 6.87 0.11 12.97
11/7/2021 3:45:00 AM 3.6 38.48 0.063 6.87 0.08 12.99
11/7/2021 4:00:00 AM 3.55 38.39 0.063 6.87 0.07 13
11/7/2021 4:15:00 AM 3.51 38.318 0.063 6.87 0.05 13.02
11/7/2021 4:30:00 AM 3.47 38.246 0.063 6.87 0.1 13.03
11/7/2021 4:45:00 AM 3.43 38.174 0.063 6.87 0.08 13.05
11/7/2021 5:00:00 AM 3.39 38.102 0.063 6.87 0.14 13.06
11/7/2021 5:15:00 AM 3.35 38.03 0.063 6.87 0.08 13.08
11/7/2021 5:30:00 AM 3.3 37.94 0.063 6.87 0.13 13.1
11/7/2021 5:45:00 AM 3.26 37.868 0.063 6.87 0.09 13.11
11/7/2021 6:00:00 AM 3.22 37.796 0.063 6.87 0.08 13.12
11/7/2021 6:15:00 AM 3.18 37.724 0.063 6.86 0.11 13.14
11/7/2021 6:30:00 AM 3.14 37.652 0.063 6.86 0.11 13.15
11/7/2021 6:45:00 AM 3.1 37.58 0.063 6.84 0.1 13.16
11/7/2021 7:00:00 AM 3.06 37.508 0.063 6.84 0.09 13.18
11/7/2021 7:15:00 AM 3.02 37.436 0.063 6.84 0.13 13.19
11/7/2021 7:30:00 AM 2.99 37.382 0.063 6.84 0.1 13.21
11/7/2021 7:45:00 AM 2.95 37.31 0.063 6.83 0.16 13.23
11/7/2021 8:00:00 AM 2.92 37.256 0.063 6.83 0.12 13.26
11/7/2021 8:15:00 AM 2.89 37.202 0.063 6.84 0.11 13.3
11/7/2021 8:30:00 AM 2.86 37.148 0.063 6.84 0.1 13.34
11/7/2021 8:45:00 AM 2.83 37.094 0.063 6.85 0.1 13.39
11/7/2021 9:00:00 AM 2.81 37.058 0.063 6.86 0.1 13.44
11/7/2021 9:15:00 AM 2.81 37.058 0.063 6.86 0.05 13.49
11/7/2021 9:30:00 AM 2.81 37.058 0.063 6.87 -0.01 13.53
11/7/2021 9:45:00 AM 2.81 37.058 0.062 6.88 -0.02 13.56
11/7/2021 10:00:00 AM 2.81 37.058 0.063 6.89 0.01 13.59
11/7/2021 10:15:00 AM 2.82 37.076 0.063 6.9 0.02 13.62
11/7/2021 10:30:00 AM 2.85 37.13 0.062 6.91 0.03 13.64
11/7/2021 10:45:00 AM 2.88 37.184 0.063 6.92 0 13.65
11/7/2021 11:00:00 AM 2.93 37.274 0.063 6.93 -0.01 13.66
11/7/2021 11:15:00 AM 2.98 37.364 0.062 6.94 -0.01 13.67
11/7/2021 11:30:00 AM 3.05 37.49 0.063 6.94 -0.01 13.67
11/7/2021 11:45:00 AM 3.12 37.616 0.063 6.95 -0.03 13.66
11/7/2021 12:00:00 PM 3.2 37.76 0.062 6.96 -0.01 13.66
11/7/2021 12:15:00 PM 3.27 37.886 0.062 6.97 0.01 13.64
11/7/2021 12:30:00 PM 3.35 38.03 0.062 6.97 -0.04 13.62
11/7/2021 12:45:00 PM 3.44 38.192 0.062 6.98 -0.03 13.61
11/7/2021 1:00:00 PM 3.53 38.354 0.062 6.99 0 13.58
11/7/2021 1:15:00 PM 3.63 38.534 0.062 6.99 -0.05 13.55
11/7/2021 1:30:00 PM 3.74 38.732 0.062 7 -0.04 13.53
11/7/2021 1:45:00 PM 3.84 38.912 0.062 7 -0.04 13.49
11/7/2021 2:00:00 PM 3.95 39.11 0.062 7.01 -0.01 13.46
11/7/2021 2:15:00 PM 4.06 39.308 0.062 7.01 -0.04 13.43
11/7/2021 2:30:00 PM 4.17 39.506 0.062 7.02 -0.01 13.39
11/7/2021 2:45:00 PM 4.28 39.704 0.062 7.03 -0.03 13.35
11/7/2021 3:00:00 PM 4.38 39.884 0.062 7.03 -0.08 13.3
11/7/2021 3:15:00 PM 4.48 40.064 0.062 7.03 -0.05 13.26
11/7/2021 3:30:00 PM 4.58 40.244 0.061 7.04 -0.05 13.21
11/7/2021 3:45:00 PM 4.67 40.406 0.061 7.04 -0.06 13.16
11/7/2021 4:00:00 PM 4.76 40.568 0.062 7.05 -0.02 13.12
11/7/2021 4:15:00 PM 4.85 40.73 0.062 7.05 -0.06 13.08
11/7/2021 4:30:00 PM 4.92 40.856 0.062 7.05 -0.02 13.04
11/7/2021 4:45:00 PM 5 41 0.062 7.05 0.02 12.99
11/7/2021 5:00:00 PM 5.06 41.108 0.062 7.05 0 12.94
11/7/2021 5:15:00 PM 5.12 41.216 0.062 7.04 0 12.88
11/7/2021 5:30:00 PM 5.18 41.324 0.062 7.03 -0.04 12.82
11/7/2021 5:45:00 PM 5.23 41.414 0.062 7.02 0.04 12.75
11/7/2021 6:00:00 PM 5.27 41.486 0.062 7.02 -0.04 12.68
11/7/2021 6:15:00 PM 5.29 41.522 0.062 7 0.02 12.62
11/7/2021 6:30:00 PM 5.29 41.522 0.062 6.99 -0.02 12.58
11/7/2021 6:45:00 PM 5.28 41.504 0.062 6.98 0.08 12.54
11/7/2021 7:00:00 PM 5.27 41.486 0.063 6.97 0.09 12.52
11/7/2021 7:15:00 PM 5.24 41.432 0.062 6.97 0.08 12.5
11/7/2021 7:30:00 PM 5.21 41.378 0.063 6.96 0.08 12.49
11/7/2021 7:45:00 PM 5.17 41.306 0.063 6.96 0.15 12.49
11/7/2021 8:00:00 PM 5.12 41.216 0.063 6.95 0.14 12.49
11/7/2021 8:15:00 PM 5.07 41.126 0.063 6.94 0.12 12.5
11/7/2021 8:30:00 PM 5.03 41.054 0.063 6.94 0.2 12.51
11/7/2021 8:45:00 PM 4.98 40.964 0.063 6.94 0.09 12.53
11/7/2021 9:00:00 PM 4.93 40.874 0.064 6.93 0.15 12.54
11/7/2021 9:15:00 PM 4.88 40.784 0.063 6.93 0.13 12.55
11/7/2021 9:30:00 PM 4.84 40.712 0.064 6.93 0.06 12.56
11/7/2021 9:45:00 PM 4.79 40.622 0.063 6.92 0.12 12.57
11/7/2021 10:00:00 PM 4.76 40.568 0.063 6.92 0.12 12.58
11/7/2021 10:15:00 PM 4.72 40.496 0.063 6.92 0.13 12.59
11/7/2021 10:30:00 PM 4.68 40.424 0.063 6.92 0.1 12.6
11/7/2021 10:45:00 PM 4.64 40.352 0.063 6.91 0.11 12.61
11/7/2021 11:00:00 PM 4.61 40.298 0.064 6.91 0.11 12.62
11/7/2021 11:15:00 PM 4.57 40.226 0.063 6.91 0.17 12.63
11/7/2021 11:30:00 PM 4.53 40.154 0.064 6.9 0.13 12.64
11/7/2021 11:45:00 PM 4.5 40.1 0.063 6.9 0.11 12.65
11/8/2021 12:00:00 AM 4.46 40.028 0.063 6.9 0.09 12.67
11/8/2021 12:15:00 AM 4.43 39.974 0.064 6.9 0.11 12.67
11/8/2021 12:30:00 AM 4.39 39.902 0.064 6.9 0.07 12.69
11/8/2021 12:45:00 AM 4.36 39.848 0.064 6.9 0.05 12.7
11/8/2021 1:00:00 AM 4.33 39.794 0.064 6.9 0.05 12.71
11/8/2021 1:15:00 AM 4.3 39.74 0.064 6.89 0.07 12.72
11/8/2021 1:30:00 AM 4.27 39.686 0.064 6.89 0.1 12.74
11/8/2021 1:45:00 AM 4.24 39.632 0.064 6.89 0.09 12.74
11/8/2021 2:00:00 AM 4.22 39.596 0.064 6.89 0.08 12.76
11/8/2021 2:15:00 AM 4.19 39.542 0.064 6.89 0.08 12.77
11/8/2021 2:30:00 AM 4.16 39.488 0.064 6.89 0.15 12.78
11/8/2021 2:45:00 AM 4.13 39.434 0.064 6.89 0.09 12.79
11/8/2021 3:00:00 AM 4.11 39.398 0.064 6.89 0.1 12.8
11/8/2021 3:15:00 AM 4.08 39.344 0.064 6.89 0.14 12.81
11/8/2021 3:30:00 AM 4.05 39.29 0.064 6.88 0.09 12.82
11/8/2021 3:45:00 AM 4.02 39.236 0.064 6.88 0.14 12.83
11/8/2021 4:00:00 AM 3.98 39.164 0.064 6.88 0.12 12.85
11/8/2021 4:15:00 AM 3.95 39.11 0.064 6.88 0.13 12.86
11/8/2021 4:30:00 AM 3.92 39.056 0.064 6.88 0.15 12.87
11/8/2021 4:45:00 AM 3.89 39.002 0.064 6.88 0.18 12.88
11/8/2021 5:00:00 AM 3.86 38.948 0.064 6.88 0.13 12.88
11/8/2021 5:15:00 AM 3.83 38.894 0.064 6.88 0.12 12.89
11/8/2021 5:30:00 AM 3.8 38.84 0.064 6.88 0.12 12.91
11/8/2021 5:45:00 AM 3.76 38.768 0.064 6.88 0.11 12.91
11/8/2021 6:00:00 AM 3.73 38.714 0.064 6.87 0.13 12.93
11/8/2021 6:15:00 AM 3.71 38.678 0.064 6.87 0.09 12.93
11/8/2021 6:30:00 AM 3.68 38.624 0.064 6.87 0.11 12.95
11/8/2021 6:45:00 AM 3.65 38.57 0.064 6.87 0.08 12.97
11/8/2021 7:00:00 AM 3.62 38.516 0.064 6.87 0.13 12.98
11/8/2021 7:15:00 AM 3.59 38.462 0.064 6.87 0.09 12.99
11/8/2021 7:30:00 AM 3.56 38.408 0.064 6.87 0.08 13
11/8/2021 7:45:00 AM 3.53 38.354 0.064 6.87 0.12 13.02
11/8/2021 8:00:00 AM 3.5 38.3 0.064 6.87 0.21 13.05
11/8/2021 8:15:00 AM 3.48 38.264 0.064 6.87 0.12 13.09
11/8/2021 8:30:00 AM 3.46 38.228 0.064 6.88 0.13 13.13
11/8/2021 8:45:00 AM 3.45 38.21 0.064 6.89 0.06 13.18
11/8/2021 9:00:00 AM 3.44 38.192 0.064 6.89 0.04 13.23
11/8/2021 9:15:00 AM 3.43 38.174 0.064 6.9 0 13.27
11/8/2021 9:30:00 AM 3.44 38.192 0.064 6.91 0 13.32
11/8/2021 9:45:00 AM 3.45 38.21 0.064 6.92 0 13.35
11/8/2021 10:00:00 AM 3.46 38.228 0.064 6.93 -0.04 13.39
11/8/2021 10:15:00 AM 3.49 38.282 0.064 6.93 0 13.4
11/8/2021 10:30:00 AM 3.52 38.336 0.064 6.94 -0.08 13.43
11/8/2021 10:45:00 AM 3.57 38.426 0.064 6.95 0.05 13.44
11/8/2021 11:00:00 AM 3.62 38.516 0.064 6.96 -0.01 13.46
11/8/2021 11:15:00 AM 3.68 38.624 0.064 6.96 -0.01 13.46
11/8/2021 11:30:00 AM 3.75 38.75 0.064 6.97 -0.01 13.45
11/8/2021 11:45:00 AM 3.84 38.912 0.064 6.97 -0.03 13.44
11/8/2021 12:00:00 PM 3.93 39.074 0.064 6.98 -0.02 13.43
11/8/2021 12:15:00 PM 4.02 39.236 0.064 6.99 -0.01 13.42
11/8/2021 12:30:00 PM 4.1 39.38 0.064 6.99 0 13.4
11/8/2021 12:45:00 PM 4.2 39.56 0.064 7 -0.01 13.38
11/8/2021 1:00:00 PM 4.3 39.74 0.064 7 -0.04 13.36
11/8/2021 1:15:00 PM 4.42 39.956 0.064 7.01 -0.02 13.33
11/8/2021 1:30:00 PM 4.53 40.154 0.063 7.01 -0.03 13.31
11/8/2021 1:45:00 PM 4.65 40.37 0.063 7.02 -0.02 13.27
11/8/2021 2:00:00 PM 4.78 40.604 0.064 7.02 0.01 13.22
11/8/2021 2:15:00 PM 4.92 40.856 0.064 7.03 -0.08 13.18
11/8/2021 2:30:00 PM 5.05 41.09 0.063 7.04 -0.01 13.14
11/8/2021 2:45:00 PM 5.17 41.306 0.063 7.04 0.04 13.1
11/8/2021 3:00:00 PM 5.28 41.504 0.063 7.05 -0.01 13.06
11/8/2021 3:15:00 PM 5.4 41.72 0.063 7.05 -0.09 13.01
11/8/2021 3:30:00 PM 5.51 41.918 0.064 7.06 -0.04 12.96
11/8/2021 3:45:00 PM 5.62 42.116 0.064 7.06 -0.06 12.91
11/8/2021 4:00:00 PM 5.73 42.314 0.063 7.07 -0.07 12.86
11/8/2021 4:15:00 PM 5.82 42.476 0.063 7.07 -0.03 12.82
11/8/2021 4:30:00 PM 5.91 42.638 0.063 7.07 0.01 12.78
11/8/2021 4:45:00 PM 5.99 42.782 0.063 7.07 -0.03 12.73
11/8/2021 5:00:00 PM 6.06 42.908 0.063 7.06 0.01 12.66
11/8/2021 5:15:00 PM 6.12 43.016 0.064 7.06 -0.03 12.6
11/8/2021 5:30:00 PM 6.18 43.124 0.064 7.05 -0.02 12.52
11/8/2021 5:45:00 PM 6.23 43.214 0.064 7.04 0.04 12.45
11/8/2021 6:00:00 PM 6.27 43.286 0.064 7.02 0 12.37
11/8/2021 6:15:00 PM 6.31 43.358 0.064 7.01 0.01 12.31
11/8/2021 6:30:00 PM 6.33 43.394 0.064 7 0.13 12.25
11/8/2021 6:45:00 PM 6.34 43.412 0.064 6.99 0.07 12.21
11/8/2021 7:00:00 PM 6.34 43.412 0.064 6.98 0.12 12.18
11/8/2021 7:15:00 PM 6.33 43.394 0.064 6.97 0.07 12.15
11/8/2021 7:30:00 PM 6.31 43.358 0.064 6.96 0.13 12.14
11/8/2021 7:45:00 PM 6.28 43.304 0.064 6.95 0.14 12.12
11/8/2021 8:00:00 PM 6.25 43.25 0.064 6.95 0.19 12.12
11/8/2021 8:15:00 PM 6.21 43.178 0.064 6.94 0.16 12.12
11/8/2021 8:30:00 PM 6.17 43.106 0.065 6.94 0.14 12.12
11/8/2021 8:45:00 PM 6.12 43.016 0.065 6.94 0.13 12.13
11/8/2021 9:00:00 PM 6.07 42.926 0.065 6.93 0.13 12.14
11/8/2021 9:15:00 PM 6.03 42.854 0.065 6.93 0.11 12.16
11/8/2021 9:30:00 PM 5.98 42.764 0.065 6.93 0.14 12.17
11/8/2021 9:45:00 PM 5.94 42.692 0.065 6.92 0.16 12.17
11/8/2021 10:00:00 PM 5.9 42.62 0.065 6.92 0.07 12.17
11/8/2021 10:15:00 PM 5.86 42.548 0.065 6.92 0.12 12.18
11/8/2021 10:30:00 PM 5.82 42.476 0.065 6.92 0.15 12.2
11/8/2021 10:45:00 PM 5.79 42.422 0.065 6.91 0.17 12.21
11/8/2021 11:00:00 PM 5.75 42.35 0.065 6.91 0.5 12.22
11/8/2021 11:15:00 PM 5.72 42.296 0.065 6.91 0.15 12.23
11/8/2021 11:30:00 PM 5.69 42.242 0.065 6.91 0.17 12.24
11/8/2021 11:45:00 PM 5.65 42.17 0.065 6.91 0.12 12.25
11/9/2021 12:00:00 AM 5.62 42.116 0.065 6.91 0.09 12.27
11/9/2021 12:15:00 AM 5.58 42.044 0.066 6.9 0.2 12.28
11/9/2021 12:30:00 AM 5.55 41.99 0.066 6.9 0.14 12.29
11/9/2021 12:45:00 AM 5.51 41.918 0.066 6.9 0.13 12.3
11/9/2021 1:00:00 AM 5.48 41.864 0.066 6.9 0.14 12.31
11/9/2021 1:15:00 AM 5.44 41.792 0.066 6.9 0.16 12.32
11/9/2021 1:30:00 AM 5.41 41.738 0.066 6.9 0.25 12.33
11/9/2021 1:45:00 AM 5.39 41.702 0.065 6.89 0.17 12.33
11/9/2021 2:00:00 AM 5.36 41.648 0.065 6.89 0.16 12.34
11/9/2021 2:15:00 AM 5.33 41.594 0.066 6.89 0.21 12.35
11/9/2021 2:30:00 AM 5.31 41.558 0.065 6.89 0.19 12.36
11/9/2021 2:45:00 AM 5.28 41.504 0.065 6.89 0.19 12.36
11/9/2021 3:00:00 AM 5.25 41.45 0.066 6.89 0.24 12.37
11/9/2021 3:15:00 AM 5.23 41.414 0.065 6.89 0.31 12.38
11/9/2021 3:30:00 AM 5.2 41.36 0.065 6.89 0.21 12.39
11/9/2021 3:45:00 AM 5.17 41.306 0.065 6.88 0.21 12.4
11/9/2021 4:00:00 AM 5.14 41.252 0.065 6.88 0.16 12.41
11/9/2021 4:15:00 AM 5.11 41.198 0.065 6.88 0.1 12.42
11/9/2021 4:30:00 AM 5.07 41.126 0.066 6.88 0.17 12.43
11/9/2021 4:45:00 AM 5.04 41.072 0.066 6.88 0.1 12.44
11/9/2021 5:00:00 AM 5.01 41.018 0.066 6.88 0.13 12.45
11/9/2021 5:15:00 AM 4.98 40.964 0.066 6.88 0.26 12.46
11/9/2021 5:30:00 AM 4.95 40.91 0.066 6.88 0.11 12.48
11/9/2021 5:45:00 AM 4.92 40.856 0.066 6.88 0.11 12.49
11/9/2021 6:00:00 AM 4.89 40.802 0.066 6.88 0.15 12.5
11/9/2021 6:15:00 AM 4.86 40.748 0.066 6.88 0.03 12.52
11/9/2021 6:30:00 AM 4.83 40.694 0.066 6.88 0.09 12.53
11/9/2021 6:45:00 AM 4.8 40.64 0.066 6.88 0.09 12.54
11/9/2021 7:00:00 AM 4.78 40.604 0.066 6.88 0.1 12.55
11/9/2021 7:15:00 AM 4.75 40.55 0.066 6.88 0.07 12.56
11/9/2021 7:30:00 AM 4.72 40.496 0.066 6.88 0.29 12.57
11/9/2021 7:45:00 AM 4.7 40.46 0.066 6.87 0.24 12.59
11/9/2021 8:00:00 AM 4.68 40.424 0.066 6.88 0.12 12.61
11/9/2021 8:15:00 AM 4.66 40.388 0.066 6.88 0.06 12.65
11/9/2021 8:30:00 AM 4.64 40.352 0.066 6.89 0.1 12.69
11/9/2021 8:45:00 AM 4.62 40.316 0.065 6.9 0.13 12.75
11/9/2021 9:00:00 AM 4.62 40.316 0.066 6.91 0.17 12.82
11/9/2021 9:15:00 AM 4.61 40.298 0.065 6.92 0.07 12.86
11/9/2021 9:30:00 AM 4.61 40.298 0.065 6.93 0.11 12.91
11/9/2021 9:45:00 AM 4.62 40.316 0.065 6.94 0.01 12.96
11/9/2021 10:00:00 AM 4.64 40.352 0.065 6.95 -0.02 13
11/9/2021 10:15:00 AM 4.66 40.388 0.065 6.96 -0.01 13.03
11/9/2021 10:30:00 AM 4.7 40.46 0.065 6.97 -0.02 13.06
11/9/2021 10:45:00 AM 4.75 40.55 0.065 6.98 -0.02 13.08
11/9/2021 11:00:00 AM 4.82 40.676 0.065 6.99 -0.04 13.09
11/9/2021 11:15:00 AM 4.89 40.802 0.065 7 -0.06 13.09
11/9/2021 11:30:00 AM 4.97 40.946 0.065 7.01 -0.05 13.09
11/9/2021 11:45:00 AM 5.06 41.108 0.065 7.01 -0.02 13.08
11/9/2021 12:00:00 PM 5.15 41.27 0.065 7.02 -0.04 13.07
11/9/2021 12:15:00 PM 5.25 41.45 0.065 7.03 -0.03 13.05
11/9/2021 12:30:00 PM 5.35 41.63 0.065 7.04 -0.01 13.03
11/9/2021 12:45:00 PM 5.45 41.81 0.065 7.05 -0.02 13.01
11/9/2021 1:00:00 PM 5.55 41.99 0.065 7.05 -0.01 12.99
11/9/2021 1:15:00 PM 5.66 42.188 0.065 7.06 -0.05 12.97
11/9/2021 1:30:00 PM 5.79 42.422 0.065 7.07 0.02 12.94
11/9/2021 1:45:00 PM 5.92 42.656 0.065 7.08 -0.03 12.9
11/9/2021 2:00:00 PM 6.06 42.908 0.065 7.09 -0.02 12.88
11/9/2021 2:15:00 PM 6.15 43.07 0.065 7.1 -0.03 12.85
11/9/2021 2:30:00 PM 6.3 43.34 0.065 7.11 -0.02 12.82
11/9/2021 2:45:00 PM 6.4 43.52 0.065 7.11 0.03 12.77
11/9/2021 3:00:00 PM 6.56 43.808 0.064 7.12 -0.06 12.74
11/9/2021 3:15:00 PM 6.66 43.988 0.064 7.13 -0.02 12.7
11/9/2021 3:30:00 PM 6.79 44.222 0.065 7.14 -0.06 12.67
11/9/2021 3:45:00 PM 6.91 44.438 0.064 7.15 -0.02 12.63
11/9/2021 4:00:00 PM 7.01 44.618 0.064 7.15 -0.01 12.57
11/9/2021 4:15:00 PM 7.11 44.798 0.065 7.15 0.04 12.53
11/9/2021 4:30:00 PM 7.18 44.924 0.065 7.15 -0.01 12.47
11/9/2021 4:45:00 PM 7.25 45.05 0.065 7.15 0.01 12.42
11/9/2021 5:00:00 PM 7.3 45.14 0.064 7.14 -0.04 12.35
11/9/2021 5:15:00 PM 7.35 45.23 0.064 7.12 0.03 12.27
11/9/2021 5:30:00 PM 7.39 45.302 0.065 7.1 0.07 12.17
11/9/2021 5:45:00 PM 7.44 45.392 0.065 7.09 0.1 12.08
11/9/2021 6:00:00 PM 7.49 45.482 0.065 7.06 0.14 12
11/9/2021 6:15:00 PM 7.52 45.536 0.065 7.04 0.07 11.92
11/9/2021 6:30:00 PM 7.55 45.59 0.065 7.02 0.08 11.85
11/9/2021 6:45:00 PM 7.58 45.644 0.066 7.01 0.16 11.8
11/9/2021 7:00:00 PM 7.6 45.68 0.066 6.99 0.22 11.76
11/9/2021 7:15:00 PM 7.61 45.698 0.066 6.98 0.11 11.72
11/9/2021 7:30:00 PM 7.61 45.698 0.066 6.97 0.18 11.69
11/9/2021 7:45:00 PM 7.61 45.698 0.066 6.96 0.21 11.67
11/9/2021 8:00:00 PM 7.63 45.734 0.066 6.95 0.19 11.66
11/9/2021 8:15:00 PM 7.63 45.734 0.066 6.95 0.16 11.64
11/9/2021 8:30:00 PM 7.63 45.734 0.066 6.94 0.23 11.63
11/9/2021 8:45:00 PM 7.62 45.716 0.066 6.93 0.22 11.63
11/9/2021 9:00:00 PM 7.59 45.662 0.067 6.93 0.2 11.63
11/9/2021 9:15:00 PM 7.57 45.626 0.067 6.92 0.19 11.62
11/9/2021 9:30:00 PM 7.55 45.59 0.067 6.92 0.15 11.62
11/9/2021 9:45:00 PM 7.53 45.554 0.067 6.92 0.19 11.62
11/9/2021 10:00:00 PM 7.5 45.5 0.067 6.92 0.22 11.62
11/9/2021 10:15:00 PM 7.48 45.464 0.067 6.92 0.18 11.63
11/9/2021 10:30:00 PM 7.46 45.428 0.067 6.91 0.21 11.63
11/9/2021 10:45:00 PM 7.43 45.374 0.067 6.91 0.2 11.64
11/9/2021 11:00:00 PM 7.4 45.32 0.067 6.91 0.16 11.64
11/9/2021 11:15:00 PM 7.37 45.266 0.067 6.91 0.19 11.65
11/9/2021 11:30:00 PM 7.34 45.212 0.067 6.91 0.15 11.66
11/9/2021 11:45:00 PM 7.31 45.158 0.067 6.91 0.18 11.66
11/10/2021 12:00:00 AM 7.28 45.104 0.067 6.91 0.21 11.67
11/10/2021 12:15:00 AM 7.25 45.05 0.067 6.91 0.19 11.68
11/10/2021 12:30:00 AM 7.23 45.014 0.067 6.91 0.17 11.68
11/10/2021 12:45:00 AM 7.21 44.978 0.067 6.91 0.2 11.69
11/10/2021 1:00:00 AM 7.2 44.96 0.067 6.9 0.2 11.69
11/10/2021 1:15:00 AM 7.17 44.906 0.067 6.91 0.25 11.7
11/10/2021 1:30:00 AM 7.17 44.906 0.067 6.91 0.18 11.71
11/10/2021 1:45:00 AM 7.16 44.888 0.067 6.91 0.17 11.71
11/10/2021 2:00:00 AM 7.14 44.852 0.067 6.9 0.22 11.71
11/10/2021 2:15:00 AM 7.12 44.816 0.067 6.9 0.08 11.71
11/10/2021 2:30:00 AM 7.1 44.78 0.067 6.9 0.17 11.72
11/10/2021 2:45:00 AM 7.08 44.744 0.067 6.9 0.1 11.73
11/10/2021 3:00:00 AM 7.06 44.708 0.067 6.9 0.09 11.73
11/10/2021 3:15:00 AM 7.06 44.708 0.067 6.9 0.17 11.74
11/10/2021 3:30:00 AM 7.06 44.708 0.067 6.9 0.24 11.74
11/10/2021 3:45:00 AM 7.06 44.708 0.067 6.9 0.1 11.74
11/10/2021 4:00:00 AM 7.06 44.708 0.067 6.9 0.15 11.75
11/10/2021 4:15:00 AM 7.07 44.726 0.067 6.9 0.2 11.75
11/10/2021 4:30:00 AM 7.07 44.726 0.067 6.9 0.12 11.75
11/10/2021 4:45:00 AM 7.06 44.708 0.067 6.9 0.13 11.75
11/10/2021 5:00:00 AM 7.04 44.672 0.067 6.9 0.15 11.76
11/10/2021 5:15:00 AM 7.05 44.69 0.067 6.9 0.14 11.76
11/10/2021 5:30:00 AM 7.06 44.708 0.067 6.9 0.12 11.76
11/10/2021 5:45:00 AM 7.07 44.726 0.067 6.9 0.12 11.77
11/10/2021 6:00:00 AM 7.07 44.726 0.067 6.9 0.15 11.77
11/10/2021 6:15:00 AM 7.07 44.726 0.067 6.9 0.13 11.77
11/10/2021 6:30:00 AM 7.07 44.726 0.067 6.9 0.11 11.77
11/10/2021 6:45:00 AM 7.07 44.726 0.067 6.9 0.14 11.77
11/10/2021 7:00:00 AM 7.06 44.708 0.067 6.9 0.07 11.77
11/10/2021 7:15:00 AM 7.04 44.672 0.067 6.9 0.12 11.78
11/10/2021 7:30:00 AM 7.02 44.636 0.067 6.9 0.16 11.78
11/10/2021 7:45:00 AM 7.01 44.618 0.067 6.9 0.21 11.79
11/10/2021 8:00:00 AM 7.01 44.618 0.067 6.91 0.2 11.81
11/10/2021 8:15:00 AM 6.99 44.582 0.067 6.92 0.18 11.85
11/10/2021 8:30:00 AM 6.96 44.528 0.067 6.94 0.1 11.9
11/10/2021 8:45:00 AM 6.93 44.474 0.067 6.95 0.08 11.96
11/10/2021 9:00:00 AM 6.9 44.42 0.067 6.96 0.14 12.02
11/10/2021 9:15:00 AM 6.88 44.384 0.067 6.97 0.07 12.08
11/10/2021 9:30:00 AM 6.88 44.384 0.067 6.98 0.08 12.15
11/10/2021 9:45:00 AM 6.88 44.384 0.067 7 0.09 12.2
11/10/2021 10:00:00 AM 6.89 44.402 0.067 7.01 0.09 12.24
11/10/2021 10:15:00 AM 6.9 44.42 0.067 7.02 0.05 12.28
11/10/2021 10:30:00 AM 6.93 44.474 0.067 7.04 0.01 12.31
11/10/2021 10:45:00 AM 6.96 44.528 0.067 7.05 0.08 12.34
11/10/2021 11:00:00 AM 7 44.6 0.067 7.06 0.01 12.36
11/10/2021 11:15:00 AM 7.04 44.672 0.067 7.07 0.04 12.38
11/10/2021 11:30:00 AM 7.09 44.762 0.066 7.08 0.06 12.39
11/10/2021 11:45:00 AM 7.16 44.888 0.067 7.09 -0.02 12.4
11/10/2021 12:00:00 PM 7.23 45.014 0.066 7.1 0.06 12.4
11/10/2021 12:15:00 PM 7.31 45.158 0.066 7.11 0 12.39
11/10/2021 12:30:00 PM 7.38 45.284 0.066 7.12 0.01 12.39
11/10/2021 12:45:00 PM 7.45 45.41 0.066 7.13 0.01 12.38
11/10/2021 1:00:00 PM 7.51 45.518 0.066 7.13 0.05 12.37
11/10/2021 1:15:00 PM 7.59 45.662 0.066 7.14 -0.01 12.36
11/10/2021 1:30:00 PM 7.66 45.788 0.066 7.15 0.01 12.34
11/10/2021 1:45:00 PM 7.73 45.914 0.066 7.15 0.07 12.32
11/10/2021 2:00:00 PM 7.81 46.058 0.066 7.16 0.07 12.3
11/10/2021 2:15:00 PM 7.9 46.22 0.066 7.16 0.08 12.28
11/10/2021 2:30:00 PM 7.97 46.346 0.066 7.17 -0.01 12.26
11/10/2021 2:45:00 PM 8.03 46.454 0.066 7.17 0.04 12.24
11/10/2021 3:00:00 PM 8.09 46.562 0.066 7.18 0.04 12.21
11/10/2021 3:15:00 PM 8.15 46.67 0.066 7.18 0.08 12.18
11/10/2021 3:30:00 PM 8.21 46.778 0.066 7.18 0.09 12.15
11/10/2021 3:45:00 PM 8.26 46.868 0.066 7.18 0.08 12.12
11/10/2021 4:00:00 PM 8.31 46.958 0.065 7.17 0.09 12.1
11/10/2021 4:15:00 PM 8.35 47.03 0.065 7.17 0.13 12.06
11/10/2021 4:30:00 PM 8.39 47.102 0.065 7.17 0.11 12.01
11/10/2021 4:45:00 PM 8.42 47.156 0.065 7.16 0.11 11.98
11/10/2021 5:00:00 PM 8.45 47.21 0.066 7.15 0.12 11.94
11/10/2021 5:15:00 PM 8.48 47.264 0.066 7.15 0.17 11.91
11/10/2021 5:30:00 PM 8.5 47.3 0.065 7.13 0.12 11.83
11/10/2021 5:45:00 PM 8.51 47.318 0.066 7.11 0.14 11.75
11/10/2021 6:00:00 PM 8.52 47.336 0.066 7.09 0.17 11.67
11/10/2021 6:15:00 PM 8.5 47.3 0.066 7.07 0.17 11.6
11/10/2021 6:30:00 PM 8.49 47.282 0.066 7.05 0.21 11.55
11/10/2021 6:45:00 PM 8.46 47.228 0.066 7.04 0.26 11.5
11/10/2021 7:00:00 PM 8.42 47.156 0.066 7.02 0.21 11.49
11/10/2021 7:15:00 PM 8.38 47.084 0.066 7.01 0.2 11.46
11/10/2021 7:30:00 PM 8.34 47.012 0.066 7 0.27 11.46
11/10/2021 7:45:00 PM 8.29 46.922 0.067 7 0.26 11.45
11/10/2021 8:00:00 PM 8.23 46.814 0.067 6.99 0.27 11.45
11/10/2021 8:15:00 PM 8.17 46.706 0.067 6.98 0.25 11.46
11/10/2021 8:30:00 PM 8.1 46.58 0.067 6.98 0.27 11.48
11/10/2021 8:45:00 PM 8.02 46.436 0.067 6.97 0.3 11.5
11/10/2021 9:00:00 PM 7.95 46.31 0.067 6.97 0.27 11.51
11/10/2021 9:15:00 PM 7.87 46.166 0.067 6.97 0.25 11.53
11/10/2021 9:30:00 PM 7.79 46.022 0.067 6.96 0.26 11.55
11/10/2021 9:45:00 PM 7.71 45.878 0.068 6.96 0.29 11.57
11/10/2021 10:00:00 PM 7.64 45.752 0.067 6.96 0.33 11.59
11/10/2021 10:15:00 PM 7.56 45.608 0.068 6.95 0.2 11.62
11/10/2021 10:30:00 PM 7.49 45.482 0.068 6.95 0.28 11.64
11/10/2021 10:45:00 PM 7.42 45.356 0.067 6.95 0.27 11.66
11/10/2021 11:00:00 PM 7.35 45.23 0.068 6.95 0.23 11.68
11/10/2021 11:15:00 PM 7.28 45.104 0.068 6.95 0.3 11.69
11/10/2021 11:30:00 PM 7.21 44.978 0.068 6.95 0.21 11.72
11/10/2021 11:45:00 PM 7.14 44.852 0.068 6.94 0.27 11.74
11/11/2021 12:00:00 AM 7.08 44.744 0.068 6.94 0.27 11.77
11/11/2021 12:15:00 AM 7.02 44.636 0.068 6.94 0.21 11.78
11/11/2021 12:30:00 AM 6.95 44.51 0.068 6.94 0.24 11.8
11/11/2021 12:45:00 AM 6.88 44.384 0.068 6.94 0.25 11.83
11/11/2021 1:00:00 AM 6.82 44.276 0.068 6.94 0.18 11.85
11/11/2021 1:15:00 AM 6.76 44.168 0.068 6.93 0.23 11.87
11/11/2021 1:30:00 AM 6.69 44.042 0.068 6.94 0.23 11.89
11/11/2021 1:45:00 AM 6.63 43.934 0.068 6.93 0.24 11.91
11/11/2021 2:00:00 AM 6.57 43.826 0.068 6.93 0.28 11.92
11/11/2021 2:15:00 AM 6.51 43.718 0.068 6.93 0.25 11.94
11/11/2021 2:30:00 AM 6.45 43.61 0.068 6.93 0.21 11.96
11/11/2021 2:45:00 AM 6.4 43.52 0.068 6.93 0.2 11.98
11/11/2021 3:00:00 AM 6.38 43.484 0.068 6.93 0.43 11.99
11/11/2021 3:15:00 AM 6.36 43.448 0.068 6.93 0.38 12
11/11/2021 3:30:00 AM 6.34 43.412 0.068 6.92 0.21 12.02
11/11/2021 3:45:00 AM 6.32 43.376 0.068 6.93 0.29 12.03
11/11/2021 4:00:00 AM 6.3 43.34 0.068 6.92 0.25 12.04
11/11/2021 4:15:00 AM 6.28 43.304 0.068 6.92 0.42 12.05
11/11/2021 4:30:00 AM 6.24 43.232 0.068 6.92 0.18 12.07
11/11/2021 4:45:00 AM 6.2 43.16 0.068 6.92 0.2 12.07
11/11/2021 5:00:00 AM 6.16 43.088 0.068 6.92 0.15 12.08
11/11/2021 5:15:00 AM 6.12 43.016 0.068 6.92 0.18 12.08
11/11/2021 5:30:00 AM 6.09 42.962 0.068 6.92 0.23 12.11
11/11/2021 5:45:00 AM 6.05 42.89 0.068 6.92 0.16 12.1
11/11/2021 6:00:00 AM 6 42.8 0.068 6.92 0.19 12.13
11/11/2021 6:15:00 AM 5.97 42.746 0.068 6.92 0.18 12.13
11/11/2021 6:30:00 AM 5.92 42.656 0.068 6.92 0.16 12.15
11/11/2021 6:45:00 AM 5.88 42.584 0.068 6.92 0.09 12.17
11/11/2021 7:00:00 AM 5.84 42.512 0.068 6.92 0.12 12.17
11/11/2021 7:15:00 AM 5.79 42.422 0.068 6.92 0.19 12.18
11/11/2021 7:30:00 AM 5.75 42.35 0.068 6.92 0.22 12.2
11/11/2021 7:45:00 AM 5.7 42.26 0.068 6.92 0.17 12.22
11/11/2021 8:00:00 AM 5.66 42.188 0.068 6.92 0.06 12.25
11/11/2021 8:15:00 AM 5.62 42.116 0.068 6.92 0.12 12.29
11/11/2021 8:30:00 AM 5.58 42.044 0.068 6.93 0.17 12.36
11/11/2021 8:45:00 AM 5.55 41.99 0.069 6.95 0.11 12.45
11/11/2021 9:00:00 AM 5.54 41.972 0.068 6.96 0.06 12.53
11/11/2021 9:15:00 AM 5.53 41.954 0.068 6.98 0.14 12.6
11/11/2021 9:30:00 AM 5.53 41.954 0.068 6.99 0.09 12.68
11/11/2021 9:45:00 AM 5.55 41.99 0.068 7.01 0.14 12.75
11/11/2021 10:00:00 AM 5.57 42.026 0.068 7.02 0.09 12.8
11/11/2021 10:15:00 AM 5.6 42.08 0.068 7.04 0.03 12.85
11/11/2021 10:30:00 AM 5.64 42.152 0.067 7.06 0.05 12.89
11/11/2021 10:45:00 AM 5.68 42.224 0.067 7.07 0.02 12.9
11/11/2021 11:00:00 AM 5.73 42.314 0.067 7.08 0 12.92
11/11/2021 11:15:00 AM 5.83 42.494 0.067 7.09 0.05 12.93
11/11/2021 11:30:00 AM 5.9 42.62 0.067 7.1 0 12.93
11/11/2021 11:45:00 AM 5.99 42.782 0.067 7.11 -0.05 12.94
11/11/2021 12:00:00 PM 6.09 42.962 0.067 7.13 -0.04 12.93
11/11/2021 12:15:00 PM 6.2 43.16 0.067 7.14 -0.04 12.9
11/11/2021 12:30:00 PM 6.34 43.412 0.067 7.16 0.01 12.89
11/11/2021 12:45:00 PM 6.44 43.592 0.067 7.17 -0.07 12.87
11/11/2021 1:00:00 PM 6.54 43.772 0.067 7.18 0.01 12.84
11/11/2021 1:15:00 PM 6.6 43.88 0.067 7.18 -0.02 12.82
11/11/2021 1:30:00 PM 6.7 44.06 0.067 7.2 -0.02 12.78
11/11/2021 1:45:00 PM 6.82 44.276 0.067 7.2 -0.07 12.76
11/11/2021 2:00:00 PM 6.92 44.456 0.066 7.21 0.05 12.74
11/11/2021 2:15:00 PM 7.08 44.744 0.066 7.22 0.01 12.71
11/11/2021 2:30:00 PM 7.19 44.942 0.067 7.23 -0.03 12.67
11/11/2021 2:45:00 PM 7.3 45.14 0.066 7.23 0 12.64
11/11/2021 3:00:00 PM 7.35 45.23 0.066 7.24 0.02 12.6
11/11/2021 3:15:00 PM 7.44 45.392 0.067 7.24 0.13 12.57
11/11/2021 3:30:00 PM 7.47 45.446 0.067 7.24 0.02 12.53
11/11/2021 3:45:00 PM 7.52 45.536 0.067 7.24 0.01 12.49
11/11/2021 4:00:00 PM 7.57 45.626 0.067 7.24 0.01 12.45
11/11/2021 4:15:00 PM 7.65 45.77 0.067 7.24 0.06 12.43
11/11/2021 4:30:00 PM 7.71 45.878 0.066 7.24 0.13 12.4
11/11/2021 4:45:00 PM 7.75 45.95 0.067 7.24 0.06 12.35
11/11/2021 5:00:00 PM 7.78 46.004 0.067 7.23 0.03 12.29
11/11/2021 5:15:00 PM 7.81 46.058 0.067 7.21 0.1 12.22
11/11/2021 5:30:00 PM 7.83 46.094 0.067 7.19 0.04 12.13
11/11/2021 5:45:00 PM 7.86 46.148 0.067 7.16 0.08 12.02
11/11/2021 6:00:00 PM 7.87 46.166 0.067 7.14 0.09 11.91
11/11/2021 6:15:00 PM 7.88 46.184 0.067 7.11 0.08 11.82
11/11/2021 6:30:00 PM 7.91 46.238 0.067 7.09 0.1 11.75
11/11/2021 6:45:00 PM 7.92 46.256 0.069 7.07 0.1 11.7
11/11/2021 7:00:00 PM 7.93 46.274 0.068 7.06 0.17 11.65
11/11/2021 7:15:00 PM 7.95 46.31 0.068 7.05 0.23 11.61
11/11/2021 7:30:00 PM 7.96 46.328 0.068 7.04 0.22 11.58
11/11/2021 7:45:00 PM 7.97 46.346 0.068 7.03 0.15 11.56
11/11/2021 8:00:00 PM 7.97 46.346 0.069 7.03 0.23 11.54
11/11/2021 8:15:00 PM 7.97 46.346 0.068 7.02 0.21 11.52
11/11/2021 8:30:00 PM 7.98 46.364 0.068 7.01 0.2 11.51
11/11/2021 8:45:00 PM 7.98 46.364 0.068 7.01 0.24 11.5
11/11/2021 9:00:00 PM 8 46.4 0.068 7.01 0.26 11.48
11/11/2021 9:15:00 PM 8.01 46.418 0.068 7.01 0.23 11.48
11/11/2021 9:30:00 PM 8.02 46.436 0.069 7 0.17 11.47
11/11/2021 9:45:00 PM 8.04 46.472 0.068 7 0.22 11.45
11/11/2021 10:00:00 PM 8.06 46.508 0.069 7 0.2 11.45
11/11/2021 10:15:00 PM 8.08 46.544 0.069 7 0.17 11.44
11/11/2021 10:30:00 PM 8.1 46.58 0.069 6.99 0.16 11.43
11/11/2021 10:45:00 PM 8.12 46.616 0.069 6.99 0.13 11.42
11/11/2021 11:00:00 PM 8.13 46.634 0.069 6.99 0.25 11.41
11/11/2021 11:15:00 PM 8.14 46.652 0.069 6.99 0.21 11.4
11/11/2021 11:30:00 PM 8.16 46.688 0.069 6.99 0.1 11.39
11/11/2021 11:45:00 PM 8.18 46.724 0.069 6.99 0.22 11.39
11/12/2021 12:00:00 AM 8.22 46.796 0.069 6.99 0.18 11.38
11/12/2021 12:15:00 AM 8.25 46.85 0.069 6.99 0.14 11.36
11/12/2021 12:30:00 AM 8.29 46.922 0.069 6.99 0.17 11.35
11/12/2021 12:45:00 AM 8.32 46.976 0.069 6.98 0.2 11.33
11/12/2021 1:00:00 AM 8.33 46.994 0.069 6.98 0.22 11.33
11/12/2021 1:15:00 AM 8.34 47.012 0.069 6.98 0.2 11.31
11/12/2021 1:30:00 AM 8.36 47.048 0.068 6.97 0.23 11.31
11/12/2021 1:45:00 AM 8.38 47.084 0.069 6.97 0.19 11.29
11/12/2021 2:00:00 AM 8.39 47.102 0.069 6.97 0.18 11.29
11/12/2021 2:15:00 AM 8.42 47.156 0.069 6.97 0.2 11.28
11/12/2021 2:30:00 AM 8.44 47.192 0.069 6.97 0.17 11.27
11/12/2021 2:45:00 AM 8.47 47.246 0.069 6.97 0.2 11.26
11/12/2021 3:00:00 AM 8.5 47.3 0.069 6.97 0.16 11.25
11/12/2021 3:15:00 AM 8.53 47.354 0.069 6.97 0.15 11.23
11/12/2021 3:30:00 AM 8.56 47.408 0.069 6.97 0.15 11.22
11/12/2021 3:45:00 AM 8.6 47.48 0.069 6.97 0.13 11.21
11/12/2021 4:00:00 AM 8.64 47.552 0.069 6.97 0.17 11.2
11/12/2021 4:15:00 AM 8.67 47.606 0.068 6.97 0.22 11.18
11/12/2021 4:30:00 AM 8.69 47.642 0.068 6.97 0.17 11.17
11/12/2021 4:45:00 AM 8.71 47.678 0.068 6.96 0.21 11.17
11/12/2021 5:00:00 AM 8.73 47.714 0.069 6.96 0.21 11.16
11/12/2021 5:15:00 AM 8.75 47.75 0.069 6.95 0.29 11.15
11/12/2021 5:30:00 AM 8.76 47.768 0.069 6.95 0.3 11.14
11/12/2021 5:45:00 AM 8.77 47.786 0.069 6.94 0.34 11.14
11/12/2021 6:00:00 AM 8.78 47.804 0.068 6.94 0.45 11.14
11/12/2021 6:15:00 AM 8.79 47.822 0.069 6.93 0.42 11.13
11/12/2021 6:30:00 AM 8.8 47.84 0.068 6.92 0.42 11.13
11/12/2021 6:45:00 AM 8.81 47.858 0.069 6.93 0.44 11.12
11/12/2021 7:00:00 AM 8.81 47.858 0.069 6.94 0.38 11.12
11/12/2021 7:15:00 AM 8.81 47.858 0.069 6.94 0.41 11.13
11/12/2021 7:30:00 AM 8.79 47.822 0.069 6.94 0.49 11.13
11/12/2021 7:45:00 AM 8.77 47.786 0.069 6.95 0.4 11.14
11/12/2021 8:00:00 AM 8.75 47.75 0.068 6.95 0.46 11.15
11/12/2021 8:15:00 AM 8.73 47.714 0.068 6.96 0.34 11.17
11/12/2021 8:30:00 AM 8.7 47.66 0.069 6.96 0.37 11.21
11/12/2021 8:45:00 AM 8.66 47.588 0.068 6.97 0.39 11.27
11/12/2021 9:00:00 AM 8.62 47.516 0.069 6.98 0.41 11.33
11/12/2021 9:15:00 AM 8.59 47.462 0.069 6.99 0.35 11.4
11/12/2021 9:30:00 AM 8.57 47.426 0.069 7.01 0.33 11.49
11/12/2021 9:45:00 AM 8.55 47.39 0.068 7.03 0.34 11.54
11/12/2021 10:00:00 AM 8.53 47.354 0.068 7.04 0.49 11.6
11/12/2021 10:15:00 AM 8.51 47.318 0.068 7.06 0.4 11.65
11/12/2021 10:30:00 AM 8.5 47.3 0.068 7.07 0.41 11.7
11/12/2021 10:45:00 AM 8.5 47.3 0.068 7.08 0.38 11.74
11/12/2021 11:00:00 AM 8.5 47.3 0.068 7.09 0.36 11.77
11/12/2021 11:15:00 AM 8.5 47.3 0.068 7.1 0.39 11.81
11/12/2021 11:30:00 AM 8.52 47.336 0.068 7.12 0.41 11.84
11/12/2021 11:45:00 AM 8.55 47.39 0.068 7.13 0.4 11.85
11/12/2021 12:00:00 PM 8.56 47.408 0.068 7.14 0.38 11.87
11/12/2021 12:15:00 PM 8.61 47.498 0.069 7.15 0.32 11.89
11/12/2021 12:30:00 PM 8.65 47.57 0.068 7.16 0.39 11.91
11/12/2021 12:45:00 PM 8.68 47.624 0.068 7.17 0.41 11.92
11/12/2021 1:00:00 PM 8.72 47.696 0.068 7.18 0.35 11.93
11/12/2021 1:15:00 PM 8.79 47.822 0.068 7.2 0.45 11.96
11/12/2021 1:30:00 PM 8.79 47.822 0.068 7.21 0.56 11.95
11/12/2021 1:45:00 PM 8.82 47.876 0.068 7.22 0.56 11.94
11/12/2021 2:00:00 PM 8.84 47.912 0.068 7.22 0.53 11.93
11/12/2021 2:15:00 PM 8.87 47.966 0.068 7.22 0.53 11.92
11/12/2021 2:30:00 PM 8.88 47.984 0.068 7.22 0.55 11.89
11/12/2021 2:45:00 PM 8.92 48.056 0.067 7.23 0.6 11.88
11/12/2021 3:00:00 PM 8.93 48.074 0.068 7.23 0.48 11.86
11/12/2021 3:15:00 PM 8.99 48.182 0.067 7.24 0.6 11.88
11/12/2021 3:30:00 PM 9.02 48.236 0.067 7.25 0.67 11.87
11/12/2021 3:45:00 PM 9.03 48.254 0.067 7.26 0.53 11.86
11/12/2021 4:00:00 PM 9.04 48.272 0.067 7.25 0.5 11.83
11/12/2021 4:15:00 PM 9.06 48.308 0.067 7.25 0.52 11.8
11/12/2021 4:30:00 PM 9.04 48.272 0.067 7.24 0.6 11.74
11/12/2021 4:45:00 PM 9.04 48.272 0.067 7.22 0.56 11.71
11/12/2021 5:00:00 PM 9.07 48.326 0.067 7.21 0.57 11.68
11/12/2021 5:15:00 PM 9.07 48.326 0.067 7.2 0.68 11.61
11/12/2021 5:30:00 PM 9.06 48.308 0.067 7.18 0.56 11.55
11/12/2021 5:45:00 PM 9.06 48.308 0.067 7.16 0.63 11.48
11/12/2021 6:00:00 PM 9.04 48.272 0.067 7.13 0.65 11.41
11/12/2021 6:15:00 PM 9.01 48.218 0.067 7.11 0.54 11.35
11/12/2021 6:30:00 PM 8.97 48.146 0.067 7.09 0.68 11.31
11/12/2021 6:45:00 PM 8.92 48.056 0.067 7.07 0.6 11.27
11/12/2021 7:00:00 PM 8.86 47.948 0.068 7.06 0.65 11.25
11/12/2021 7:15:00 PM 8.81 47.858 0.068 7.04 0.59 11.23
11/12/2021 7:30:00 PM 8.74 47.732 0.068 7.03 0.69 11.23
11/12/2021 7:45:00 PM 8.67 47.606 0.068 7.02 0.64 11.23
11/12/2021 8:00:00 PM 8.6 47.48 0.068 7.02 0.6 11.24
11/12/2021 8:15:00 PM 8.54 47.372 0.068 7.01 0.73 11.25
11/12/2021 8:30:00 PM 8.48 47.264 0.068 7 0.58 11.25
11/12/2021 8:45:00 PM 8.41 47.138 0.068 7 0.72 11.26
11/12/2021 9:00:00 PM 8.35 47.03 0.068 6.99 0.61 11.27
11/12/2021 9:15:00 PM 8.3 46.94 0.069 6.99 0.69 11.29
11/12/2021 9:30:00 PM 8.27 46.886 0.069 6.98 0.7 11.29
11/12/2021 9:45:00 PM 8.23 46.814 0.069 6.98 0.68 11.3
11/12/2021 10:00:00 PM 8.19 46.742 0.069 6.98 0.72 11.31
11/12/2021 10:15:00 PM 8.14 46.652 0.069 6.97 0.67 11.32
11/12/2021 10:30:00 PM 8.08 46.544 0.069 6.97 0.66 11.33
11/12/2021 10:45:00 PM 8.02 46.436 0.069 6.97 0.68 11.34
11/12/2021 11:00:00 PM 7.96 46.328 0.069 6.97 0.73 11.35
11/12/2021 11:15:00 PM 7.91 46.238 0.069 6.96 0.77 11.36
11/12/2021 11:30:00 PM 7.86 46.148 0.069 6.96 0.7 11.38
11/12/2021 11:45:00 PM 7.8 46.04 0.069 6.96 0.67 11.39
11/13/2021 12:00:00 AM 7.75 45.95 0.069 6.96 0.65 11.41
11/13/2021 12:15:00 AM 7.7 45.86 0.069 6.96 0.71 11.43
11/13/2021 12:30:00 AM 7.64 45.752 0.069 6.96 0.64 11.44
11/13/2021 12:45:00 AM 7.58 45.644 0.069 6.96 0.68 11.45
11/13/2021 1:00:00 AM 7.51 45.518 0.069 6.96 0.69 11.47
11/13/2021 1:15:00 AM 7.45 45.41 0.07 6.96 0.77 11.49
11/13/2021 1:30:00 AM 7.39 45.302 0.07 6.95 0.77 11.5
11/13/2021 1:45:00 AM 7.34 45.212 0.07 6.95 0.72 11.52
11/13/2021 2:00:00 AM 7.28 45.104 0.07 6.95 0.76 11.54
11/13/2021 2:15:00 AM 7.24 45.032 0.07 6.95 0.8 11.55
11/13/2021 2:30:00 AM 7.2 44.96 0.07 6.95 0.79 11.56
11/13/2021 2:45:00 AM 7.16 44.888 0.07 6.95 0.74 11.58
11/13/2021 3:00:00 AM 7.13 44.834 0.07 6.95 0.66 11.59
11/13/2021 3:15:00 AM 7.11 44.798 0.071 6.95 0.65 11.6
11/13/2021 3:30:00 AM 7.08 44.744 0.071 6.95 0.68 11.62
11/13/2021 3:45:00 AM 7.06 44.708 0.071 6.95 0.7 11.62
11/13/2021 4:00:00 AM 7.03 44.654 0.071 6.95 0.65 11.63
11/13/2021 4:15:00 AM 7.01 44.618 0.071 6.94 0.64 11.64
11/13/2021 4:30:00 AM 6.99 44.582 0.071 6.94 0.77 11.65
11/13/2021 4:45:00 AM 6.96 44.528 0.072 6.94 0.51 11.66
11/13/2021 5:00:00 AM 6.93 44.474 0.072 6.94 0.52 11.67
11/13/2021 5:15:00 AM 6.91 44.438 0.072 6.94 0.59 11.68
11/13/2021 5:30:00 AM 6.89 44.402 0.072 6.94 0.48 11.69
11/13/2021 5:45:00 AM 6.87 44.366 0.072 6.94 0.5 11.7
11/13/2021 6:00:00 AM 6.85 44.33 0.072 6.94 0.44 11.7
11/13/2021 6:15:00 AM 6.83 44.294 0.072 6.94 0.48 11.71
11/13/2021 6:30:00 AM 6.81 44.258 0.072 6.94 0.42 11.72
11/13/2021 6:45:00 AM 6.79 44.222 0.072 6.94 0.46 11.72
11/13/2021 7:00:00 AM 6.78 44.204 0.073 6.94 0.45 11.72
11/13/2021 7:15:00 AM 6.76 44.168 0.073 6.94 0.45 11.73
11/13/2021 7:30:00 AM 6.74 44.132 0.073 6.93 0.43 11.73
11/13/2021 7:45:00 AM 6.73 44.114 0.073 6.93 0.41 11.74
11/13/2021 8:00:00 AM 6.72 44.096 0.073 6.93 0.46 11.75
11/13/2021 8:15:00 AM 6.71 44.078 0.073 6.94 0.4 11.76
11/13/2021 8:30:00 AM 6.71 44.078 0.073 6.94 0.34 11.78
11/13/2021 8:45:00 AM 6.7 44.06 0.073 6.95 0.34 11.8
11/13/2021 9:00:00 AM 6.71 44.078 0.073 6.96 0.39 11.85
11/13/2021 9:15:00 AM 6.71 44.078 0.073 6.97 0.35 11.91
11/13/2021 9:30:00 AM 6.71 44.078 0.073 6.98 0.33 11.94
11/13/2021 9:45:00 AM 6.7 44.06 0.073 7 0.34 11.98
11/13/2021 10:00:00 AM 6.68 44.024 0.073 7.01 0.29 12.03
11/13/2021 10:15:00 AM 6.67 44.006 0.073 7.02 0.31 12.07
11/13/2021 10:30:00 AM 6.67 44.006 0.073 7.03 0.25 12.1
11/13/2021 10:45:00 AM 6.66 43.988 0.073 7.04 0.26 12.14
11/13/2021 11:00:00 AM 6.62 43.916 0.073 7.05 0.25 12.18
11/13/2021 11:15:00 AM 6.64 43.952 0.073 7.08 0.34 12.28
11/13/2021 11:30:00 AM 6.69 44.042 0.073 7.11 0.27 12.38
11/13/2021 11:45:00 AM 6.71 44.078 0.073 7.13 0.24 12.42
11/13/2021 12:00:00 PM 6.72 44.096 0.073 7.15 0.26 12.46
11/13/2021 12:15:00 PM 6.73 44.114 0.073 7.16 0.29 12.5
11/13/2021 12:30:00 PM 6.72 44.096 0.073 7.18 0.32 12.52
11/13/2021 12:45:00 PM 6.72 44.096 0.073 7.19 0.33 12.54
11/13/2021 1:00:00 PM 6.73 44.114 0.073 7.2 0.31 12.56
11/13/2021 1:15:00 PM 6.75 44.15 0.073 7.21 0.28 12.57
11/13/2021 1:30:00 PM 6.79 44.222 0.073 7.23 0.25 12.58
11/13/2021 1:45:00 PM 6.78 44.204 0.073 7.23 0.32 12.58
11/13/2021 2:00:00 PM 6.8 44.24 0.073 7.25 0.28 12.58
11/13/2021 2:15:00 PM 6.81 44.258 0.073 7.26 0.23 12.59
11/13/2021 2:30:00 PM 6.83 44.294 0.074 7.26 0.31 12.59
11/13/2021 2:45:00 PM 6.81 44.258 0.074 7.26 0.25 12.55
11/13/2021 3:00:00 PM 6.78 44.204 0.074 7.25 0.28 12.52
11/13/2021 3:15:00 PM 6.78 44.204 0.074 7.25 0.31 12.52
11/13/2021 3:30:00 PM 6.79 44.222 0.074 7.25 0.31 12.52
11/13/2021 3:45:00 PM 6.8 44.24 0.074 7.26 0.23 12.53
11/13/2021 4:00:00 PM 6.8 44.24 0.074 7.26 0.26 12.53
11/13/2021 4:15:00 PM 6.78 44.204 0.074 7.26 0.25 12.51
11/13/2021 4:30:00 PM 6.74 44.132 0.074 7.24 0.24 12.46
11/13/2021 4:45:00 PM 6.7 44.06 0.074 7.22 0.25 12.39
11/13/2021 5:00:00 PM 6.67 44.006 0.075 7.2 0.27 12.33
11/13/2021 5:15:00 PM 6.64 43.952 0.075 7.17 0.28 12.26
11/13/2021 5:30:00 PM 6.6 43.88 0.075 7.15 0.25 12.2
11/13/2021 5:45:00 PM 6.55 43.79 0.075 7.13 0.28 12.15
11/13/2021 6:00:00 PM 6.52 43.736 0.075 7.11 0.22 12.1
11/13/2021 6:15:00 PM 6.48 43.664 0.075 7.09 0.24 12.06
11/13/2021 6:30:00 PM 6.46 43.628 0.076 7.08 0.24 12.03
11/13/2021 6:45:00 PM 6.43 43.574 0.076 7.07 0.25 12
11/13/2021 7:00:00 PM 6.39 43.502 0.076 7.06 0.27 11.99
11/13/2021 7:15:00 PM 6.37 43.466 0.076 7.05 0.34 11.98
11/13/2021 7:30:00 PM 6.34 43.412 0.076 7.04 0.25 11.97
11/13/2021 7:45:00 PM 6.32 43.376 0.076 7.04 0.29 11.96
11/13/2021 8:00:00 PM 6.29 43.322 0.076 7.03 0.27 11.96
11/13/2021 8:15:00 PM 6.27 43.286 0.076 7.03 0.28 11.96
11/13/2021 8:30:00 PM 6.25 43.25 0.076 7.02 0.31 11.96
11/13/2021 8:45:00 PM 6.23 43.214 0.077 7.02 0.27 11.97
11/13/2021 9:00:00 PM 6.21 43.178 0.077 7.01 0.24 11.96
11/13/2021 9:15:00 PM 6.18 43.124 0.077 7.01 0.25 11.98
11/13/2021 9:30:00 PM 6.16 43.088 0.077 7.01 0.26 11.97
11/13/2021 9:45:00 PM 6.14 43.052 0.077 7.01 0.21 11.99
11/13/2021 10:00:00 PM 6.12 43.016 0.077 7.01 0.38 11.98
11/13/2021 10:15:00 PM 6.11 42.998 0.077 7 0.22 11.99
11/13/2021 10:30:00 PM 6.08 42.944 0.077 7 0.22 11.99
11/13/2021 10:45:00 PM 6.07 42.926 0.077 7 0.15 12
11/13/2021 11:00:00 PM 6.06 42.908 0.077 7 0.23 12.01
11/13/2021 11:15:00 PM 6.05 42.89 0.077 7 0.2 12.02
11/13/2021 11:30:00 PM 6.03 42.854 0.077 6.99 0.16 12.01
11/13/2021 11:45:00 PM 6.02 42.836 0.077 6.99 0.18 12.02
11/14/2021 12:00:00 AM 5.99 42.782 0.077 6.99 0.21 12.02
11/14/2021 12:15:00 AM 5.98 42.764 0.077 6.99 0.23 12.03
11/14/2021 12:30:00 AM 5.96 42.728 0.077 6.99 0.23 12.03
11/14/2021 12:45:00 AM 5.94 42.692 0.077 6.99 0.22 12.04
11/14/2021 1:00:00 AM 5.92 42.656 0.077 6.99 0.2 12.04
11/14/2021 1:15:00 AM 5.9 42.62 0.077 6.99 0.19 12.06
11/14/2021 1:30:00 AM 5.88 42.584 0.077 6.98 0.15 12.06
11/14/2021 1:45:00 AM 5.86 42.548 0.077 6.98 0.18 12.07
11/14/2021 2:00:00 AM 5.84 42.512 0.077 6.98 0.16 12.08
11/14/2021 2:15:00 AM 5.82 42.476 0.077 6.98 0.23 12.08
11/14/2021 2:30:00 AM 5.8 42.44 0.077 6.98 0.15 12.09
11/14/2021 2:45:00 AM 5.78 42.404 0.077 6.98 0.17 12.1
11/14/2021 3:00:00 AM 5.75 42.35 0.077 6.98 0.19 12.11
11/14/2021 3:15:00 AM 5.73 42.314 0.077 6.98 0.18 12.12
11/14/2021 3:30:00 AM 5.7 42.26 0.076 6.98 0.16 12.13
11/14/2021 3:45:00 AM 5.69 42.242 0.076 6.98 0.18 12.13
11/14/2021 4:00:00 AM 5.66 42.188 0.076 6.98 0.11 12.14
11/14/2021 4:15:00 AM 5.64 42.152 0.076 6.98 0.09 12.15
11/14/2021 4:30:00 AM 5.62 42.116 0.076 6.98 0.13 12.15
11/14/2021 4:45:00 AM 5.6 42.08 0.076 6.98 0.09 12.16
11/14/2021 5:00:00 AM 5.59 42.062 0.076 6.98 0.09 12.17
11/14/2021 5:15:00 AM 5.49 41.882 0.076 6.97 0.16 12.2
11/14/2021 5:30:00 AM 5.47 41.846 0.076 6.97 0.1 12.21
11/14/2021 5:45:00 AM 5.45 41.81 0.076 6.97 0.07 12.21
11/14/2021 6:00:00 AM 5.43 41.774 0.076 6.97 0.17 12.22
11/14/2021 6:15:00 AM 5.4 41.72 0.076 6.97 0.11 12.23
11/14/2021 6:30:00 AM 5.38 41.684 0.076 6.97 0.07 12.24
11/14/2021 6:45:00 AM 5.37 41.666 0.075 6.97 0.11 12.25
11/14/2021 7:00:00 AM 5.35 41.63 0.075 6.97 0.11 12.26
11/14/2021 7:15:00 AM 5.33 41.594 0.075 6.98 0.03 12.29
11/14/2021 7:30:00 AM 5.33 41.594 0.075 6.98 0.08 12.34
11/14/2021 7:45:00 AM 5.31 41.558 0.075 6.99 0.03 12.4
11/14/2021 8:00:00 AM 5.31 41.558 0.075 7 0.04 12.46
11/14/2021 8:15:00 AM 5.31 41.558 0.075 7.01 0.08 12.51
11/14/2021 8:30:00 AM 5.31 41.558 0.075 7.03 0.04 12.57
11/14/2021 8:45:00 AM 5.31 41.558 0.074 7.04 0.1 12.63
11/14/2021 9:00:00 AM 5.31 41.558 0.074 7.05 0.15 12.67
11/14/2021 9:15:00 AM 5.31 41.558 0.074 7.07 0.08 12.73
11/14/2021 9:30:00 AM 5.35 41.63 0.074 7.09 0.09 12.8
11/14/2021 9:45:00 AM 5.41 41.738 0.074 7.11 -0.01 12.86
11/14/2021 10:00:00 AM 5.48 41.864 0.074 7.13 -0.02 12.9
11/14/2021 10:15:00 AM 5.51 41.918 0.074 7.14 -0.03 12.93
11/14/2021 10:30:00 AM 5.56 42.008 0.074 7.16 0.04 12.95
11/14/2021 10:45:00 AM 5.61 42.098 0.074 7.17 -0.02 12.96
11/14/2021 11:00:00 AM 5.65 42.17 0.073 7.18 0.02 12.96
11/14/2021 11:15:00 AM 5.69 42.242 0.073 7.2 -0.01 12.96
11/14/2021 11:30:00 AM 5.76 42.368 0.073 7.21 -0.03 12.96
11/14/2021 11:45:00 AM 5.8 42.44 0.073 7.22 -0.07 12.95
11/14/2021 12:00:00 PM 5.82 42.476 0.073 7.22 -0.03 12.94
11/14/2021 12:15:00 PM 5.83 42.494 0.073 7.23 -0.04 12.93
11/14/2021 12:30:00 PM 5.85 42.53 0.073 7.24 -0.07 12.92
11/14/2021 12:45:00 PM 5.85 42.53 0.073 7.24 -0.02 12.89
11/14/2021 1:00:00 PM 5.86 42.548 0.073 7.24 -0.05 12.87
11/14/2021 1:15:00 PM 5.87 42.566 0.073 7.24 0 12.86
11/14/2021 1:30:00 PM 5.9 42.62 0.073 7.25 -0.02 12.87
11/14/2021 1:45:00 PM 5.91 42.638 0.073 7.25 -0.04 12.84
11/14/2021 2:00:00 PM 5.89 42.602 0.073 7.23 -0.07 12.77
11/14/2021 2:15:00 PM 5.88 42.584 0.073 7.22 -0.04 12.72
11/14/2021 2:30:00 PM 5.86 42.548 0.073 7.2 -0.01 12.7
11/14/2021 2:45:00 PM 5.85 42.53 0.073 7.19 -0.04 12.65
11/14/2021 3:00:00 PM 5.84 42.512 0.073 7.18 -0.02 12.61
11/14/2021 3:15:00 PM 5.83 42.494 0.073 7.17 -0.03 12.58
11/14/2021 3:30:00 PM 5.78 42.404 0.073 7.15 -0.04 12.53
11/14/2021 3:45:00 PM 5.74 42.332 0.073 7.14 0.02 12.5
11/14/2021 4:00:00 PM 5.66 42.188 0.073 7.13 -0.03 12.48
11/14/2021 4:15:00 PM 5.57 42.026 0.073 7.11 0.02 12.44
11/14/2021 4:30:00 PM 5.5 41.9 0.073 7.09 0.01 12.4
11/14/2021 4:45:00 PM 5.43 41.774 0.073 7.08 0.03 12.37
11/14/2021 5:00:00 PM 5.33 41.594 0.073 7.06 -0.02 12.35
11/14/2021 5:15:00 PM 5.19 41.342 0.073 7.05 0.03 12.33
11/14/2021 5:30:00 PM 5.12 41.216 0.073 7.04 0.04 12.33
11/14/2021 5:45:00 PM 5.05 41.09 0.073 7.03 0.04 12.32
11/14/2021 6:00:00 PM 4.98 40.964 0.073 7.02 0.04 12.32
11/14/2021 6:15:00 PM 4.95 40.91 0.073 7.02 0.07 12.33
11/14/2021 6:30:00 PM 4.92 40.856 0.073 7.01 0.02 12.34
11/14/2021 6:45:00 PM 4.89 40.802 0.073 7 0.02 12.34
11/14/2021 7:00:00 PM 4.86 40.748 0.073 7 0.04 12.36
11/14/2021 7:15:00 PM 4.83 40.694 0.074 6.99 0.03 12.35
11/14/2021 7:30:00 PM 4.82 40.676 0.074 6.99 0.11 12.36
11/14/2021 7:45:00 PM 4.81 40.658 0.074 6.98 0.14 12.36
11/14/2021 8:00:00 PM 4.81 40.658 0.074 6.98 0.04 12.37
11/14/2021 8:15:00 PM 4.8 40.64 0.074 6.98 0.07 12.37
11/14/2021 8:30:00 PM 4.8 40.64 0.074 6.98 0.1 12.37
11/14/2021 8:45:00 PM 4.8 40.64 0.074 6.97 0.02 12.37
11/14/2021 9:00:00 PM 4.79 40.622 0.074 6.97 0.11 12.37
11/14/2021 9:15:00 PM 4.79 40.622 0.074 6.97 0.08 12.37
11/14/2021 9:30:00 PM 4.78 40.604 0.074 6.97 0.1 12.38
11/14/2021 9:45:00 PM 4.77 40.586 0.074 6.97 0.12 12.38
11/14/2021 10:00:00 PM 4.76 40.568 0.074 6.96 0.08 12.38
11/14/2021 10:15:00 PM 4.75 40.55 0.074 6.96 0.08 12.39
11/14/2021 10:30:00 PM 4.73 40.514 0.074 6.96 0.06 12.39
11/14/2021 10:45:00 PM 4.72 40.496 0.074 6.96 0.04 12.4
11/14/2021 11:00:00 PM 4.71 40.478 0.074 6.96 0.09 12.4
11/14/2021 11:15:00 PM 4.7 40.46 0.074 6.96 0.06 12.4
11/14/2021 11:30:00 PM 4.69 40.442 0.074 6.96 0.1 12.41
11/14/2021 11:45:00 PM 4.68 40.424 0.074 6.96 0.05 12.41
11/15/2021 12:00:00 AM 4.67 40.406 0.074 6.96 0.08 12.41
11/15/2021 12:15:00 AM 4.66 40.388 0.074 6.95 0.08 12.42
11/15/2021 12:30:00 AM 4.65 40.37 0.074 6.95 0.04 12.42
11/15/2021 12:45:00 AM 4.64 40.352 0.074 6.95 0.04 12.42
11/15/2021 1:00:00 AM 4.63 40.334 0.074 6.95 0.04 12.43
11/15/2021 1:15:00 AM 4.62 40.316 0.074 6.95 0.06 12.43
11/15/2021 1:30:00 AM 4.6 40.28 0.074 6.95 0.08 12.44
11/15/2021 1:45:00 AM 4.59 40.262 0.074 6.96 0.02 12.44
11/15/2021 2:00:00 AM 4.58 40.244 0.074 6.96 0.04 12.44
11/15/2021 2:15:00 AM 4.57 40.226 0.074 6.96 0.05 12.45
11/15/2021 2:30:00 AM 4.56 40.208 0.074 6.96 0.04 12.45
11/15/2021 2:45:00 AM 4.55 40.19 0.074 6.96 0 12.46
11/15/2021 3:00:00 AM 4.54 40.172 0.074 6.96 0.07 12.46
11/15/2021 3:15:00 AM 4.53 40.154 0.074 6.96 0 12.47
11/15/2021 3:30:00 AM 4.51 40.118 0.074 6.96 0.03 12.47
11/15/2021 3:45:00 AM 4.5 40.1 0.074 6.96 0.07 12.48
11/15/2021 4:00:00 AM 4.49 40.082 0.074 6.96 0.05 12.48
11/15/2021 4:15:00 AM 4.48 40.064 0.074 6.96 0.03 12.49
11/15/2021 4:30:00 AM 4.47 40.046 0.074 6.96 0.03 12.49
11/15/2021 4:45:00 AM 4.46 40.028 0.075 6.96 0.03 12.5
11/15/2021 5:00:00 AM 4.45 40.01 0.075 6.96 0.04 12.5
11/15/2021 5:15:00 AM 4.44 39.992 0.075 6.96 0.04 12.51
11/15/2021 5:30:00 AM 4.43 39.974 0.074 6.96 -0.01 12.51
11/15/2021 5:45:00 AM 4.43 39.974 0.075 6.96 0.01 12.51
11/15/2021 6:00:00 AM 4.42 39.956 0.075 6.96 0.04 12.52
11/15/2021 6:15:00 AM 4.41 39.938 0.075 6.96 0.01 12.53
11/15/2021 6:30:00 AM 4.4 39.92 0.075 6.96 -0.03 12.53
11/15/2021 6:45:00 AM 4.4 39.92 0.075 6.96 0.01 12.54
11/15/2021 7:00:00 AM 4.39 39.902 0.075 6.96 0.02 12.55
11/15/2021 7:15:00 AM 4.38 39.884 0.075 6.96 -0.05 12.57
11/15/2021 7:30:00 AM 4.38 39.884 0.074 6.97 -0.05 12.6
11/15/2021 7:45:00 AM 4.38 39.884 0.074 6.98 0.01 12.68
11/15/2021 8:00:00 AM 4.39 39.902 0.074 7 0 12.75
11/15/2021 8:15:00 AM 4.41 39.938 0.074 7.01 0.06 12.82
11/15/2021 8:30:00 AM 4.44 39.992 0.074 7.03 -0.02 12.9
11/15/2021 8:45:00 AM 4.47 40.046 0.074 7.05 -0.06 12.96
11/15/2021 9:00:00 AM 4.51